Provisional Data: Blockhouse Creek near English Center, PA


Please select a monitoring station.
Please select start date.
Please select start date.

Toggle Unit: C/F Toggle Unit: C/F
Sample Time Temperature (C) Temperature (F) Specific Conductivity (mS/cm) pH   Turbidity (NTU+) DO (mg/L)
3/23/2021 12:00:00 AM 5.31 41.558 0.08 6.76 3.95 12.24
3/23/2021 12:15:00 AM 5.2 41.36 0.08 6.55 4.14 12.27
3/23/2021 12:30:00 AM 5.1 41.18 0.08 6.78 3.96 12.3
3/23/2021 12:45:00 AM 5 41 0.08 6.73 3.91 12.33
3/23/2021 1:00:00 AM 4.9 40.82 0.08 6.76 3.97 12.37
3/23/2021 1:15:00 AM 4.81 40.658 0.08 6.78 4.14 12.4
3/23/2021 1:30:00 AM 4.72 40.496 0.08 6.75 4.24 12.43
3/23/2021 1:45:00 AM 4.63 40.334 0.08 6.78 4.09 12.46
3/23/2021 2:00:00 AM 4.55 40.19 0.081 6.76 4.03 12.49
3/23/2021 2:15:00 AM 4.47 40.046 0.08 6.62 3.96 12.52
3/23/2021 2:30:00 AM 4.38 39.884 0.081 6.73 4.22 12.55
3/23/2021 2:45:00 AM 4.31 39.758 0.081 6.76 4.28 12.58
3/23/2021 3:00:00 AM 4.23 39.614 0.08 6.72 3.94 12.6
3/23/2021 3:15:00 AM 4.16 39.488 0.081 6.79 3.84 12.63
3/23/2021 3:30:00 AM 4.08 39.344 0.08 6.81 3.97 12.66
3/23/2021 3:45:00 AM 4.01 39.218 0.08 6.78 3.95 12.69
3/23/2021 4:00:00 AM 3.94 39.092 0.08 6.81 3.9 12.71
3/23/2021 4:15:00 AM 3.87 38.966 0.08 6.82 4.3 12.73
3/23/2021 4:30:00 AM 3.81 38.858 0.08 6.69 4.13 12.76
3/23/2021 4:45:00 AM 3.74 38.732 0.08 6.78 3.97 12.78
3/23/2021 5:00:00 AM 3.68 38.624 0.08 6.81 4.1 12.8
3/23/2021 5:15:00 AM 3.61 38.498 0.08 6.8 3.99 12.82
3/23/2021 5:30:00 AM 3.55 38.39 0.08 6.78 4.26 12.85
3/23/2021 5:45:00 AM 3.49 38.282 0.08 6.78 4.05 12.87
3/23/2021 6:00:00 AM 3.44 38.192 0.08 6.78 4.68 12.89
3/23/2021 6:15:00 AM 3.38 38.084 0.079 6.8 3.95 12.91
3/23/2021 6:30:00 AM 3.32 37.976 0.08 6.84 4.13 12.94
3/23/2021 6:45:00 AM 3.27 37.886 0.08 6.83 4.29 12.96
3/23/2021 7:00:00 AM 3.21 37.778 0.08 6.84 4.14 12.97
3/23/2021 7:15:00 AM 3.16 37.688 0.08 6.84 4.03 13
3/23/2021 7:30:00 AM 3.12 37.616 0.08 6.85 4.16 13.06
3/23/2021 7:45:00 AM 3.08 37.544 0.08 6.84 4.14 13.12
3/23/2021 8:00:00 AM 3.04 37.472 0.079 6.8 4.3 13.19
3/23/2021 8:15:00 AM 3.01 37.418 0.079 6.88 4.05 13.24
3/23/2021 8:30:00 AM 3 37.4 0.08 6.73 4.32 13.3
3/23/2021 8:45:00 AM 3.01 37.418 0.079 6.82 3.94 13.38
3/23/2021 9:00:00 AM 3.03 37.454 0.079 6.81 4.11 13.42
3/23/2021 9:15:00 AM 3.07 37.526 0.079 6.88 3.85 13.44
3/23/2021 9:30:00 AM 3.1 37.58 0.079 6.75 4.33 13.48
3/23/2021 9:45:00 AM 3.16 37.688 0.078 6.95 3.88 13.5
3/23/2021 10:00:00 AM 3.25 37.85 0.079 6.98 3.74 13.5
3/23/2021 10:15:00 AM 3.37 38.066 0.078 7.02 4.05 13.5
3/23/2021 10:30:00 AM 3.53 38.354 0.078 7.01 3.95 13.49
3/23/2021 10:45:00 AM 3.71 38.678 0.078 7.07 4.08 13.46
3/23/2021 11:00:00 AM 3.92 39.056 0.078 7.08 3.77 13.42
3/23/2021 11:15:00 AM 4.15 39.47 0.078 6.91 3.87 13.37
3/23/2021 11:30:00 AM 4.37 39.866 0.077 7.08 3.73 13.32
3/23/2021 11:45:00 AM 4.61 40.298 0.077 7.17 3.63 13.26
3/23/2021 12:00:00 PM 4.85 40.73 0.078 7.18 3.73 13.2
3/23/2021 12:15:00 PM 5.11 41.198 0.078 7 3.61 13.14
3/23/2021 12:30:00 PM 5.35 41.63 0.077 7.17 3.78 13.06
3/23/2021 12:45:00 PM 5.59 42.062 0.077 7.2 3.63 13
3/23/2021 1:00:00 PM 5.81 42.458 0.077 7.21 3.64 12.93
3/23/2021 1:15:00 PM 6.04 42.872 0.077 7.25 3.71 12.87
3/23/2021 1:30:00 PM 6.28 43.304 0.077 7.27 3.64 12.8
3/23/2021 1:45:00 PM 6.52 43.736 0.077 7.27 3.77 12.72
3/23/2021 2:00:00 PM 6.71 44.078 0.076 7.06 3.58 12.65
3/23/2021 2:15:00 PM 6.88 44.384 0.076 7.3 3.59 12.59
3/23/2021 2:30:00 PM 7.01 44.618 0.076 7.29 3.65 12.54
3/23/2021 2:45:00 PM 7.1 44.78 0.076 7.32 3.55 12.49
3/23/2021 3:00:00 PM 7.26 45.068 0.076 7.33 3.68 12.46
3/23/2021 3:15:00 PM 7.37 45.266 0.076 7.33 3.82 12.41
3/23/2021 3:30:00 PM 7.44 45.392 0.076 7.26 3.61 12.37
3/23/2021 3:45:00 PM 7.49 45.482 0.076 7.33 3.79 12.34
3/23/2021 4:00:00 PM 7.53 45.554 0.076 7.33 3.83 12.3
3/23/2021 4:15:00 PM 7.58 45.644 0.076 7.27 3.79 12.27
3/23/2021 4:30:00 PM 7.63 45.734 0.076 7.3 3.89 12.26
3/23/2021 4:45:00 PM 7.66 45.788 0.076 7.3 3.82 12.22
3/23/2021 5:00:00 PM 7.65 45.77 0.076 7.3 4.07 12.19
3/23/2021 5:15:00 PM 7.65 45.77 0.076 7.27 4.13 12.16
3/23/2021 5:30:00 PM 7.64 45.752 0.076 7.23 3.84 12.15
3/23/2021 5:45:00 PM 7.63 45.734 0.076 7.23 3.83 12.14
3/23/2021 6:00:00 PM 7.61 45.698 0.076 7.23 3.9 12.1
3/23/2021 6:15:00 PM 7.57 45.626 0.076 7.21 3.93 12.07
3/23/2021 6:30:00 PM 7.54 45.572 0.076 7.15 3.92 12.05
3/23/2021 6:45:00 PM 7.5 45.5 0.076 7.14 4.02 12.01
3/23/2021 7:00:00 PM 7.46 45.428 0.076 7.1 3.72 11.95
3/23/2021 7:15:00 PM 7.4 45.32 0.076 7.06 3.9 11.89
3/23/2021 7:30:00 PM 7.34 45.212 0.076 6.98 4.18 11.83
3/23/2021 7:45:00 PM 7.27 45.086 0.076 6.99 3.97 11.78
3/23/2021 8:00:00 PM 7.2 44.96 0.077 6.98 3.93 11.75
3/23/2021 8:15:00 PM 7.13 44.834 0.077 6.93 4 11.74
3/23/2021 8:30:00 PM 7.05 44.69 0.077 6.91 3.99 11.73
3/23/2021 8:45:00 PM 6.97 44.546 0.077 6.83 3.87 11.73
3/23/2021 9:00:00 PM 6.91 44.438 0.077 6.84 4.15 11.73
3/23/2021 9:15:00 PM 6.84 44.312 0.077 6.84 4.03 11.75
3/23/2021 9:30:00 PM 6.77 44.186 0.077 6.78 3.89 11.76
3/23/2021 9:45:00 PM 6.7 44.06 0.077 6.83 3.85 11.77
3/23/2021 10:00:00 PM 6.63 43.934 0.077 6.8 3.95 11.79
3/23/2021 10:15:00 PM 6.55 43.79 0.077 6.81 4.25 11.81
3/23/2021 10:30:00 PM 6.47 43.646 0.077 6.76 4.07 11.83
3/23/2021 10:45:00 PM 6.39 43.502 0.077 6.75 4.2 11.85
3/23/2021 11:00:00 PM 6.32 43.376 0.077 6.81 3.98 11.87
3/23/2021 11:15:00 PM 6.24 43.232 0.077 6.74 3.96 11.9
3/23/2021 11:30:00 PM 6.16 43.088 0.077 6.78 4.01 11.92
3/23/2021 11:45:00 PM 6.09 42.962 0.077 6.81 4.25 11.94
3/24/2021 12:00:00 AM 6.02 42.836 0.078 6.76 4.14 11.96
3/24/2021 12:15:00 AM 5.95 42.71 0.077 6.74 4.02 11.98
3/24/2021 12:30:00 AM 5.88 42.584 0.078 6.72 4.22 12.01
3/24/2021 12:45:00 AM 5.83 42.494 0.078 6.72 4.07 12.02
3/24/2021 1:00:00 AM 5.78 42.404 0.078 6.73 3.88 12.05
3/24/2021 1:15:00 AM 5.74 42.332 0.078 6.75 3.95 12.05
3/24/2021 1:30:00 AM 5.72 42.296 0.078 6.76 3.8 12.08
3/24/2021 1:45:00 AM 5.69 42.242 0.078 6.82 3.98 12.09
3/24/2021 2:00:00 AM 5.66 42.188 0.078 6.81 3.84 12.1
3/24/2021 2:15:00 AM 5.63 42.134 0.078 6.85 3.95 12.11
3/24/2021 2:30:00 AM 5.6 42.08 0.078 6.75 3.97 12.12
3/24/2021 2:45:00 AM 5.58 42.044 0.078 6.78 3.89 12.13
3/24/2021 3:00:00 AM 5.56 42.008 0.078 6.79 4.01 12.13
3/24/2021 3:15:00 AM 5.54 41.972 0.078 6.76 3.84 12.14
3/24/2021 3:30:00 AM 5.52 41.936 0.078 6.83 3.86 12.15
3/24/2021 3:45:00 AM 5.5 41.9 0.077 6.81 3.92 12.16
3/24/2021 4:00:00 AM 5.49 41.882 0.077 6.77 4 12.16
3/24/2021 4:15:00 AM 5.49 41.882 0.078 6.84 3.78 12.15
3/24/2021 4:30:00 AM 5.49 41.882 0.077 6.8 3.95 12.15
3/24/2021 4:45:00 AM 5.49 41.882 0.077 6.8 3.85 12.15
3/24/2021 5:00:00 AM 5.49 41.882 0.077 6.82 3.85 12.15
3/24/2021 5:15:00 AM 5.51 41.918 0.077 6.81 3.71 12.15
3/24/2021 5:30:00 AM 5.52 41.936 0.077 6.81 4.02 12.15
3/24/2021 5:45:00 AM 5.52 41.936 0.077 6.85 3.59 12.15
3/24/2021 6:00:00 AM 5.53 41.954 0.077 6.73 3.66 12.14
3/24/2021 6:15:00 AM 5.54 41.972 0.077 6.88 3.76 12.14
3/24/2021 6:30:00 AM 5.55 41.99 0.077 6.83 3.71 12.13
3/24/2021 6:45:00 AM 5.56 42.008 0.077 6.86 4.02 12.12
3/24/2021 7:00:00 AM 5.57 42.026 0.077 6.85 3.82 12.13
3/24/2021 7:15:00 AM 5.58 42.044 0.076 6.83 3.92 12.13
3/24/2021 7:30:00 AM 5.59 42.062 0.076 6.86 4.19 12.12
3/24/2021 7:45:00 AM 5.6 42.08 0.076 6.82 3.86 12.15
3/24/2021 8:00:00 AM 5.6 42.08 0.076 6.88 3.93 12.17
3/24/2021 8:15:00 AM 5.61 42.098 0.076 6.84 3.91 12.18
3/24/2021 8:30:00 AM 5.63 42.134 0.076 6.87 3.77 12.2
3/24/2021 8:45:00 AM 5.64 42.152 0.074 7.4 2.36 12.22
3/24/2021 9:00:00 AM 5.66 42.188 0.074 7.38 2.37 12.24
3/24/2021 9:15:00 AM 5.68 42.224 0.074 7.38 2.17 12.26
3/24/2021 9:30:00 AM 5.7 42.26 0.074 7.38 2.24 12.27
3/24/2021 9:45:00 AM 5.73 42.314 0.073 7.38 2.27 12.3
3/24/2021 10:00:00 AM 5.75 42.35 0.073 7.39 3.02 12.33
3/24/2021 10:15:00 AM 5.77 42.386 0.073 7.4 3.44 12.35
3/24/2021 10:30:00 AM 5.8 42.44 0.072 7.41 4.74 12.4
3/24/2021 10:45:00 AM 5.84 42.512 0.072 7.43 3.51 12.43
3/24/2021 11:00:00 AM 5.91 42.638 0.072 7.46 4.05 12.48
3/24/2021 11:15:00 AM 5.97 42.746 0.072 7.47 4.16 12.49
3/24/2021 11:30:00 AM 6.03 42.854 0.072 7.49 4.46 12.5
3/24/2021 11:45:00 AM 6.1 42.98 0.072 7.5 4.11 12.51
3/24/2021 12:00:00 PM 6.13 43.034 0.072 7.51 4.78 12.5
3/24/2021 12:15:00 PM 6.17 43.106 0.072 7.53 5.6 12.5
3/24/2021 12:30:00 PM 6.2 43.16 0.072 7.53 5.97 12.5
3/24/2021 12:45:00 PM 6.24 43.232 0.072 7.54 5.9 12.5
3/24/2021 1:00:00 PM 6.29 43.322 0.072 7.54 7.15 12.49
3/24/2021 1:15:00 PM 6.33 43.394 0.072 7.55 7.35 12.47
3/24/2021 1:30:00 PM 6.37 43.466 0.073 7.55 8.1 12.46
3/24/2021 1:45:00 PM 6.42 43.556 0.073 7.56 8.47 12.45
3/24/2021 2:00:00 PM 6.46 43.628 0.074 7.56 6.43 12.42
3/24/2021 2:15:00 PM 6.5 43.7 0.075 7.56 8.12 12.4
3/24/2021 2:30:00 PM 6.52 43.736 0.076 7.56 7.92 12.37
3/24/2021 2:45:00 PM 6.55 43.79 0.077 7.56 7.98 12.35
3/24/2021 3:00:00 PM 6.58 43.844 0.077 7.56 8.48 12.34
3/24/2021 3:15:00 PM 6.63 43.934 0.078 7.57 7.27 12.34
3/24/2021 3:30:00 PM 6.65 43.97 0.079 7.57 9.05 12.32
3/24/2021 3:45:00 PM 6.67 44.006 0.08 7.57 7.79 12.29
3/24/2021 4:00:00 PM 6.7 44.06 0.08 7.57 8.51 12.26
3/24/2021 4:15:00 PM 6.73 44.114 0.081 7.56 8.66 12.24
3/24/2021 4:30:00 PM 6.76 44.168 0.081 7.57 8.05 12.23
3/24/2021 4:45:00 PM 6.78 44.204 0.082 7.55 8.16 12.18
3/24/2021 5:00:00 PM 6.78 44.204 0.082 7.54 8.15 12.13
3/24/2021 5:15:00 PM 6.79 44.222 0.083 7.53 8.79 12.1
3/24/2021 5:30:00 PM 6.82 44.276 0.083 7.52 7.99 12.07
3/24/2021 5:45:00 PM 6.84 44.312 0.084 7.52 8.42 12.05
3/24/2021 6:00:00 PM 6.87 44.366 0.085 7.51 8.14 12.03
3/24/2021 6:15:00 PM 6.89 44.402 0.086 7.51 7.55 12.01
3/24/2021 6:30:00 PM 6.92 44.456 0.086 7.51 8.01 11.99
3/24/2021 6:45:00 PM 6.93 44.474 0.086 7.5 7.9 11.97
3/24/2021 7:00:00 PM 6.94 44.492 0.087 7.5 7.92 11.94
3/24/2021 7:15:00 PM 6.94 44.492 0.087 7.48 7.15 11.9
3/24/2021 7:30:00 PM 6.92 44.456 0.087 7.47 7.7 11.87
3/24/2021 7:45:00 PM 6.93 44.474 0.087 7.46 7.62 11.83
3/24/2021 8:00:00 PM 6.93 44.474 0.088 7.44 6.57 11.81
3/24/2021 8:15:00 PM 6.92 44.456 0.088 7.43 7.1 11.79
3/24/2021 8:30:00 PM 6.9 44.42 0.088 7.42 6.99 11.78
3/24/2021 8:45:00 PM 6.89 44.402 0.088 7.41 6.62 11.77
3/24/2021 9:00:00 PM 6.86 44.348 0.087 7.4 7.04 11.77
3/24/2021 9:15:00 PM 6.85 44.33 0.087 7.41 6.74 11.77
3/24/2021 9:30:00 PM 6.83 44.294 0.087 7.4 6.76 11.77
3/24/2021 9:45:00 PM 6.81 44.258 0.087 7.39 5.66 11.78
3/24/2021 10:00:00 PM 6.79 44.222 0.087 7.39 5.87 11.78
3/24/2021 10:15:00 PM 6.78 44.204 0.087 7.39 6.05 11.78
3/24/2021 10:30:00 PM 6.76 44.168 0.086 7.38 5.84 11.78
3/24/2021 10:45:00 PM 6.75 44.15 0.086 7.38 6.23 11.79
3/24/2021 11:00:00 PM 6.73 44.114 0.086 7.37 6.4 11.79
3/24/2021 11:15:00 PM 6.72 44.096 0.086 7.38 6.66 11.8
3/24/2021 11:30:00 PM 6.71 44.078 0.086 7.37 6.25 11.8
3/24/2021 11:45:00 PM 6.69 44.042 0.086 7.37 5.48 11.8
3/25/2021 12:00:00 AM 6.69 44.042 0.085 7.37 6.2 11.8
3/25/2021 12:15:00 AM 6.68 44.024 0.085 7.37 6.52 11.81
3/25/2021 12:30:00 AM 6.67 44.006 0.085 7.37 5.66 11.81
3/25/2021 12:45:00 AM 6.66 43.988 0.085 7.36 5.44 11.82
3/25/2021 1:00:00 AM 6.66 43.988 0.085 7.36 5.72 11.81
3/25/2021 1:15:00 AM 6.64 43.952 0.085 7.37 5.42 11.81
3/25/2021 1:30:00 AM 6.64 43.952 0.085 7.37 5.82 11.81
3/25/2021 1:45:00 AM 6.63 43.934 0.085 7.36 5.45 11.82
3/25/2021 2:00:00 AM 6.61 43.898 0.084 7.35 4.97 11.82
3/25/2021 2:15:00 AM 6.6 43.88 0.084 7.35 5.4 11.82
3/25/2021 2:30:00 AM 6.58 43.844 0.084 7.34 5.37 11.83
3/25/2021 2:45:00 AM 6.57 43.826 0.084 7.36 5.03 11.83
3/25/2021 3:00:00 AM 6.56 43.808 0.084 7.35 4.79 11.84
3/25/2021 3:15:00 AM 6.55 43.79 0.084 7.34 4.96 11.84
3/25/2021 3:30:00 AM 6.55 43.79 0.083 7.36 5.14 11.84
3/25/2021 3:45:00 AM 6.54 43.772 0.083 7.35 4.45 11.84
3/25/2021 4:00:00 AM 6.53 43.754 0.083 7.34 4.34 11.84
3/25/2021 4:15:00 AM 6.53 43.754 0.083 7.35 5.38 11.85
3/25/2021 4:30:00 AM 6.53 43.754 0.083 7.34 5.11 11.85
3/25/2021 4:45:00 AM 6.52 43.736 0.083 7.34 4.82 11.85
3/25/2021 5:00:00 AM 6.52 43.736 0.083 7.34 4.52 11.86
3/25/2021 5:15:00 AM 6.51 43.718 0.083 7.34 4.61 11.85
3/25/2021 5:30:00 AM 6.51 43.718 0.083 7.33 4.59 11.85
3/25/2021 5:45:00 AM 6.51 43.718 0.083 7.33 4.65 11.85
3/25/2021 6:00:00 AM 6.5 43.7 0.082 7.32 4.74 11.85
3/25/2021 6:15:00 AM 6.5 43.7 0.082 7.33 4.53 11.86
3/25/2021 6:30:00 AM 6.49 43.682 0.082 7.33 4.52 11.86
3/25/2021 6:45:00 AM 6.49 43.682 0.082 7.34 4.8 11.86
3/25/2021 7:00:00 AM 6.49 43.682 0.082 7.33 4.41 11.86
3/25/2021 7:15:00 AM 6.49 43.682 0.082 7.34 4.43 11.87
3/25/2021 7:30:00 AM 6.49 43.682 0.082 7.34 4.65 11.89
3/25/2021 7:45:00 AM 6.5 43.7 0.082 7.35 3.98 11.92
3/25/2021 8:00:00 AM 6.51 43.718 0.082 7.36 3.91 11.96
3/25/2021 8:15:00 AM 6.52 43.736 0.082 7.38 3.76 12
3/25/2021 8:30:00 AM 6.54 43.772 0.082 7.38 4.25 12.04
3/25/2021 8:45:00 AM 6.58 43.844 0.081 7.41 3.81 12.1
3/25/2021 9:00:00 AM 6.61 43.898 0.081 7.42 3.67 12.15
3/25/2021 9:15:00 AM 6.65 43.97 0.081 7.45 3.59 12.2
3/25/2021 9:30:00 AM 6.7 44.06 0.081 7.47 3.34 12.25
3/25/2021 9:45:00 AM 6.76 44.168 0.081 7.5 3.51 12.29
3/25/2021 10:00:00 AM 6.8 44.24 0.081 7.53 3.7 12.3
3/25/2021 10:15:00 AM 6.89 44.402 0.08 7.54 3.25 12.33
3/25/2021 10:30:00 AM 6.99 44.582 0.08 7.57 3.44 12.34
3/25/2021 10:45:00 AM 7.07 44.726 0.08 7.57 3.53 12.35
3/25/2021 11:00:00 AM 7.16 44.888 0.08 7.59 3.24 12.35
3/25/2021 11:15:00 AM 7.23 45.014 0.08 7.61 3.47 12.34
3/25/2021 11:30:00 AM 7.32 45.176 0.08 7.62 3.59 12.33
3/25/2021 11:45:00 AM 7.47 45.446 0.08 7.63 4.04 12.33
3/25/2021 12:00:00 PM 7.62 45.716 0.08 7.64 3.46 12.31
3/25/2021 12:15:00 PM 7.76 45.968 0.079 7.66 3.31 12.28
3/25/2021 12:30:00 PM 7.95 46.31 0.079 7.66 3.66 12.25
3/25/2021 12:45:00 PM 8.21 46.778 0.079 7.66 3.23 12.19
3/25/2021 1:00:00 PM 8.42 47.156 0.079 7.68 3.05 12.15
3/25/2021 1:15:00 PM 8.69 47.642 0.079 7.68 3.57 12.09
3/25/2021 1:30:00 PM 8.92 48.056 0.079 7.69 3.65 12.04
3/25/2021 1:45:00 PM 9.12 48.416 0.078 7.71 3.18 11.99
3/25/2021 2:00:00 PM 9.31 48.758 0.078 7.7 3 11.94
3/25/2021 2:15:00 PM 9.49 49.082 0.078 7.72 3.38 11.89
3/25/2021 2:30:00 PM 9.67 49.406 0.078 7.72 3.56 11.85
3/25/2021 2:45:00 PM 9.85 49.73 0.078 7.73 3.14 11.79
3/25/2021 3:00:00 PM 10.01 50.018 0.078 7.73 3.31 11.75
3/25/2021 3:15:00 PM 10.12 50.216 0.078 7.75 3.08 11.7
3/25/2021 3:30:00 PM 10.19 50.342 0.078 7.75 3.69 11.66
3/25/2021 3:45:00 PM 10.24 50.432 0.078 7.74 3.47 11.62
3/25/2021 4:00:00 PM 10.26 50.468 0.078 7.74 3.21 11.59
3/25/2021 4:15:00 PM 10.26 50.468 0.078 7.73 3.34 11.56
3/25/2021 4:30:00 PM 10.25 50.45 0.077 7.73 3.15 11.54
3/25/2021 4:45:00 PM 10.23 50.414 0.077 7.71 3.64 11.52
3/25/2021 5:00:00 PM 10.22 50.396 0.077 7.7 3.65 11.49
3/25/2021 5:15:00 PM 10.19 50.342 0.077 7.69 3.64 11.46
3/25/2021 5:30:00 PM 10.16 50.288 0.077 7.67 3.16 11.43
3/25/2021 5:45:00 PM 10.12 50.216 0.077 7.64 3.53 11.39
3/25/2021 6:00:00 PM 10.08 50.144 0.077 7.62 3.08 11.36
3/25/2021 6:15:00 PM 10.05 50.09 0.077 7.59 3.23 11.31
3/25/2021 6:30:00 PM 10 50 0.077 7.56 3.12 11.26
3/25/2021 6:45:00 PM 9.94 49.892 0.077 7.53 3.18 11.22
3/25/2021 7:00:00 PM 9.89 49.802 0.077 7.51 2.98 11.17
3/25/2021 7:15:00 PM 9.82 49.676 0.077 7.48 3.05 11.11
3/25/2021 7:30:00 PM 9.75 49.55 0.077 7.45 3.06 11.08
3/25/2021 7:45:00 PM 9.68 49.424 0.077 7.43 3.51 11.04
3/25/2021 8:00:00 PM 9.61 49.298 0.078 7.41 3.55 11.02
3/25/2021 8:15:00 PM 9.54 49.172 0.077 7.4 3.32 11.01
3/25/2021 8:30:00 PM 9.49 49.082 0.077 7.38 3.84 11
3/25/2021 8:45:00 PM 9.44 48.992 0.077 7.37 3.39 10.99
3/25/2021 9:00:00 PM 9.38 48.884 0.077 7.37 3.38 11
3/25/2021 9:15:00 PM 9.32 48.776 0.078 7.36 3.84 11
3/25/2021 9:30:00 PM 9.25 48.65 0.078 7.36 3.4 11.02
3/25/2021 9:45:00 PM 9.2 48.56 0.078 7.35 3.67 11.03
3/25/2021 10:00:00 PM 9.15 48.47 0.078 7.35 3.52 11.03
3/25/2021 10:15:00 PM 9.11 48.398 0.078 7.35 3.74 11.04
3/25/2021 10:30:00 PM 9.07 48.326 0.078 7.35 3.76 11.05
3/25/2021 10:45:00 PM 9.03 48.254 0.078 7.34 4.31 11.05
3/25/2021 11:00:00 PM 8.99 48.182 0.078 7.34 3.93 11.06
3/25/2021 11:15:00 PM 8.95 48.11 0.078 7.34 3.56 11.07
3/25/2021 11:30:00 PM 8.91 48.038 0.078 7.34 3.23 11.08
3/25/2021 11:45:00 PM 8.86 47.948 0.078 7.34 3.23 11.09
3/26/2021 12:00:00 AM 8.83 47.894 0.078 7.34 3.14 11.1
3/26/2021 12:15:00 AM 8.79 47.822 0.078 7.34 3.17 11.1
3/26/2021 12:30:00 AM 8.77 47.786 0.078 7.34 3.25 11.11
3/26/2021 12:45:00 AM 8.74 47.732 0.078 7.34 3.14 11.11
3/26/2021 1:00:00 AM 8.72 47.696 0.077 7.34 3.33 11.12
3/26/2021 1:15:00 AM 8.69 47.642 0.078 7.33 3.56 11.12
3/26/2021 1:30:00 AM 8.66 47.588 0.077 7.33 3.36 11.12
3/26/2021 1:45:00 AM 8.65 47.57 0.077 7.33 3.05 11.12
3/26/2021 2:00:00 AM 8.62 47.516 0.077 7.33 3.62 11.13
3/26/2021 2:15:00 AM 8.59 47.462 0.077 7.33 3.77 11.14
3/26/2021 2:30:00 AM 8.58 47.444 0.077 7.33 3.37 11.14
3/26/2021 2:45:00 AM 8.56 47.408 0.077 7.32 3.08 11.14
3/26/2021 3:00:00 AM 8.54 47.372 0.077 7.32 3.35 11.15
3/26/2021 3:15:00 AM 8.52 47.336 0.078 7.32 3.07 11.15
3/26/2021 3:30:00 AM 8.51 47.318 0.077 7.33 2.85 11.15
3/26/2021 3:45:00 AM 8.51 47.318 0.077 7.33 3.25 11.15
3/26/2021 4:00:00 AM 8.5 47.3 0.077 7.33 3.46 11.15
3/26/2021 4:15:00 AM 8.48 47.264 0.077 7.33 2.95 11.14
3/26/2021 4:30:00 AM 8.46 47.228 0.077 7.32 3.25 11.15
3/26/2021 4:45:00 AM 8.46 47.228 0.077 7.33 3.46 11.14
3/26/2021 5:00:00 AM 8.43 47.174 0.077 7.33 3.41 11.14
3/26/2021 5:15:00 AM 8.38 47.084 0.077 7.33 3.61 11.14
3/26/2021 5:30:00 AM 8.37 47.066 0.077 7.33 3.34 11.15
3/26/2021 5:45:00 AM 8.37 47.066 0.077 7.33 3.47 11.15
3/26/2021 6:00:00 AM 8.4 47.12 0.077 7.33 3.23 11.14
3/26/2021 6:15:00 AM 8.4 47.12 0.077 7.34 3.2 11.14
3/26/2021 6:30:00 AM 8.41 47.138 0.077 7.34 3.32 11.14
3/26/2021 6:45:00 AM 8.41 47.138 0.077 7.33 3.21 11.14
3/26/2021 7:00:00 AM 8.41 47.138 0.077 7.33 3.18 11.14
3/26/2021 7:15:00 AM 8.41 47.138 0.077 7.33 3.08 11.14
3/26/2021 7:30:00 AM 8.4 47.12 0.077 7.33 3.34 11.16
3/26/2021 7:45:00 AM 8.38 47.084 0.076 7.34 3.46 11.21
3/26/2021 8:00:00 AM 8.38 47.084 0.076 7.37 3.61 11.29
3/26/2021 8:15:00 AM 8.41 47.138 0.076 7.39 4.42 11.36
3/26/2021 8:30:00 AM 8.46 47.228 0.076 7.42 3.12 11.42
3/26/2021 8:45:00 AM 8.51 47.318 0.076 7.44 3.12 11.47
3/26/2021 9:00:00 AM 8.56 47.408 0.076 7.47 2.68 11.5
3/26/2021 9:15:00 AM 8.61 47.498 0.076 7.49 2.68 11.55
3/26/2021 9:30:00 AM 8.65 47.57 0.076 7.51 3.13 11.57
3/26/2021 9:45:00 AM 8.75 47.75 0.076 7.54 3.05 11.62
3/26/2021 10:00:00 AM 8.86 47.948 0.076 7.57 3.11 11.64
3/26/2021 10:15:00 AM 8.93 48.074 0.076 7.58 3 11.65
3/26/2021 10:30:00 AM 9.04 48.272 0.076 7.61 2.98 11.66
3/26/2021 10:45:00 AM 9.13 48.434 0.076 7.63 2.84 11.65
3/26/2021 11:00:00 AM 9.24 48.632 0.076 7.65 2.73 11.65
3/26/2021 11:15:00 AM 9.32 48.776 0.076 7.66 3.15 11.64
3/26/2021 11:30:00 AM 9.41 48.938 0.076 7.67 2.72 11.61
3/26/2021 11:45:00 AM 9.46 49.028 0.076 7.67 2.92 11.59
3/26/2021 12:00:00 PM 9.52 49.136 0.076 7.68 3.03 11.56
3/26/2021 12:15:00 PM 9.67 49.406 0.076 7.71 2.95 11.58
3/26/2021 12:30:00 PM 9.73 49.514 0.076 7.7 3.38 11.57
3/26/2021 12:45:00 PM 9.82 49.676 0.076 7.71 3.79 11.55
3/26/2021 1:00:00 PM 9.85 49.73 0.076 7.7 3.63 11.51
3/26/2021 1:15:00 PM 9.85 49.73 0.076 7.69 3.88 11.49
3/26/2021 1:30:00 PM 9.85 49.73 0.076 7.7 2.77 11.48
3/26/2021 1:45:00 PM 9.88 49.784 0.076 7.71 2.92 11.5
3/26/2021 2:00:00 PM 9.91 49.838 0.076 7.73 2.99 11.51
3/26/2021 2:15:00 PM 9.91 49.838 0.076 7.72 3.45 11.5
3/26/2021 2:30:00 PM 9.92 49.856 0.076 7.74 3.16 11.51
3/26/2021 2:45:00 PM 9.91 49.838 0.076 7.73 3.15 11.49
3/26/2021 3:00:00 PM 9.91 49.838 0.076 7.73 3.55 11.5
3/26/2021 3:15:00 PM 9.92 49.856 0.076 7.74 4.09 11.51
3/26/2021 3:30:00 PM 9.95 49.91 0.076 7.75 2.96 11.52
3/26/2021 3:45:00 PM 9.94 49.892 0.076 7.75 3.35 11.52
3/26/2021 4:00:00 PM 9.92 49.856 0.076 7.75 3.6 11.51
3/26/2021 4:15:00 PM 9.93 49.874 0.076 7.76 2.68 11.52
3/26/2021 4:30:00 PM 9.91 49.838 0.076 7.76 3.57 11.53
3/26/2021 4:45:00 PM 9.88 49.784 0.077 7.76 3.17 11.54
3/26/2021 5:00:00 PM 9.87 49.766 0.077 7.76 3.35 11.56
3/26/2021 5:15:00 PM 9.83 49.694 0.077 7.75 3 11.54
3/26/2021 5:30:00 PM 9.78 49.604 0.077 7.73 3.01 11.53
3/26/2021 5:45:00 PM 9.73 49.514 0.077 7.73 2.96 11.53
3/26/2021 6:00:00 PM 9.68 49.424 0.077 7.71 2.93 11.53
3/26/2021 6:15:00 PM 9.63 49.334 0.077 7.69 3.21 11.52
3/26/2021 6:30:00 PM 9.56 49.208 0.077 7.64 3.03 11.43
3/26/2021 6:45:00 PM 9.49 49.082 0.077 7.58 2.88 11.34
3/26/2021 7:00:00 PM 9.41 48.938 0.077 7.54 2.87 11.29
3/26/2021 7:15:00 PM 9.34 48.812 0.077 7.51 2.88 11.24
3/26/2021 7:30:00 PM 9.27 48.686 0.077 7.48 2.84 11.19
3/26/2021 7:45:00 PM 9.19 48.542 0.077 7.45 3.02 11.16
3/26/2021 8:00:00 PM 9.11 48.398 0.077 7.43 2.94 11.13
3/26/2021 8:15:00 PM 9.03 48.254 0.077 7.41 2.94 11.13
3/26/2021 8:30:00 PM 8.96 48.128 0.077 7.4 3.2 11.12
3/26/2021 8:45:00 PM 8.88 47.984 0.077 7.39 3.63 11.13
3/26/2021 9:00:00 PM 8.8 47.84 0.077 7.39 3.45 11.14
3/26/2021 9:15:00 PM 8.72 47.696 0.077 7.38 3.1 11.16
3/26/2021 9:30:00 PM 8.64 47.552 0.077 7.37 3.04 11.18
3/26/2021 9:45:00 PM 8.57 47.426 0.077 7.37 2.7 11.2
3/26/2021 10:00:00 PM 8.5 47.3 0.077 7.37 3.11 11.21
3/26/2021 10:15:00 PM 8.44 47.192 0.077 7.36 2.75 11.22
3/26/2021 10:30:00 PM 8.38 47.084 0.077 7.36 3.04 11.25
3/26/2021 10:45:00 PM 8.32 46.976 0.077 7.36 2.75 11.26
3/26/2021 11:00:00 PM 8.27 46.886 0.077 7.36 2.73 11.29
3/26/2021 11:15:00 PM 8.21 46.778 0.077 7.36 2.65 11.31
3/26/2021 11:30:00 PM 8.14 46.652 0.077 7.36 2.5 11.32
3/26/2021 11:45:00 PM 8.08 46.544 0.077 7.36 2.91 11.34
3/27/2021 12:00:00 AM 8.02 46.436 0.077 7.36 2.88 11.35
3/27/2021 12:15:00 AM 7.96 46.328 0.077 7.36 2.62 11.37
3/27/2021 12:30:00 AM 7.9 46.22 0.077 7.35 2.61 11.39
3/27/2021 12:45:00 AM 7.84 46.112 0.077 7.35 3.56 11.4
3/27/2021 1:00:00 AM 7.79 46.022 0.077 7.35 2.71 11.41
3/27/2021 1:15:00 AM 7.75 45.95 0.077 7.35 2.87 11.43
3/27/2021 1:30:00 AM 7.7 45.86 0.077 7.34 2.64 11.45
3/27/2021 1:45:00 AM 7.67 45.806 0.077 7.35 2.67 11.46
3/27/2021 2:00:00 AM 7.63 45.734 0.078 7.35 2.55 11.47
3/27/2021 2:15:00 AM 7.59 45.662 0.078 7.34 2.74 11.48
3/27/2021 2:30:00 AM 7.55 45.59 0.078 7.34 2.52 11.49
3/27/2021 2:45:00 AM 7.52 45.536 0.078 7.34 3.42 11.5
3/27/2021 3:00:00 AM 7.48 45.464 0.078 7.35 2.69 11.51
3/27/2021 3:15:00 AM 7.45 45.41 0.078 7.35 2.91 11.52
3/27/2021 3:30:00 AM 7.41 45.338 0.078 7.34 2.86 11.54
3/27/2021 3:45:00 AM 7.38 45.284 0.078 7.34 2.85 11.55
3/27/2021 4:00:00 AM 7.35 45.23 0.078 7.34 2.62 11.55
3/27/2021 4:15:00 AM 7.32 45.176 0.078 7.34 2.95 11.56
3/27/2021 4:30:00 AM 7.28 45.104 0.077 7.34 2.51 11.57
3/27/2021 4:45:00 AM 7.25 45.05 0.078 7.34 2.67 11.58
3/27/2021 5:00:00 AM 7.22 44.996 0.078 7.34 2.51 11.59
3/27/2021 5:15:00 AM 7.2 44.96 0.078 7.34 2.77 11.6
3/27/2021 5:30:00 AM 7.17 44.906 0.078 7.34 2.77 11.61
3/27/2021 5:45:00 AM 7.15 44.87 0.078 7.34 3.11 11.62
3/27/2021 6:00:00 AM 7.13 44.834 0.078 7.34 2.76 11.63
3/27/2021 6:15:00 AM 7.1 44.78 0.078 7.34 2.37 11.63
3/27/2021 6:30:00 AM 7.06 44.708 0.078 7.34 2.5 11.65
3/27/2021 6:45:00 AM 7.02 44.636 0.078 7.34 2.47 11.65
3/27/2021 7:00:00 AM 6.98 44.564 0.078 7.34 2.5 11.67
3/27/2021 7:15:00 AM 6.94 44.492 0.078 7.35 2.65 11.7
3/27/2021 7:30:00 AM 6.91 44.438 0.078 7.36 2.52 11.76
3/27/2021 7:45:00 AM 6.88 44.384 0.078 7.38 2.34 11.84
3/27/2021 8:00:00 AM 6.85 44.33 0.078 7.4 2.69 11.95
3/27/2021 8:15:00 AM 6.82 44.276 0.078 7.42 2.48 12.01
3/27/2021 8:30:00 AM 6.81 44.258 0.077 7.44 2.52 12.09
3/27/2021 8:45:00 AM 6.81 44.258 0.078 7.47 2.58 12.16
3/27/2021 9:00:00 AM 6.84 44.312 0.077 7.49 2.49 12.21
3/27/2021 9:15:00 AM 6.88 44.384 0.077 7.52 2.79 12.27
3/27/2021 9:30:00 AM 6.94 44.492 0.077 7.55 2.6 12.3
3/27/2021 9:45:00 AM 7.01 44.618 0.077 7.57 2.25 12.33
3/27/2021 10:00:00 AM 7.12 44.816 0.077 7.6 2.23 12.35
3/27/2021 10:15:00 AM 7.26 45.068 0.077 7.62 2.32 12.37
3/27/2021 10:30:00 AM 7.38 45.284 0.077 7.64 2.4 12.37
3/27/2021 10:45:00 AM 7.55 45.59 0.078 7.66 2.19 12.35
3/27/2021 11:00:00 AM 7.69 45.842 0.077 7.68 2.47 12.34
3/27/2021 11:15:00 AM 7.79 46.022 0.077 7.7 2.16 12.32
3/27/2021 11:30:00 AM 7.89 46.202 0.077 7.72 2.43 12.32
3/27/2021 11:45:00 AM 8.07 46.526 0.077 7.73 2.29 12.3
3/27/2021 12:00:00 PM 8.23 46.814 0.077 7.73 2.3 12.26
3/27/2021 12:15:00 PM 8.46 47.228 0.077 7.74 2.14 12.2
3/27/2021 12:30:00 PM 8.72 47.696 0.077 7.74 2.43 12.14
3/27/2021 12:45:00 PM 9.02 48.236 0.077 7.76 2.37 12.07
3/27/2021 1:00:00 PM 9.31 48.758 0.077 7.77 2.44 12.01
3/27/2021 1:15:00 PM 9.55 49.19 0.076 7.79 2.5 11.95
3/27/2021 1:30:00 PM 9.74 49.532 0.076 7.8 2.3 11.9
3/27/2021 1:45:00 PM 9.93 49.874 0.076 7.82 2.37 11.86
3/27/2021 2:00:00 PM 10.12 50.216 0.076 7.83 2.14 11.83
3/27/2021 2:15:00 PM 10.27 50.486 0.076 7.84 2.28 11.79
3/27/2021 2:30:00 PM 10.39 50.702 0.076 7.85 2.28 11.75
3/27/2021 2:45:00 PM 10.52 50.936 0.076 7.86 3.34 11.72
3/27/2021 3:00:00 PM 10.65 51.17 0.076 7.87 2.42 11.68
3/27/2021 3:15:00 PM 10.74 51.332 0.076 7.87 2.27 11.64
3/27/2021 3:30:00 PM 10.8 51.44 0.076 7.89 2.51 11.62
3/27/2021 3:45:00 PM 10.84 51.512 0.076 7.89 2.2 11.59
3/27/2021 4:00:00 PM 10.83 51.494 0.076 7.89 2.42 11.57
3/27/2021 4:15:00 PM 10.81 51.458 0.076 7.89 2.62 11.56
3/27/2021 4:30:00 PM 10.78 51.404 0.076 7.89 2.43 11.54
3/27/2021 4:45:00 PM 10.75 51.35 0.076 7.88 2.63 11.53
3/27/2021 5:00:00 PM 10.7 51.26 0.076 7.87 2.3 11.51
3/27/2021 5:15:00 PM 10.68 51.224 0.076 7.86 2.76 11.5
3/27/2021 5:30:00 PM 10.67 51.206 0.076 7.84 2.76 11.48
3/27/2021 5:45:00 PM 10.62 51.116 0.076 7.83 2.47 11.47
3/27/2021 6:00:00 PM 10.58 51.044 0.076 7.8 2.67 11.44
3/27/2021 6:15:00 PM 10.51 50.918 0.077 7.78 2.46 11.41
3/27/2021 6:30:00 PM 10.45 50.81 0.077 7.73 2.45 11.34
3/27/2021 6:45:00 PM 10.36 50.648 0.077 7.68 2.43 11.3
3/27/2021 7:00:00 PM 10.25 50.45 0.077 7.62 2.33 11.21
3/27/2021 7:15:00 PM 10.14 50.252 0.077 7.57 2.63 11.13
3/27/2021 7:30:00 PM 10.04 50.072 0.077 7.53 2.3 11.06
3/27/2021 7:45:00 PM 9.94 49.892 0.077 7.48 2.47 11
3/27/2021 8:00:00 PM 9.84 49.712 0.077 7.45 2.6 10.97
3/27/2021 8:15:00 PM 9.75 49.55 0.078 7.44 2.52 10.94
3/27/2021 8:30:00 PM 9.66 49.388 0.078 7.42 2.67 10.93
3/27/2021 8:45:00 PM 9.57 49.226 0.078 7.4 2.79 10.93
3/27/2021 9:00:00 PM 9.48 49.064 0.078 7.4 2.4 10.94
3/27/2021 9:15:00 PM 9.39 48.902 0.079 7.39 2.33 10.94
3/27/2021 9:30:00 PM 9.31 48.758 0.078 7.38 3 10.96
3/27/2021 9:45:00 PM 9.22 48.596 0.078 7.38 3.04 10.97
3/27/2021 10:00:00 PM 9.13 48.434 0.078 7.37 2.56 10.99
3/27/2021 10:15:00 PM 9.04 48.272 0.078 7.37 2.79 11.01
3/27/2021 10:30:00 PM 8.94 48.092 0.078 7.36 2.67 11.03
3/27/2021 10:45:00 PM 8.85 47.93 0.078 7.36 2.69 11.06
3/27/2021 11:00:00 PM 8.76 47.768 0.079 7.36 2.6 11.08
3/27/2021 11:15:00 PM 8.66 47.588 0.079 7.36 2.62 11.1
3/27/2021 11:30:00 PM 8.57 47.426 0.079 7.36 2.47 11.12
3/27/2021 11:45:00 PM 8.48 47.264 0.079 7.35 2.71 11.15
3/28/2021 12:00:00 AM 8.39 47.102 0.079 7.35 2.46 11.17
3/28/2021 12:15:00 AM 8.31 46.958 0.079 7.35 2.65 11.19
3/28/2021 12:30:00 AM 8.23 46.814 0.079 7.35 2.61 11.21
3/28/2021 12:45:00 AM 8.15 46.67 0.079 7.35 2.55 11.23
3/28/2021 1:00:00 AM 8.08 46.544 0.079 7.35 2.54 11.25
3/28/2021 1:15:00 AM 8.01 46.418 0.079 7.35 2.57 11.27
3/28/2021 1:30:00 AM 7.94 46.292 0.079 7.35 2.62 11.29
3/28/2021 1:45:00 AM 7.87 46.166 0.079 7.35 2.74 11.3
3/28/2021 2:00:00 AM 7.81 46.058 0.079 7.35 2.61 11.32
3/28/2021 2:15:00 AM 7.75 45.95 0.079 7.35 2.69 11.33
3/28/2021 2:30:00 AM 7.69 45.842 0.079 7.35 2.53 11.35
3/28/2021 2:45:00 AM 7.63 45.734 0.079 7.35 2.47 11.37
3/28/2021 3:00:00 AM 7.58 45.644 0.079 7.35 2.59 11.38
3/28/2021 3:15:00 AM 7.53 45.554 0.079 7.35 2.47 11.4
3/28/2021 3:30:00 AM 7.48 45.464 0.079 7.35 2.63 11.41
3/28/2021 3:45:00 AM 7.43 45.374 0.079 7.36 2.9 11.42
3/28/2021 4:00:00 AM 7.39 45.302 0.079 7.36 2.55 11.43
3/28/2021 4:15:00 AM 7.34 45.212 0.079 7.35 2.74 11.44
3/28/2021 4:30:00 AM 7.32 45.176 0.079 7.36 2.54 11.45
3/28/2021 4:45:00 AM 7.29 45.122 0.079 7.36 2.41 11.45
3/28/2021 5:00:00 AM 7.28 45.104 0.079 7.36 2.72 11.46
3/28/2021 5:15:00 AM 7.26 45.068 0.079 7.36 2.29 11.46
3/28/2021 5:30:00 AM 7.25 45.05 0.079 7.36 2.44 11.47
3/28/2021 5:45:00 AM 7.25 45.05 0.08 7.36 2.33 11.47
3/28/2021 6:00:00 AM 7.26 45.068 0.08 7.36 2.41 11.47
3/28/2021 6:15:00 AM 7.27 45.086 0.08 7.36 2.44 11.47
3/28/2021 6:30:00 AM 7.29 45.122 0.079 7.37 2.45 11.46
3/28/2021 6:45:00 AM 7.31 45.158 0.08 7.36 2.25 11.46
3/28/2021 7:00:00 AM 7.33 45.194 0.08 7.37 2.64 11.45
3/28/2021 7:15:00 AM 7.34 45.212 0.08 7.37 2.55 11.45
3/28/2021 7:30:00 AM 7.37 45.266 0.08 7.37 2.68 11.44
3/28/2021 7:45:00 AM 7.4 45.32 0.08 7.38 2.37 11.45
3/28/2021 8:00:00 AM 7.43 45.374 0.08 7.39 2.39 11.45
3/28/2021 8:15:00 AM 7.46 45.428 0.08 7.39 2.16 11.48
3/28/2021 8:30:00 AM 7.49 45.482 0.079 7.41 2.38 11.51
3/28/2021 8:45:00 AM 7.52 45.536 0.079 7.42 2.39 11.54
3/28/2021 9:00:00 AM 7.55 45.59 0.079 7.43 2.48 11.57
3/28/2021 9:15:00 AM 7.58 45.644 0.079 7.45 2.38 11.59
3/28/2021 9:30:00 AM 7.59 45.662 0.079 7.44 2.24 11.58
3/28/2021 9:45:00 AM 7.61 45.698 0.079 7.45 2.68 11.61
3/28/2021 10:00:00 AM 7.64 45.752 0.079 7.47 2.39 11.63
3/28/2021 10:15:00 AM 7.67 45.806 0.079 7.49 2.16 11.68
3/28/2021 10:30:00 AM 7.7 45.86 0.079 7.51 2.36 11.73
3/28/2021 10:45:00 AM 7.73 45.914 0.079 7.51 2.16 11.74
3/28/2021 11:00:00 AM 7.77 45.986 0.079 7.53 2.29 11.77
3/28/2021 11:15:00 AM 7.8 46.04 0.079 7.55 2.25 11.79
3/28/2021 11:30:00 AM 7.83 46.094 0.079 7.57 2.4 11.82
3/28/2021 11:45:00 AM 7.85 46.13 0.079 7.59 2.27 11.84
3/28/2021 12:00:00 PM 7.88 46.184 0.079 7.6 2.32 11.85
3/28/2021 12:15:00 PM 7.92 46.256 0.079 7.62 2.3 11.88
3/28/2021 12:30:00 PM 7.96 46.328 0.078 7.65 2.12 11.9
3/28/2021 12:45:00 PM 8 46.4 0.079 7.66 2.31 11.91
3/28/2021 1:00:00 PM 8.03 46.454 0.079 7.66 2.28 11.88
3/28/2021 1:15:00 PM 8.06 46.508 0.079 7.66 2.53 11.86
3/28/2021 1:30:00 PM 8.09 46.562 0.079 7.67 2.41 11.85
3/28/2021 1:45:00 PM 8.12 46.616 0.079 7.67 2.42 11.85
3/28/2021 2:00:00 PM 8.16 46.688 0.079 7.68 2.33 11.83
3/28/2021 2:15:00 PM 8.19 46.742 0.079 7.66 2.95 11.77
3/28/2021 2:30:00 PM 8.21 46.778 0.079 7.64 2.19 11.7
3/28/2021 2:45:00 PM 8.24 46.832 0.079 7.65 2.22 11.72
3/28/2021 3:00:00 PM 8.27 46.886 0.079 7.67 2.35 11.74
3/28/2021 3:15:00 PM 8.3 46.94 0.079 7.7 2.38 11.78
3/28/2021 3:30:00 PM 8.34 47.012 0.079 7.67 2.45 11.69
3/28/2021 3:45:00 PM 8.37 47.066 0.079 7.62 2.34 11.59
3/28/2021 4:00:00 PM 8.41 47.138 0.079 7.63 2.3 11.62
3/28/2021 4:15:00 PM 8.42 47.156 0.079 7.63 2.58 11.63
3/28/2021 4:30:00 PM 8.43 47.174 0.079 7.64 2.72 11.62
3/28/2021 4:45:00 PM 8.44 47.192 0.079 7.63 2.94 11.6
3/28/2021 5:00:00 PM 8.45 47.21 0.079 7.62 3.22 11.58
3/28/2021 5:15:00 PM 8.45 47.21 0.079 7.63 3.32 11.6
3/28/2021 5:30:00 PM 8.45 47.21 0.079 7.63 3.07 11.6
3/28/2021 5:45:00 PM 8.52 47.336 0.079 7.67 3.1 11.69
3/28/2021 6:00:00 PM 8.52 47.336 0.079 7.68 3.2 11.7
3/28/2021 6:15:00 PM 8.48 47.264 0.079 7.67 2.9 11.68
3/28/2021 6:30:00 PM 8.44 47.192 0.08 7.65 3.15 11.63
3/28/2021 6:45:00 PM 8.4 47.12 0.08 7.62 2.79 11.58
3/28/2021 7:00:00 PM 8.37 47.066 0.079 7.59 2.62 11.52
3/28/2021 7:15:00 PM 8.33 46.994 0.08 7.56 2.79 11.45
3/28/2021 7:30:00 PM 8.26 46.868 0.08 7.53 3.08 11.39
3/28/2021 7:45:00 PM 8.21 46.778 0.08 7.5 3.31 11.33
3/28/2021 8:00:00 PM 8.16 46.688 0.081 7.48 2.77 11.29
3/28/2021 8:15:00 PM 8.1 46.58 0.081 7.46 3.35 11.25
3/28/2021 8:30:00 PM 8.04 46.472 0.082 7.45 3.06 11.24
3/28/2021 8:45:00 PM 8 46.4 0.082 7.44 3.43 11.24
3/28/2021 9:00:00 PM 7.94 46.292 0.083 7.44 3.56 11.24
3/28/2021 9:15:00 PM 7.88 46.184 0.084 7.43 3.74 11.25
3/28/2021 9:30:00 PM 7.82 46.076 0.086 7.43 3.77 11.26
3/28/2021 9:45:00 PM 7.78 46.004 0.086 7.43 3.29 11.27
3/28/2021 10:00:00 PM 7.72 45.896 0.087 7.43 3.66 11.28
3/28/2021 10:15:00 PM 7.66 45.788 0.088 7.43 3.85 11.3
3/28/2021 10:30:00 PM 7.61 45.698 0.089 7.43 3.24 11.32
3/28/2021 10:45:00 PM 7.55 45.59 0.09 7.43 3.61 11.34
3/28/2021 11:00:00 PM 7.48 45.464 0.091 7.44 3.38 11.36
3/28/2021 11:15:00 PM 7.39 45.302 0.091 7.43 3.42 11.38
3/28/2021 11:30:00 PM 7.3 45.14 0.091 7.44 3.58 11.4
3/28/2021 11:45:00 PM 7.23 45.014 0.092 7.44 3.5 11.42
3/29/2021 12:00:00 AM 7.15 44.87 0.092 7.43 3.4 11.44
3/29/2021 12:15:00 AM 7.08 44.744 0.092 7.44 4.26 11.46
3/29/2021 12:30:00 AM 7.01 44.618 0.093 7.44 3.17 11.49
3/29/2021 12:45:00 AM 6.95 44.51 0.093 7.44 3.32 11.51
3/29/2021 1:00:00 AM 6.88 44.384 0.093 7.44 3.46 11.53
3/29/2021 1:15:00 AM 6.83 44.294 0.094 7.44 3.71 11.55
3/29/2021 1:30:00 AM 6.76 44.168 0.095 7.45 3.4 11.57
3/29/2021 1:45:00 AM 6.72 44.096 0.096 7.45 3.87 11.59
3/29/2021 2:00:00 AM 6.65 43.97 0.096 7.44 3.72 11.61
3/29/2021 2:15:00 AM 6.59 43.862 0.097 7.45 3.6 11.63
3/29/2021 2:30:00 AM 6.52 43.736 0.097 7.45 3.59 11.65
3/29/2021 2:45:00 AM 6.45 43.61 0.097 7.45 3.55 11.67
3/29/2021 3:00:00 AM 6.38 43.484 0.097 7.45 3.24 11.69
3/29/2021 3:15:00 AM 6.33 43.394 0.097 7.45 3.12 11.71
3/29/2021 3:30:00 AM 6.26 43.268 0.098 7.45 3.41 11.74
3/29/2021 3:45:00 AM 6.2 43.16 0.098 7.45 3.3 11.76
3/29/2021 4:00:00 AM 6.13 43.034 0.098 7.45 3.51 11.79
3/29/2021 4:15:00 AM 6.08 42.944 0.098 7.45 3.06 11.81
3/29/2021 4:30:00 AM 6.02 42.836 0.098 7.45 2.89 11.82
3/29/2021 4:45:00 AM 5.97 42.746 0.098 7.45 3.09 11.84
3/29/2021 5:00:00 AM 5.92 42.656 0.098 7.44 3.07 11.87
3/29/2021 5:15:00 AM 5.86 42.548 0.098 7.45 3.04 11.89
3/29/2021 5:30:00 AM 5.79 42.422 0.098 7.45 2.82 11.92
3/29/2021 5:45:00 AM 5.73 42.314 0.098 7.44 3 11.94
3/29/2021 6:00:00 AM 5.68 42.224 0.098 7.44 3.02 11.96
3/29/2021 6:15:00 AM 5.61 42.098 0.098 7.44 2.55 11.98
3/29/2021 6:30:00 AM 5.56 42.008 0.098 7.44 2.86 12
3/29/2021 6:45:00 AM 5.5 41.9 0.097 7.44 2.78 12.02
3/29/2021 7:00:00 AM 5.44 41.792 0.097 7.44 2.8 12.05
3/29/2021 7:15:00 AM 5.4 41.72 0.097 7.45 2.72 12.09
3/29/2021 7:30:00 AM 5.35 41.63 0.097 7.46 2.72 12.15
3/29/2021 7:45:00 AM 5.31 41.558 0.097 7.46 2.59 12.2
3/29/2021 8:00:00 AM 5.27 41.486 0.097 7.47 2.58 12.28
3/29/2021 8:15:00 AM 5.23 41.414 0.097 7.49 2.59 12.34
3/29/2021 8:30:00 AM 5.2 41.36 0.096 7.5 2.35 12.39
3/29/2021 8:45:00 AM 5.18 41.324 0.096 7.52 2.58 12.46
3/29/2021 9:00:00 AM 5.15 41.27 0.096 7.54 2.84 12.55
3/29/2021 9:15:00 AM 5.16 41.288 0.096 7.57 2.41 12.67
3/29/2021 9:30:00 AM 5.15 41.27 0.096 7.61 2.21 12.75
3/29/2021 9:45:00 AM 5.14 41.252 0.096 7.64 2.29 12.81
3/29/2021 10:00:00 AM 5.16 41.288 0.095 7.66 2.29 12.88
3/29/2021 10:15:00 AM 5.2 41.36 0.095 7.69 2.19 12.93
3/29/2021 10:30:00 AM 5.28 41.504 0.095 7.72 2.41 12.97
3/29/2021 10:45:00 AM 5.35 41.63 0.095 7.74 2.19 12.99
3/29/2021 11:00:00 AM 5.43 41.774 0.095 7.77 2.41 13.01
3/29/2021 11:15:00 AM 5.55 41.99 0.094 7.78 2.17 13.02
3/29/2021 11:30:00 AM 5.69 42.242 0.094 7.79 2.07 13.01
3/29/2021 11:45:00 AM 5.83 42.494 0.094 7.8 2.23 12.98
3/29/2021 12:00:00 PM 6.01 42.818 0.094 7.82 2.31 12.96
3/29/2021 12:15:00 PM 6.1 42.98 0.094 7.83 2.14 12.93
3/29/2021 12:30:00 PM 6.36 43.448 0.094 7.84 2.25 12.9
3/29/2021 12:45:00 PM 6.51 43.718 0.093 7.83 2.16 12.84
3/29/2021 1:00:00 PM 6.76 44.168 0.093 7.84 2.13 12.8
3/29/2021 1:15:00 PM 6.87 44.366 0.093 7.84 2.14 12.75
3/29/2021 1:30:00 PM 7.06 44.708 0.093 7.84 2.09 12.7
3/29/2021 1:45:00 PM 7.31 45.158 0.093 7.84 2.12 12.64
3/29/2021 2:00:00 PM 7.56 45.608 0.093 7.85 2.12 12.57
3/29/2021 2:15:00 PM 7.79 46.022 0.093 7.86 2.29 12.5
3/29/2021 2:30:00 PM 7.95 46.31 0.093 7.87 2.25 12.45
3/29/2021 2:45:00 PM 8.1 46.58 0.093 7.87 2 12.42
3/29/2021 3:00:00 PM 8.25 46.85 0.093 7.88 2.1 12.37
3/29/2021 3:15:00 PM 8.4 47.12 0.093 7.88 2.4 12.33
3/29/2021 3:30:00 PM 8.55 47.39 0.093 7.89 2 12.27
3/29/2021 3:45:00 PM 8.66 47.588 0.093 7.89 1.79 12.23
3/29/2021 4:00:00 PM 8.76 47.768 0.092 7.9 1.98 12.2
3/29/2021 4:15:00 PM 8.83 47.894 0.092 7.9 2.13 12.18
3/29/2021 4:30:00 PM 8.88 47.984 0.092 7.91 2.21 12.14
3/29/2021 4:45:00 PM 8.9 48.02 0.092 7.91 2.21 12.12
3/29/2021 5:00:00 PM 8.89 48.002 0.092 7.9 2.01 12.1
3/29/2021 5:15:00 PM 8.87 47.966 0.092 7.89 2.09 12.07
3/29/2021 5:30:00 PM 8.81 47.858 0.092 7.87 2.21 12.04
3/29/2021 5:45:00 PM 8.7 47.66 0.092 7.84 2.22 12.02
3/29/2021 6:00:00 PM 8.58 47.444 0.092 7.81 2.16 11.98
3/29/2021 6:15:00 PM 8.47 47.246 0.092 7.77 2.21 11.95
3/29/2021 6:30:00 PM 8.33 46.994 0.092 7.73 2.06 11.91
3/29/2021 6:45:00 PM 8.21 46.778 0.092 7.69 2.07 11.85
3/29/2021 7:00:00 PM 8.08 46.544 0.092 7.64 2.21 11.78
3/29/2021 7:15:00 PM 7.95 46.31 0.092 7.61 2.33 11.74
3/29/2021 7:30:00 PM 7.85 46.13 0.092 7.57 2.51 11.7
3/29/2021 7:45:00 PM 7.75 45.95 0.093 7.53 2.74 11.65
3/29/2021 8:00:00 PM 7.65 45.77 0.093 7.51 2.35 11.62
3/29/2021 8:15:00 PM 7.55 45.59 0.093 7.49 2.44 11.6
3/29/2021 8:30:00 PM 7.45 45.41 0.093 7.47 2.66 11.6
3/29/2021 8:45:00 PM 7.34 45.212 0.093 7.46 2.38 11.61
3/29/2021 9:00:00 PM 7.24 45.032 0.093 7.45 2.36 11.62
3/29/2021 9:15:00 PM 7.14 44.852 0.093 7.45 2.19 11.65
3/29/2021 9:30:00 PM 7.03 44.654 0.093 7.44 2.09 11.67
3/29/2021 9:45:00 PM 6.93 44.474 0.093 7.44 2.27 11.69
3/29/2021 10:00:00 PM 6.82 44.276 0.093 7.43 2.24 11.72
3/29/2021 10:15:00 PM 6.71 44.078 0.093 7.43 2.39 11.75
3/29/2021 10:30:00 PM 6.61 43.898 0.093 7.42 2.63 11.78
3/29/2021 10:45:00 PM 6.5 43.7 0.093 7.42 2.33 11.81
3/29/2021 11:00:00 PM 6.39 43.502 0.093 7.42 2.42 11.84
3/29/2021 11:15:00 PM 6.28 43.304 0.093 7.42 2.44 11.88
3/29/2021 11:30:00 PM 6.17 43.106 0.093 7.41 2.4 11.91
3/29/2021 11:45:00 PM 6.07 42.926 0.093 7.41 2.44 11.94
3/30/2021 12:00:00 AM 5.97 42.746 0.093 7.42 2.32 11.97
3/30/2021 12:15:00 AM 5.87 42.566 0.093 7.41 2.2 12
3/30/2021 12:30:00 AM 5.78 42.404 0.093 7.41 2.37 12.03
3/30/2021 12:45:00 AM 5.69 42.242 0.093 7.41 2.22 12.07
3/30/2021 1:00:00 AM 5.6 42.08 0.093 7.41 2.25 12.1
3/30/2021 1:15:00 AM 5.51 41.918 0.093 7.41 2.17 12.12
3/30/2021 1:30:00 AM 5.43 41.774 0.093 7.41 2.35 12.14
3/30/2021 1:45:00 AM 5.35 41.63 0.093 7.41 2.12 12.17
3/30/2021 2:00:00 AM 5.27 41.486 0.093 7.41 2.18 12.2
3/30/2021 2:15:00 AM 5.19 41.342 0.093 7.41 2.29 12.23
3/30/2021 2:30:00 AM 5.11 41.198 0.093 7.41 2.45 12.26
3/30/2021 2:45:00 AM 5.04 41.072 0.093 7.41 2.15 12.28
3/30/2021 3:00:00 AM 4.97 40.946 0.093 7.41 2.38 12.3
3/30/2021 3:15:00 AM 4.89 40.802 0.093 7.41 2.55 12.32
3/30/2021 3:30:00 AM 4.83 40.694 0.093 7.41 2.34 12.35
3/30/2021 3:45:00 AM 4.76 40.568 0.093 7.41 2.44 12.37
3/30/2021 4:00:00 AM 4.7 40.46 0.093 7.41 2.15 12.4
3/30/2021 4:15:00 AM 4.63 40.334 0.093 7.41 2.25 12.41
3/30/2021 4:30:00 AM 4.57 40.226 0.093 7.4 2.12 12.43
3/30/2021 4:45:00 AM 4.51 40.118 0.093 7.41 2.14 12.45
3/30/2021 5:00:00 AM 4.45 40.01 0.093 7.41 2.22 12.46
3/30/2021 5:15:00 AM 4.4 39.92 0.093 7.41 2.13 12.5
3/30/2021 5:30:00 AM 4.34 39.812 0.093 7.41 2.6 12.51
3/30/2021 5:45:00 AM 4.28 39.704 0.093 7.41 2.16 12.54
3/30/2021 6:00:00 AM 4.22 39.596 0.093 7.41 2.22 12.56
3/30/2021 6:15:00 AM 4.17 39.506 0.093 7.41 2.22 12.58
3/30/2021 6:30:00 AM 4.11 39.398 0.093 7.41 2.45 12.59
3/30/2021 6:45:00 AM 4.06 39.308 0.093 7.41 2.24 12.61
3/30/2021 7:00:00 AM 4.01 39.218 0.093 7.42 2.33 12.63
3/30/2021 7:15:00 AM 3.96 39.128 0.093 7.43 2.41 12.69
3/30/2021 7:30:00 AM 3.91 39.038 0.092 7.44 2.68 12.77
3/30/2021 7:45:00 AM 3.88 38.984 0.093 7.46 2.39 12.85
3/30/2021 8:00:00 AM 3.84 38.912 0.092 7.47 2.33 12.94
3/30/2021 8:15:00 AM 3.81 38.858 0.092 7.49 2.41 13.02
3/30/2021 8:30:00 AM 3.81 38.858 0.092 7.51 2.22 13.1
3/30/2021 8:45:00 AM 3.82 38.876 0.092 7.53 2.06 13.17
3/30/2021 9:00:00 AM 3.87 38.966 0.092 7.56 2.43 13.22
3/30/2021 9:15:00 AM 3.93 39.074 0.092 7.58 2.22 13.27
3/30/2021 9:30:00 AM 4.03 39.254 0.092 7.61 2.14 13.3
3/30/2021 9:45:00 AM 4.14 39.452 0.091 7.62 1.99 13.31
3/30/2021 10:00:00 AM 4.27 39.686 0.091 7.65 2.42 13.33
3/30/2021 10:15:00 AM 4.43 39.974 0.091 7.67 2.02 13.32
3/30/2021 10:30:00 AM 4.65 40.37 0.091 7.68 2.05 13.3
3/30/2021 10:45:00 AM 4.88 40.784 0.091 7.7 2.08 13.27
3/30/2021 11:00:00 AM 5.12 41.216 0.091 7.71 2.08 13.22
3/30/2021 11:15:00 AM 5.36 41.648 0.09 7.73 1.99 13.19
3/30/2021 11:30:00 AM 5.62 42.116 0.09 7.74 2.12 13.13
3/30/2021 11:45:00 AM 5.88 42.584 0.09 7.75 2.02 13.08
3/30/2021 12:00:00 PM 6.16 43.088 0.091 7.77 1.9 13
3/30/2021 12:15:00 PM 6.44 43.592 0.09 7.77 2.16 12.95
3/30/2021 12:30:00 PM 6.75 44.15 0.09 7.79 2.27 12.86
3/30/2021 12:45:00 PM 7.05 44.69 0.09 7.8 2.05 12.79
3/30/2021 1:00:00 PM 7.36 45.248 0.09 7.82 2.07 12.71
3/30/2021 1:15:00 PM 7.66 45.788 0.089 7.83 1.97 12.63
3/30/2021 1:30:00 PM 7.96 46.328 0.089 7.84 1.91 12.54
3/30/2021 1:45:00 PM 8.24 46.832 0.089 7.85 1.96 12.47
3/30/2021 2:00:00 PM 8.51 47.318 0.089 7.87 1.91 12.39
3/30/2021 2:15:00 PM 8.77 47.786 0.089 7.88 1.88 12.32
3/30/2021 2:30:00 PM 9.02 48.236 0.089 7.89 1.93 12.25
3/30/2021 2:45:00 PM 9.25 48.65 0.089 7.91 2.06 12.19
3/30/2021 3:00:00 PM 9.46 49.028 0.089 7.93 1.88 12.13
3/30/2021 3:15:00 PM 9.65 49.37 0.089 7.94 2.02 12.08
3/30/2021 3:30:00 PM 9.82 49.676 0.089 7.96 2.07 12.03
3/30/2021 3:45:00 PM 9.97 49.946 0.089 7.97 2.32 11.98
3/30/2021 4:00:00 PM 10.09 50.162 0.089 7.97 2.01 11.93
3/30/2021 4:15:00 PM 10.18 50.324 0.089 7.98 1.85 11.9
3/30/2021 4:30:00 PM 10.24 50.432 0.089 7.98 2.37 11.86
3/30/2021 4:45:00 PM 10.24 50.432 0.09 7.98 2 11.82
3/30/2021 5:00:00 PM 10.25 50.45 0.089 8 2.01 11.82
3/30/2021 5:15:00 PM 10.26 50.468 0.089 7.99 2.11 11.79
3/30/2021 5:30:00 PM 10.2 50.36 0.089 7.97 2.23 11.77
3/30/2021 5:45:00 PM 10.14 50.252 0.089 7.96 2.04 11.73
3/30/2021 6:00:00 PM 10.07 50.126 0.089 7.92 2.61 11.71
3/30/2021 6:15:00 PM 9.98 49.964 0.089 7.87 2.08 11.65
3/30/2021 6:30:00 PM 9.87 49.766 0.089 7.81 2.11 11.57
3/30/2021 6:45:00 PM 9.75 49.55 0.089 7.74 2.11 11.48
3/30/2021 7:00:00 PM 9.65 49.37 0.089 7.69 2.21 11.43
3/30/2021 7:15:00 PM 9.55 49.19 0.089 7.65 2.2 11.35
3/30/2021 7:30:00 PM 9.45 49.01 0.089 7.6 2.27 11.26
3/30/2021 7:45:00 PM 9.35 48.83 0.09 7.55 2.65 11.19
3/30/2021 8:00:00 PM 9.25 48.65 0.09 7.52 2.38 11.14
3/30/2021 8:15:00 PM 9.16 48.488 0.09 7.5 2.67 11.12
3/30/2021 8:30:00 PM 9.07 48.326 0.09 7.48 2.33 11.1
3/30/2021 8:45:00 PM 8.98 48.164 0.09 7.47 2.64 11.1
3/30/2021 9:00:00 PM 8.9 48.02 0.09 7.46 2.36 11.11
3/30/2021 9:15:00 PM 8.82 47.876 0.09 7.46 2.09 11.12
3/30/2021 9:30:00 PM 8.74 47.732 0.09 7.45 2.1 11.13
3/30/2021 9:45:00 PM 8.67 47.606 0.09 7.44 2.44 11.15
3/30/2021 10:00:00 PM 8.59 47.462 0.09 7.44 2.28 11.16
3/30/2021 10:15:00 PM 8.52 47.336 0.09 7.43 2.29 11.18
3/30/2021 10:30:00 PM 8.45 47.21 0.09 7.44 2.24 11.2
3/30/2021 10:45:00 PM 8.38 47.084 0.09 7.44 2.1 11.22
3/30/2021 11:00:00 PM 8.32 46.976 0.09 7.43 2.27 11.23
3/30/2021 11:15:00 PM 8.25 46.85 0.09 7.43 2.32 11.25
3/30/2021 11:30:00 PM 8.18 46.724 0.09 7.42 2.13 11.27
3/30/2021 11:45:00 PM 8.11 46.598 0.09 7.42 2.29 11.3
3/31/2021 12:00:00 AM 8.03 46.454 0.09 7.42 2.37 11.31
3/31/2021 12:15:00 AM 7.96 46.328 0.09 7.42 2.15 11.34
3/31/2021 12:30:00 AM 7.89 46.202 0.09 7.41 1.93 11.35
3/31/2021 12:45:00 AM 7.83 46.094 0.09 7.42 2.18 11.37
3/31/2021 1:00:00 AM 7.77 45.986 0.09 7.42 2.39 11.39
3/31/2021 1:15:00 AM 7.71 45.878 0.09 7.42 2.26 11.41
3/31/2021 1:30:00 AM 7.66 45.788 0.09 7.42 2.38 11.43
3/31/2021 1:45:00 AM 7.6 45.68 0.09 7.42 2.66 11.44
3/31/2021 2:00:00 AM 7.54 45.572 0.09 7.42 2.74 11.45
3/31/2021 2:15:00 AM 7.49 45.482 0.09 7.41 2.6 11.47
3/31/2021 2:30:00 AM 7.44 45.392 0.09 7.42 3.16 11.48
3/31/2021 2:45:00 AM 7.39 45.302 0.09 7.41 3.05 11.5
3/31/2021 3:00:00 AM 7.34 45.212 0.09 7.41 2.49 11.51
3/31/2021 3:15:00 AM 7.29 45.122 0.09 7.41 2.1 11.52
3/31/2021 3:30:00 AM 7.25 45.05 0.09 7.41 2.51 11.54
3/31/2021 3:45:00 AM 7.21 44.978 0.09 7.41 2.2 11.55
3/31/2021 4:00:00 AM 7.17 44.906 0.09 7.4 2.36 11.56
3/31/2021 4:15:00 AM 7.14 44.852 0.09 7.41 2.48 11.56
3/31/2021 4:30:00 AM 7.1 44.78 0.09 7.41 2.2 11.58
3/31/2021 4:45:00 AM 7.07 44.726 0.09 7.41 2.24 11.58
3/31/2021 5:00:00 AM 7.04 44.672 0.09 7.41 2.57 11.59
3/31/2021 5:15:00 AM 7.02 44.636 0.09 7.41 2.24 11.6
3/31/2021 5:30:00 AM 7 44.6 0.09 7.41 2.31 11.6
3/31/2021 5:45:00 AM 6.97 44.546 0.09 7.41 2.27 11.61
3/31/2021 6:00:00 AM 6.95 44.51 0.09 7.41 2.14 11.62
3/31/2021 6:15:00 AM 6.93 44.474 0.09 7.41 2.08 11.62
3/31/2021 6:30:00 AM 6.91 44.438 0.09 7.41 2.28 11.63
3/31/2021 6:45:00 AM 6.89 44.402 0.09 7.41 2.57 11.64
3/31/2021 7:00:00 AM 6.88 44.384 0.09 7.41 2.51 11.65
3/31/2021 7:15:00 AM 6.86 44.348 0.09 7.42 2.39 11.69
3/31/2021 7:30:00 AM 6.86 44.348 0.089 7.43 2.26 11.75
3/31/2021 7:45:00 AM 6.86 44.348 0.089 7.46 2.33 11.83
3/31/2021 8:00:00 AM 6.87 44.366 0.089 7.48 2.42 11.92
3/31/2021 8:15:00 AM 6.89 44.402 0.089 7.51 2 12.02
3/31/2021 8:30:00 AM 6.91 44.438 0.089 7.54 2.11 12.11
3/31/2021 8:45:00 AM 6.93 44.474 0.089 7.57 2.38 12.16
3/31/2021 9:00:00 AM 6.95 44.51 0.089 7.6 2.36 12.22
3/31/2021 9:15:00 AM 6.99 44.582 0.089 7.62 2.13 12.28
3/31/2021 9:30:00 AM 7.03 44.654 0.088 7.66 2.11 12.34
3/31/2021 9:45:00 AM 7.06 44.708 0.088 7.68 2.08 12.34
3/31/2021 10:00:00 AM 7.09 44.762 0.089 7.67 2.18 12.3
3/31/2021 10:15:00 AM 7.11 44.798 0.088 7.67 2.17 12.27
3/31/2021 10:30:00 AM 7.14 44.852 0.088 7.67 2.22 12.25
3/31/2021 10:45:00 AM 7.16 44.888 0.088 7.66 2.24 12.22
3/31/2021 11:00:00 AM 7.18 44.924 0.088 7.65 2.15 12.19
3/31/2021 11:15:00 AM 7.21 44.978 0.087 7.65 2.01 12.2
3/31/2021 11:30:00 AM 7.25 45.05 0.087 7.68 2.18 12.24
3/31/2021 11:45:00 AM 7.28 45.104 0.087 7.71 2.26 12.29
3/31/2021 12:00:00 PM 7.34 45.212 0.087 7.75 2.13 12.35
3/31/2021 12:15:00 PM 7.38 45.284 0.087 7.78 1.96 12.37
3/31/2021 12:30:00 PM 7.42 45.356 0.086 7.79 2.17 12.37
3/31/2021 12:45:00 PM 7.47 45.446 0.086 7.8 2.09 12.35
3/31/2021 1:00:00 PM 7.49 45.482 0.086 7.78 2.49 12.28
3/31/2021 1:15:00 PM 7.51 45.518 0.086 7.76 2.12 12.24
3/31/2021 1:30:00 PM 7.54 45.572 0.086 7.75 2.29 12.21
3/31/2021 1:45:00 PM 7.58 45.644 0.086 7.76 2.09 12.23
3/31/2021 2:00:00 PM 7.61 45.698 0.086 7.76 2.24 12.21
3/31/2021 2:15:00 PM 7.63 45.734 0.086 7.76 1.97 12.18
3/31/2021 2:30:00 PM 7.64 45.752 0.086 7.75 2.73 12.17
3/31/2021 2:45:00 PM 7.67 45.806 0.086 7.77 2.04 12.2
3/31/2021 3:00:00 PM 7.7 45.86 0.086 7.8 2.23 12.23
3/31/2021 3:15:00 PM 7.73 45.914 0.086 7.79 2.2 12.2
3/31/2021 3:30:00 PM 7.74 45.932 0.086 7.77 2.18 12.15
3/31/2021 3:45:00 PM 7.76 45.968 0.086 7.74 2.52 12.09
3/31/2021 4:00:00 PM 7.78 46.004 0.086 7.74 2.46 12.06
3/31/2021 4:15:00 PM 7.78 46.004 0.086 7.7 2.32 12
3/31/2021 4:30:00 PM 7.8 46.04 0.086 7.69 2.21 11.97
3/31/2021 4:45:00 PM 7.82 46.076 0.087 7.68 2.19 11.96
3/31/2021 5:00:00 PM 7.83 46.094 0.087 7.68 2.16 11.95
3/31/2021 5:15:00 PM 7.84 46.112 0.087 7.66 2.54 11.89
3/31/2021 5:30:00 PM 7.86 46.148 0.087 7.63 2.46 11.83
3/31/2021 5:45:00 PM 7.87 46.166 0.087 7.64 2.31 11.85
3/31/2021 6:00:00 PM 7.87 46.166 0.088 7.65 2.37 11.89
3/31/2021 6:15:00 PM 7.87 46.166 0.088 7.63 2.22 11.82
3/31/2021 6:30:00 PM 7.87 46.166 0.088 7.59 2.35 11.74
3/31/2021 6:45:00 PM 7.86 46.148 0.089 7.56 2.44 11.65
3/31/2021 7:00:00 PM 7.87 46.166 0.089 7.53 2.44 11.57
3/31/2021 7:15:00 PM 7.86 46.148 0.089 7.51 2.38 11.53
3/31/2021 7:30:00 PM 7.85 46.13 0.089 7.5 2.35 11.49
3/31/2021 7:45:00 PM 7.83 46.094 0.09 7.49 2.35 11.46
3/31/2021 8:00:00 PM 7.82 46.076 0.09 7.48 2.45 11.44
3/31/2021 8:15:00 PM 7.8 46.04 0.09 7.48 2.46 11.42
3/31/2021 8:30:00 PM 7.78 46.004 0.09 7.46 2.34 11.42
3/31/2021 8:45:00 PM 7.76 45.968 0.09 7.46 2.37 11.41
3/31/2021 9:00:00 PM 7.73 45.914 0.091 7.45 2.71 11.4
3/31/2021 9:15:00 PM 7.7 45.86 0.091 7.45 2.55 11.41
3/31/2021 9:30:00 PM 7.66 45.788 0.091 7.45 3.88 11.41
3/31/2021 9:45:00 PM 7.6 45.68 0.091 7.45 2.53 11.42
3/31/2021 10:00:00 PM 7.56 45.608 0.091 7.44 2.44 11.43
3/31/2021 10:15:00 PM 7.51 45.518 0.091 7.45 2.83 11.44
3/31/2021 10:30:00 PM 7.48 45.464 0.092 7.44 2.25 11.46
3/31/2021 10:45:00 PM 7.44 45.392 0.092 7.44 2.5 11.47
3/31/2021 11:00:00 PM 7.4 45.32 0.092 7.44 2.31 11.48
3/31/2021 11:15:00 PM 7.36 45.248 0.092 7.44 2.52 11.49
3/31/2021 11:30:00 PM 7.32 45.176 0.092 7.44 2.5 11.5
3/31/2021 11:45:00 PM 7.28 45.104 0.092 7.44 2.98 11.51
4/1/2021 12:00:00 AM 7.25 45.05 0.093 7.44 2.18 11.52
4/1/2021 12:15:00 AM 7.2 44.96 0.093 7.44 2.48 11.53
4/1/2021 12:30:00 AM 7.16 44.888 0.093 7.44 2.67 11.54
4/1/2021 12:45:00 AM 7.12 44.816 0.093 7.44 2.75 11.55
4/1/2021 1:00:00 AM 7.09 44.762 0.093 7.44 2.26 11.57
4/1/2021 1:15:00 AM 7.04 44.672 0.093 7.44 2.75 11.58
4/1/2021 1:30:00 AM 6.99 44.582 0.093 7.44 2.42 11.59
4/1/2021 1:45:00 AM 6.92 44.456 0.093 7.44 3.33 11.61
4/1/2021 2:00:00 AM 6.87 44.366 0.093 7.44 2.66 11.62
4/1/2021 2:15:00 AM 6.83 44.294 0.093 7.44 2.55 11.63
4/1/2021 2:30:00 AM 6.78 44.204 0.093 7.44 2.68 11.65
4/1/2021 2:45:00 AM 6.72 44.096 0.093 7.44 2.79 11.66
4/1/2021 3:00:00 AM 6.68 44.024 0.093 7.44 2.46 11.67
4/1/2021 3:15:00 AM 6.63 43.934 0.093 7.43 2.51 11.69
4/1/2021 3:30:00 AM 6.58 43.844 0.093 7.43 2.36 11.7
4/1/2021 3:45:00 AM 6.52 43.736 0.093 7.43 2.48 11.72
4/1/2021 4:00:00 AM 6.47 43.646 0.093 7.43 2.51 11.73
4/1/2021 4:15:00 AM 6.41 43.538 0.093 7.43 2.86 11.75
4/1/2021 4:30:00 AM 6.36 43.448 0.093 7.43 2.63 11.76
4/1/2021 4:45:00 AM 6.3 43.34 0.093 7.43 2.73 11.77
4/1/2021 5:00:00 AM 6.24 43.232 0.093 7.43 2.58 11.8
4/1/2021 5:15:00 AM 6.18 43.124 0.093 7.44 2.56 11.81
4/1/2021 5:30:00 AM 6.12 43.016 0.093 7.44 2.77 11.83
4/1/2021 5:45:00 AM 6.07 42.926 0.093 7.43 2.53 11.85
4/1/2021 6:00:00 AM 6.02 42.836 0.093 7.43 2.34 11.87
4/1/2021 6:15:00 AM 5.96 42.728 0.093 7.43 2.71 11.89
4/1/2021 6:30:00 AM 5.92 42.656 0.093 7.44 2.91 11.89
4/1/2021 6:45:00 AM 5.86 42.548 0.093 7.44 2.36 11.92
4/1/2021 7:00:00 AM 5.82 42.476 0.093 7.44 2.79 11.94
4/1/2021 7:15:00 AM 5.77 42.386 0.093 7.44 2.55 11.97
4/1/2021 7:30:00 AM 5.73 42.314 0.093 7.45 2.46 12.02
4/1/2021 7:45:00 AM 5.69 42.242 0.093 7.46 2.44 12.06
4/1/2021 8:00:00 AM 5.65 42.17 0.093 7.47 2.36 12.12
4/1/2021 8:15:00 AM 5.62 42.116 0.094 7.49 2.71 12.25
4/1/2021 8:30:00 AM 5.61 42.098 0.093 7.53 2.39 12.37
4/1/2021 8:45:00 AM 5.59 42.062 0.094 7.56 2.38 12.47
4/1/2021 9:00:00 AM 5.59 42.062 0.094 7.61 2.29 12.59
4/1/2021 9:15:00 AM 5.63 42.134 0.094 7.65 2.18 12.7
4/1/2021 9:30:00 AM 5.61 42.098 0.094 7.68 2.21 12.74
4/1/2021 9:45:00 AM 5.65 42.17 0.094 7.72 2.22 12.79
4/1/2021 10:00:00 AM 5.69 42.242 0.094 7.74 2.31 12.83
4/1/2021 10:15:00 AM 5.8 42.44 0.094 7.78 2.23 12.87
4/1/2021 10:30:00 AM 5.94 42.692 0.094 7.8 2.3 12.87
4/1/2021 10:45:00 AM 6.07 42.926 0.094 7.82 2.23 12.86
4/1/2021 11:00:00 AM 6.14 43.052 0.094 7.83 2.26 12.85
4/1/2021 11:15:00 AM 6.34 43.412 0.094 7.87 2.52 12.85
4/1/2021 11:30:00 AM 6.46 43.628 0.094 7.88 2.31 12.84
4/1/2021 11:45:00 AM 6.5 43.7 0.095 7.89 2.22 12.82
4/1/2021 12:00:00 PM 6.6 43.88 0.094 7.91 2.2 12.8
4/1/2021 12:15:00 PM 6.64 43.952 0.095 7.93 2.21 12.79
4/1/2021 12:30:00 PM 6.71 44.078 0.095 7.95 2.09 12.78
4/1/2021 12:45:00 PM 6.8 44.24 0.095 7.96 2.24 12.76
4/1/2021 1:00:00 PM 6.97 44.546 0.095 7.99 2.1 12.74
4/1/2021 1:15:00 PM 7.13 44.834 0.095 8 2.21 12.71
4/1/2021 1:30:00 PM 7.11 44.798 0.095 8 2.07 12.69
4/1/2021 1:45:00 PM 7.07 44.726 0.095 8.01 2.16 12.68
4/1/2021 2:00:00 PM 7.07 44.726 0.095 8.02 1.99 12.69
4/1/2021 2:15:00 PM 7.06 44.708 0.096 8.03 2.14 12.68
4/1/2021 2:30:00 PM 7.04 44.672 0.096 8.02 2.24 12.66
4/1/2021 2:45:00 PM 7.02 44.636 0.096 8.04 2.51 12.68
4/1/2021 3:00:00 PM 6.99 44.582 0.096 8.04 2.25 12.67
4/1/2021 3:15:00 PM 6.99 44.582 0.096 8.04 2.3 12.67
4/1/2021 3:30:00 PM 7.01 44.618 0.096 8.06 2.29 12.68
4/1/2021 3:45:00 PM 6.95 44.51 0.097 8.03 2.33 12.66
4/1/2021 4:00:00 PM 6.9 44.42 0.097 8 2.29 12.63
4/1/2021 4:15:00 PM 6.86 44.348 0.097 8 2.2 12.63
4/1/2021 4:30:00 PM 6.78 44.204 0.097 7.96 2.39 12.61
4/1/2021 4:45:00 PM 6.8 44.24 0.097 8 2.13 12.65
4/1/2021 5:00:00 PM 6.81 44.258 0.097 8.02 2.07 12.67
4/1/2021 5:15:00 PM 6.71 44.078 0.097 7.97 1.94 12.62
4/1/2021 5:30:00 PM 6.57 43.826 0.097 7.93 2.4 12.6
4/1/2021 5:45:00 PM 6.48 43.664 0.097 7.92 2.31 12.62
4/1/2021 6:00:00 PM 6.41 43.538 0.097 7.92 2.16 12.66
4/1/2021 6:15:00 PM 6.38 43.484 0.097 7.9 2.14 12.66
4/1/2021 6:30:00 PM 6.26 43.268 0.097 7.88 2.25 12.64
4/1/2021 6:45:00 PM 6.16 43.088 0.098 7.84 2.33 12.61
4/1/2021 7:00:00 PM 6.05 42.89 0.098 7.79 2.1 12.55
4/1/2021 7:15:00 PM 5.96 42.728 0.098 7.72 2.13 12.46
4/1/2021 7:30:00 PM 5.87 42.566 0.098 7.67 2.36 12.36
4/1/2021 7:45:00 PM 5.78 42.404 0.098 7.62 2.33 12.28
4/1/2021 8:00:00 PM 5.68 42.224 0.098 7.58 2.72 12.23
4/1/2021 8:15:00 PM 5.6 42.08 0.099 7.56 2.5 12.2
4/1/2021 8:30:00 PM 5.52 41.936 0.099 7.54 2.47 12.19
4/1/2021 8:45:00 PM 5.45 41.81 0.099 7.52 2.72 12.18
4/1/2021 9:00:00 PM 5.38 41.684 0.099 7.51 2.47 12.18
4/1/2021 9:15:00 PM 5.33 41.594 0.099 7.5 2.17 12.18
4/1/2021 9:30:00 PM 5.27 41.486 0.099 7.5 2.18 12.19
4/1/2021 9:45:00 PM 5.21 41.378 0.099 7.48 2.25 12.2
4/1/2021 10:00:00 PM 5.17 41.306 0.099 7.48 2.23 12.21
4/1/2021 10:15:00 PM 5.11 41.198 0.099 7.48 2.2 12.23
4/1/2021 10:30:00 PM 5.05 41.09 0.099 7.48 2.34 12.25
4/1/2021 10:45:00 PM 4.97 40.946 0.1 7.48 2.14 12.27
4/1/2021 11:00:00 PM 4.87 40.766 0.1 7.48 2.53 12.29
4/1/2021 11:15:00 PM 4.77 40.586 0.1 7.47 2.67 12.32
4/1/2021 11:30:00 PM 4.68 40.424 0.1 7.47 2.45 12.34
4/1/2021 11:45:00 PM 4.57 40.226 0.1 7.47 2.56 12.38
4/2/2021 12:00:00 AM 4.47 40.046 0.1 7.46 2.43 12.42
4/2/2021 12:15:00 AM 4.36 39.848 0.1 7.47 2.4 12.45
4/2/2021 12:30:00 AM 4.25 39.65 0.1 7.47 2.32 12.47
4/2/2021 12:45:00 AM 4.17 39.506 0.1 7.46 2.08 12.5
4/2/2021 1:00:00 AM 4.13 39.434 0.1 7.46 2.46 12.53
4/2/2021 1:15:00 AM 4.07 39.326 0.1 7.46 2.37 12.55
4/2/2021 1:30:00 AM 4 39.2 0.1 7.45 2.22 12.58
4/2/2021 1:45:00 AM 3.93 39.074 0.1 7.46 2.44 12.61
4/2/2021 2:00:00 AM 3.87 38.966 0.1 7.46 2.24 12.62
4/2/2021 2:15:00 AM 3.78 38.804 0.1 7.46 2.19 12.64
4/2/2021 2:30:00 AM 3.68 38.624 0.1 7.46 2.29 12.66
4/2/2021 2:45:00 AM 3.62 38.516 0.1 7.46 2.3 12.69
4/2/2021 3:00:00 AM 3.56 38.408 0.1 7.46 2.09 12.72
4/2/2021 3:15:00 AM 3.49 38.282 0.1 7.46 2.28 12.76
4/2/2021 3:30:00 AM 3.41 38.138 0.1 7.46 2.08 12.78
4/2/2021 3:45:00 AM 3.35 38.03 0.1 7.46 2.24 12.81
4/2/2021 4:00:00 AM 3.29 37.922 0.1 7.46 2.16 12.83
4/2/2021 4:15:00 AM 3.22 37.796 0.1 7.46 2.4 12.85
4/2/2021 4:30:00 AM 3.15 37.67 0.1 7.46 2.09 12.88
4/2/2021 4:45:00 AM 3.08 37.544 0.1 7.46 2.22 12.91
4/2/2021 5:00:00 AM 3.02 37.436 0.1 7.46 2.21 12.94
4/2/2021 5:15:00 AM 2.96 37.328 0.1 7.46 2.07 12.96
4/2/2021 5:30:00 AM 2.9 37.22 0.1 7.46 2.08 12.97
4/2/2021 5:45:00 AM 2.85 37.13 0.1 7.46 2.17 13
4/2/2021 6:00:00 AM 2.79 37.022 0.1 7.46 2.19 13.01
4/2/2021 6:15:00 AM 2.73 36.914 0.1 7.46 1.98 13.04
4/2/2021 6:30:00 AM 2.67 36.806 0.1 7.46 1.98 13.06
4/2/2021 6:45:00 AM 2.61 36.698 0.1 7.46 2.12 13.09
4/2/2021 7:00:00 AM 2.54 36.572 0.1 7.47 2.19 13.14
4/2/2021 7:15:00 AM 2.49 36.482 0.1 7.48 2.48 13.21
4/2/2021 7:30:00 AM 2.44 36.392 0.1 7.5 2.28 13.3
4/2/2021 7:45:00 AM 2.38 36.284 0.1 7.51 1.96 13.4
4/2/2021 8:00:00 AM 2.32 36.176 0.1 7.54 2.33 13.48
4/2/2021 8:15:00 AM 2.29 36.122 0.1 7.56 2.03 13.56
4/2/2021 8:30:00 AM 2.28 36.104 0.1 7.58 2.21 13.65
4/2/2021 8:45:00 AM 2.28 36.104 0.099 7.6 2.13 13.72
4/2/2021 9:00:00 AM 2.3 36.14 0.099 7.63 2.42 13.77
4/2/2021 9:15:00 AM 2.33 36.194 0.099 7.64 2.28 13.83
4/2/2021 9:30:00 AM 2.39 36.302 0.099 7.66 2.14 13.85
4/2/2021 9:45:00 AM 2.45 36.41 0.099 7.68 2.07 13.88
4/2/2021 10:00:00 AM 2.56 36.608 0.099 7.7 2.28 13.9
4/2/2021 10:15:00 AM 2.7 36.86 0.099 7.7 1.99 13.9
4/2/2021 10:30:00 AM 2.86 37.148 0.098 7.73 2 13.89
4/2/2021 10:45:00 AM 3.06 37.508 0.098 7.74 1.83 13.86
4/2/2021 11:00:00 AM 3.26 37.868 0.098 7.75 2.13 13.83
4/2/2021 11:15:00 AM 3.48 38.264 0.098 7.76 2.2 13.77
4/2/2021 11:30:00 AM 3.7 38.66 0.098 7.77 1.97 13.74
4/2/2021 11:45:00 AM 3.93 39.074 0.098 7.77 2.04 13.68
4/2/2021 12:00:00 PM 4.16 39.488 0.097 7.78 2.09 13.62
4/2/2021 12:15:00 PM 4.4 39.92 0.097 7.79 1.86 13.57
4/2/2021 12:30:00 PM 4.63 40.334 0.097 7.8 1.98 13.51
4/2/2021 12:45:00 PM 4.86 40.748 0.097 7.81 1.94 13.43
4/2/2021 1:00:00 PM 5.1 41.18 0.097 7.82 1.85 13.37
4/2/2021 1:15:00 PM 5.37 41.666 0.097 7.82 2.02 13.3
4/2/2021 1:30:00 PM 5.58 42.044 0.097 7.84 1.9 13.25
4/2/2021 1:45:00 PM 5.8 42.44 0.097 7.85 1.95 13.17
4/2/2021 2:00:00 PM 6.01 42.818 0.097 7.86 1.97 13.13
4/2/2021 2:15:00 PM 6.19 43.142 0.097 7.87 2.02 13.06
4/2/2021 2:30:00 PM 6.32 43.376 0.097 7.87 1.73 13.02
4/2/2021 2:45:00 PM 6.42 43.556 0.097 7.88 1.77 12.97
4/2/2021 3:00:00 PM 6.6 43.88 0.097 7.89 1.84 12.92
4/2/2021 3:15:00 PM 6.77 44.186 0.097 7.91 1.81 12.88
4/2/2021 3:30:00 PM 6.85 44.33 0.097 7.91 2.11 12.84
4/2/2021 3:45:00 PM 6.87 44.366 0.097 7.91 1.81 12.81
4/2/2021 4:00:00 PM 6.9 44.42 0.097 7.91 2.1 12.78
4/2/2021 4:15:00 PM 6.95 44.51 0.097 7.92 1.91 12.76
4/2/2021 4:30:00 PM 6.98 44.564 0.097 7.93 2.07 12.74
4/2/2021 4:45:00 PM 7.03 44.654 0.096 7.93 2.06 12.71
4/2/2021 5:00:00 PM 7.04 44.672 0.096 7.93 2.06 12.68
4/2/2021 5:15:00 PM 6.99 44.582 0.096 7.92 1.97 12.67
4/2/2021 5:30:00 PM 6.91 44.438 0.096 7.9 2.27 12.64
4/2/2021 5:45:00 PM 6.82 44.276 0.096 7.88 2.36 12.61
4/2/2021 6:00:00 PM 6.7 44.06 0.096 7.86 2.03 12.6
4/2/2021 6:15:00 PM 6.56 43.808 0.096 7.83 1.99 12.57
4/2/2021 6:30:00 PM 6.42 43.556 0.096 7.79 2.1 12.53
4/2/2021 6:45:00 PM 6.28 43.304 0.096 7.76 2 12.5
4/2/2021 7:00:00 PM 6.13 43.034 0.097 7.7 2.15 12.44
4/2/2021 7:15:00 PM 5.98 42.764 0.097 7.67 2.1 12.38
4/2/2021 7:30:00 PM 5.84 42.512 0.097 7.63 2.05 12.34
4/2/2021 7:45:00 PM 5.71 42.278 0.097 7.6 1.97 12.31
4/2/2021 8:00:00 PM 5.58 42.044 0.098 7.58 1.91 12.28
4/2/2021 8:15:00 PM 5.47 41.846 0.097 7.55 2.13 12.26
4/2/2021 8:30:00 PM 5.33 41.594 0.097 7.53 2.02 12.27
4/2/2021 8:45:00 PM 5.22 41.396 0.097 7.52 2.06 12.29
4/2/2021 9:00:00 PM 5.11 41.198 0.097 7.51 2.06 12.31
4/2/2021 9:15:00 PM 5.01 41.018 0.097 7.5 2.2 12.32
4/2/2021 9:30:00 PM 4.92 40.856 0.097 7.49 2.45 12.34
4/2/2021 9:45:00 PM 4.82 40.676 0.097 7.49 2.39 12.37
4/2/2021 10:00:00 PM 4.72 40.496 0.097 7.48 2.25 12.4
4/2/2021 10:15:00 PM 4.63 40.334 0.097 7.48 2.21 12.43
4/2/2021 10:30:00 PM 4.53 40.154 0.098 7.47 2.02 12.46
4/2/2021 10:45:00 PM 4.45 40.01 0.097 7.47 2.54 12.48
4/2/2021 11:00:00 PM 4.36 39.848 0.098 7.47 2.48 12.51
4/2/2021 11:15:00 PM 4.27 39.686 0.097 7.47 2.25 12.53
4/2/2021 11:30:00 PM 4.18 39.524 0.098 7.46 2.35 12.58
4/2/2021 11:45:00 PM 4.08 39.344 0.098 7.46 2.24 12.61
4/3/2021 12:00:00 AM 3.98 39.164 0.098 7.46 2.28 12.64
4/3/2021 12:15:00 AM 3.89 39.002 0.098 7.45 2.39 12.66
4/3/2021 12:30:00 AM 3.8 38.84 0.098 7.45 2.83 12.7
4/3/2021 12:45:00 AM 3.72 38.696 0.098 7.46 2.32 12.73
4/3/2021 1:00:00 AM 3.64 38.552 0.098 7.46 2.34 12.76
4/3/2021 1:15:00 AM 3.56 38.408 0.098 7.46 2.19 12.79
4/3/2021 1:30:00 AM 3.47 38.246 0.098 7.45 2.12 12.82
4/3/2021 1:45:00 AM 3.4 38.12 0.098 7.45 2.06 12.85
4/3/2021 2:00:00 AM 3.32 37.976 0.098 7.45 2.32 12.87
4/3/2021 2:15:00 AM 3.24 37.832 0.098 7.46 2.06 12.9
4/3/2021 2:30:00 AM 3.16 37.688 0.098 7.45 2.21 12.94
4/3/2021 2:45:00 AM 3.08 37.544 0.098 7.45 2.02 12.96
4/3/2021 3:00:00 AM 3 37.4 0.098 7.45 2.11 13
4/3/2021 3:15:00 AM 2.93 37.274 0.098 7.45 2.1 13.02
4/3/2021 3:30:00 AM 2.84 37.112 0.098 7.46 2.05 13.05
4/3/2021 3:45:00 AM 2.78 37.004 0.098 7.45 2.09 13.07
4/3/2021 4:00:00 AM 2.71 36.878 0.098 7.45 2.06 13.1
4/3/2021 4:15:00 AM 2.63 36.734 0.098 7.45 2.06 13.13
4/3/2021 4:30:00 AM 2.56 36.608 0.098 7.45 2.1 13.16
4/3/2021 4:45:00 AM 2.49 36.482 0.098 7.46 2.19 13.19
4/3/2021 5:00:00 AM 2.43 36.374 0.098 7.45 2.07 13.2
4/3/2021 5:15:00 AM 2.36 36.248 0.098 7.46 2.19 13.22
4/3/2021 5:30:00 AM 2.29 36.122 0.099 7.46 2.01 13.26
4/3/2021 5:45:00 AM 2.24 36.032 0.098 7.46 2.03 13.28
4/3/2021 6:00:00 AM 2.19 35.942 0.098 7.46 2.03 13.3
4/3/2021 6:15:00 AM 2.13 35.834 0.098 7.46 2.02 13.32
4/3/2021 6:30:00 AM 2.08 35.744 0.098 7.45 2.02 13.36
4/3/2021 6:45:00 AM 2.03 35.654 0.098 7.45 2.16 13.38
4/3/2021 7:00:00 AM 1.98 35.564 0.098 7.45 1.98 13.42
4/3/2021 7:15:00 AM 1.94 35.492 0.098 7.48 2.08 13.49
4/3/2021 7:30:00 AM 1.91 35.438 0.098 7.49 1.99 13.58
4/3/2021 7:45:00 AM 1.87 35.366 0.098 7.52 2.06 13.68
4/3/2021 8:00:00 AM 1.84 35.312 0.097 7.54 2.03 13.76
4/3/2021 8:15:00 AM 1.82 35.276 0.097 7.55 2.02 13.85
4/3/2021 8:30:00 AM 1.81 35.258 0.097 7.58 2.04 13.92
4/3/2021 8:45:00 AM 1.83 35.294 0.097 7.59 1.93 13.99
4/3/2021 9:00:00 AM 1.88 35.384 0.097 7.62 1.97 14.04
4/3/2021 9:15:00 AM 1.95 35.51 0.097 7.64 2.09 14.08
4/3/2021 9:30:00 AM 2.04 35.672 0.097 7.66 1.9 14.11
4/3/2021 9:45:00 AM 2.15 35.87 0.096 7.68 2.03 14.11
4/3/2021 10:00:00 AM 2.28 36.104 0.096 7.69 2.06 14.13
4/3/2021 10:15:00 AM 2.44 36.392 0.096 7.71 1.89 14.12
4/3/2021 10:30:00 AM 2.65 36.77 0.096 7.72 1.94 14.08
4/3/2021 10:45:00 AM 2.88 37.184 0.096 7.73 1.84 14.03
4/3/2021 11:00:00 AM 3.13 37.634 0.096 7.75 1.74 13.98
4/3/2021 11:15:00 AM 3.37 38.066 0.095 7.76 1.74 13.94
4/3/2021 11:30:00 AM 3.64 38.552 0.095 7.76 1.91 13.86
4/3/2021 11:45:00 AM 3.91 39.038 0.095 7.78 1.78 13.8
4/3/2021 12:00:00 PM 4.18 39.524 0.095 7.79 1.84 13.73
4/3/2021 12:15:00 PM 4.45 40.01 0.095 7.8 1.81 13.65
4/3/2021 12:30:00 PM 4.74 40.532 0.094 7.81 1.84 13.58
4/3/2021 12:45:00 PM 5.04 41.072 0.094 7.82 1.77 13.51
4/3/2021 1:00:00 PM 5.26 41.468 0.094 7.84 1.81 13.44
4/3/2021 1:15:00 PM 5.49 41.882 0.094 7.87 1.86 13.39
4/3/2021 1:30:00 PM 5.68 42.224 0.094 7.9 2.05 13.33
4/3/2021 1:45:00 PM 5.76 42.368 0.094 7.92 1.72 13.28
4/3/2021 2:00:00 PM 6 42.8 0.093 7.95 1.8 13.26
4/3/2021 2:15:00 PM 6.15 43.07 0.093 7.96 1.85 13.2
4/3/2021 2:30:00 PM 6.36 43.448 0.093 7.98 1.81 13.16
4/3/2021 2:45:00 PM 6.59 43.862 0.093 7.99 1.86 13.09
4/3/2021 3:00:00 PM 6.8 44.24 0.093 7.99 1.63 13.02
4/3/2021 3:15:00 PM 7.01 44.618 0.093 8.01 1.84 12.96
4/3/2021 3:30:00 PM 7.19 44.942 0.093 8.01 2 12.9
4/3/2021 3:45:00 PM 7.35 45.23 0.093 8.02 1.85 12.83
4/3/2021 4:00:00 PM 7.51 45.518 0.093 8.02 1.75 12.77
4/3/2021 4:15:00 PM 7.64 45.752 0.093 8.03 1.75 12.71
4/3/2021 4:30:00 PM 7.72 45.896 0.093 8.03 2.08 12.66
4/3/2021 4:45:00 PM 7.71 45.878 0.093 8.03 1.99 12.61
4/3/2021 5:00:00 PM 7.68 45.824 0.093 8.02 1.81 12.59
4/3/2021 5:15:00 PM 7.67 45.806 0.093 8.04 1.98 12.59
4/3/2021 5:30:00 PM 7.64 45.752 0.093 8.03 1.87 12.55
4/3/2021 5:45:00 PM 7.57 45.626 0.093 8 1.89 12.52
4/3/2021 6:00:00 PM 7.48 45.464 0.093 7.97 2.02 12.49
4/3/2021 6:15:00 PM 7.39 45.302 0.093 7.94 1.95 12.46
4/3/2021 6:30:00 PM 7.3 45.14 0.093 7.88 1.92 12.4
4/3/2021 6:45:00 PM 7.19 44.942 0.093 7.8 2.17 12.29
4/3/2021 7:00:00 PM 7.1 44.78 0.093 7.74 2.09 12.22
4/3/2021 7:15:00 PM 7.02 44.636 0.093 7.69 1.88 12.12
4/3/2021 7:30:00 PM 6.93 44.474 0.094 7.64 2.04 12.03
4/3/2021 7:45:00 PM 6.86 44.348 0.094 7.59 2.13 11.96
4/3/2021 8:00:00 PM 6.79 44.222 0.094 7.56 2.1 11.92
4/3/2021 8:15:00 PM 6.73 44.114 0.094 7.54 2.01 11.88
4/3/2021 8:30:00 PM 6.67 44.006 0.094 7.53 2.23 11.86
4/3/2021 8:45:00 PM 6.62 43.916 0.094 7.51 2.11 11.85
4/3/2021 9:00:00 PM 6.56 43.808 0.094 7.5 2.41 11.85
4/3/2021 9:15:00 PM 6.51 43.718 0.094 7.49 2.05 11.86
4/3/2021 9:30:00 PM 6.45 43.61 0.094 7.48 2.72 11.86
4/3/2021 9:45:00 PM 6.4 43.52 0.094 7.48 2.05 11.87
4/3/2021 10:00:00 PM 6.35 43.43 0.094 7.47 2.2 11.88
4/3/2021 10:15:00 PM 6.31 43.358 0.094 7.47 2.07 11.89
4/3/2021 10:30:00 PM 6.26 43.268 0.095 7.47 2.51 11.9
4/3/2021 10:45:00 PM 6.21 43.178 0.095 7.47 2.14 11.91
4/3/2021 11:00:00 PM 6.16 43.088 0.095 7.46 2.37 11.92
4/3/2021 11:15:00 PM 6.12 43.016 0.095 7.47 2.28 11.94
4/3/2021 11:30:00 PM 6.06 42.908 0.095 7.46 2.09 11.95
4/3/2021 11:45:00 PM 6.01 42.818 0.095 7.46 2.26 11.97
4/4/2021 12:00:00 AM 5.96 42.728 0.095 7.45 2.26 11.99
4/4/2021 12:15:00 AM 5.92 42.656 0.095 7.46 2.24 12
4/4/2021 12:30:00 AM 5.87 42.566 0.095 7.45 2.27 12.01
4/4/2021 12:45:00 AM 5.82 42.476 0.095 7.45 2.13 12.01
4/4/2021 1:00:00 AM 5.78 42.404 0.095 7.45 2.03 12.03
4/4/2021 1:15:00 AM 5.74 42.332 0.095 7.45 2.19 12.04
4/4/2021 1:30:00 AM 5.7 42.26 0.095 7.45 2.01 12.05
4/4/2021 1:45:00 AM 5.66 42.188 0.095 7.45 3.88 12.06
4/4/2021 2:00:00 AM 5.62 42.116 0.095 7.44 2.02 12.07
4/4/2021 2:15:00 AM 5.59 42.062 0.095 7.45 2.21 12.09
4/4/2021 2:30:00 AM 5.56 42.008 0.095 7.44 2.24 12.09
4/4/2021 2:45:00 AM 5.52 41.936 0.095 7.44 2.25 12.1
4/4/2021 3:00:00 AM 5.48 41.864 0.095 7.44 2.14 12.11
4/4/2021 3:15:00 AM 5.45 41.81 0.095 7.44 2.14 12.12
4/4/2021 3:30:00 AM 5.41 41.738 0.095 7.44 1.9 12.13
4/4/2021 3:45:00 AM 5.37 41.666 0.095 7.44 2.05 12.13
4/4/2021 4:00:00 AM 5.33 41.594 0.095 7.44 2.07 12.15
4/4/2021 4:15:00 AM 5.29 41.522 0.095 7.44 2.17 12.16
4/4/2021 4:30:00 AM 5.25 41.45 0.095 7.44 2.17 12.17
4/4/2021 4:45:00 AM 5.21 41.378 0.095 7.44 2.01 12.18
4/4/2021 5:00:00 AM 5.17 41.306 0.095 7.44 2.08 12.19
4/4/2021 5:15:00 AM 5.12 41.216 0.095 7.43 2.04 12.21
4/4/2021 5:30:00 AM 5.08 41.144 0.095 7.44 2.17 12.22
4/4/2021 5:45:00 AM 5.05 41.09 0.095 7.44 2.39 12.23
4/4/2021 6:00:00 AM 5.02 41.036 0.095 7.44 2.41 12.24
4/4/2021 6:15:00 AM 4.99 40.982 0.095 7.44 2.2 12.25
4/4/2021 6:30:00 AM 4.96 40.928 0.095 7.44 2.28 12.26
4/4/2021 6:45:00 AM 4.94 40.892 0.095 7.44 2.22 12.27
4/4/2021 7:00:00 AM 4.89 40.802 0.095 7.44 2.14 12.3
4/4/2021 7:15:00 AM 4.84 40.712 0.095 7.46 2.32 12.37
4/4/2021 7:30:00 AM 4.8 40.64 0.095 7.48 2.17 12.48
4/4/2021 7:45:00 AM 4.76 40.568 0.095 7.5 2.02 12.59
4/4/2021 8:00:00 AM 4.73 40.514 0.095 7.54 2.09 12.7
4/4/2021 8:15:00 AM 4.71 40.478 0.095 7.57 2.06 12.81
4/4/2021 8:30:00 AM 4.71 40.478 0.094 7.6 1.88 12.91
4/4/2021 8:45:00 AM 4.73 40.514 0.094 7.63 1.96 12.99
4/4/2021 9:00:00 AM 4.77 40.586 0.094 7.67 1.85 13.06
4/4/2021 9:15:00 AM 4.82 40.676 0.094 7.7 1.96 13.11
4/4/2021 9:30:00 AM 4.9 40.82 0.094 7.73 2.05 13.14
4/4/2021 9:45:00 AM 5 41 0.094 7.76 1.82 13.17
4/4/2021 10:00:00 AM 5.13 41.234 0.094 7.8 2 13.2
4/4/2021 10:15:00 AM 5.3 41.54 0.093 7.83 2.11 13.2
4/4/2021 10:30:00 AM 5.51 41.918 0.093 7.85 1.78 13.17
4/4/2021 10:45:00 AM 5.75 42.35 0.093 7.89 2.06 13.15
4/4/2021 11:00:00 AM 5.99 42.782 0.093 7.91 1.92 13.11
4/4/2021 11:15:00 AM 6.24 43.232 0.093 7.93 1.94 13.07
4/4/2021 11:30:00 AM 6.5 43.7 0.093 7.96 1.87 13.02
4/4/2021 11:45:00 AM 6.77 44.186 0.093 7.98 1.83 12.96
4/4/2021 12:00:00 PM 7.03 44.654 0.092 7.99 1.83 12.9
4/4/2021 12:15:00 PM 7.34 45.212 0.092 8.02 1.75 12.85
4/4/2021 12:30:00 PM 7.64 45.752 0.092 8.05 2.21 12.77
4/4/2021 12:45:00 PM 7.94 46.292 0.092 8.08 1.77 12.7
4/4/2021 1:00:00 PM 8.21 46.778 0.092 8.1 1.9 12.63
4/4/2021 1:15:00 PM 8.43 47.174 0.092 8.11 1.74 12.55
4/4/2021 1:30:00 PM 8.63 47.534 0.092 8.12 1.76 12.5
4/4/2021 1:45:00 PM 8.89 48.002 0.092 8.15 1.74 12.43
4/4/2021 2:00:00 PM 9.18 48.524 0.092 8.17 1.78 12.37
4/4/2021 2:15:00 PM 9.43 48.974 0.092 8.19 1.73 12.3
4/4/2021 2:30:00 PM 9.66 49.388 0.092 8.21 1.96 12.23
4/4/2021 2:45:00 PM 9.85 49.73 0.091 8.22 1.9 12.16
4/4/2021 3:00:00 PM 10.07 50.126 0.092 8.25 2.01 12.12
4/4/2021 3:15:00 PM 10.25 50.45 0.091 8.27 1.93 12.06
4/4/2021 3:30:00 PM 10.37 50.666 0.091 8.27 2.21 12
4/4/2021 3:45:00 PM 10.52 50.936 0.091 8.29 2.15 11.97
4/4/2021 4:00:00 PM 10.64 51.152 0.091 8.31 1.85 11.93
4/4/2021 4:15:00 PM 10.75 51.35 0.091 8.32 2.05 11.89
4/4/2021 4:30:00 PM 10.87 51.566 0.091 8.33 2.36 11.85
4/4/2021 4:45:00 PM 10.91 51.638 0.091 8.33 2.01 11.81
4/4/2021 5:00:00 PM 10.91 51.638 0.091 8.32 2.07 11.78
4/4/2021 5:15:00 PM 10.89 51.602 0.091 8.3 1.94 11.74
4/4/2021 5:30:00 PM 10.82 51.476 0.091 8.26 2.15 11.71
4/4/2021 5:45:00 PM 10.72 51.296 0.091 8.21 2.21 11.67
4/4/2021 6:00:00 PM 10.59 51.062 0.091 8.14 2.05 11.64
4/4/2021 6:15:00 PM 10.45 50.81 0.091 8.06 2.08 11.6
4/4/2021 6:30:00 PM 10.28 50.504 0.092 7.97 2 11.54
4/4/2021 6:45:00 PM 10.11 50.198 0.092 7.9 2.07 11.48
4/4/2021 7:00:00 PM 9.92 49.856 0.092 7.81 2.03 11.39
4/4/2021 7:15:00 PM 9.77 49.586 0.092 7.74 1.96 11.31
4/4/2021 7:30:00 PM 9.6 49.28 0.092 7.68 2.09 11.25
4/4/2021 7:45:00 PM 9.45 49.01 0.093 7.62 2.13 11.18
4/4/2021 8:00:00 PM 9.32 48.776 0.092 7.58 2.16 11.11
4/4/2021 8:15:00 PM 9.18 48.524 0.092 7.55 2.41 11.09
4/4/2021 8:30:00 PM 9.05 48.29 0.093 7.52 2.1 11.08
4/4/2021 8:45:00 PM 8.92 48.056 0.093 7.5 2.35 11.08
4/4/2021 9:00:00 PM 8.79 47.822 0.093 7.49 2.2 11.1
4/4/2021 9:15:00 PM 8.67 47.606 0.093 7.48 2.11 11.11
4/4/2021 9:30:00 PM 8.56 47.408 0.093 7.47 2.33 11.13
4/4/2021 9:45:00 PM 8.44 47.192 0.093 7.47 2.2 11.16
4/4/2021 10:00:00 PM 8.32 46.976 0.093 7.47 2.4 11.19
4/4/2021 10:15:00 PM 8.21 46.778 0.093 7.45 2.6 11.21
4/4/2021 10:30:00 PM 8.1 46.58 0.093 7.45 2.74 11.24
4/4/2021 10:45:00 PM 7.98 46.364 0.093 7.45 2.21 11.27
4/4/2021 11:00:00 PM 7.87 46.166 0.093 7.45 2.36 11.3
4/4/2021 11:15:00 PM 7.76 45.968 0.093 7.44 2.69 11.33
4/4/2021 11:30:00 PM 7.65 45.77 0.093 7.44 2.42 11.36
4/4/2021 11:45:00 PM 7.53 45.554 0.094 7.43 2.29 11.4
4/5/2021 12:00:00 AM 7.42 45.356 0.094 7.44 2.19 11.43
4/5/2021 12:15:00 AM 7.31 45.158 0.094 7.44 2.29 11.46
4/5/2021 12:30:00 AM 7.19 44.942 0.094 7.44 2.23 11.5
4/5/2021 12:45:00 AM 7.09 44.762 0.094 7.43 2.37 11.53
4/5/2021 1:00:00 AM 6.99 44.582 0.094 7.44 2.3 11.56
4/5/2021 1:15:00 AM 6.89 44.402 0.094 7.44 2.32 11.58
4/5/2021 1:30:00 AM 6.79 44.222 0.094 7.43 2.36 11.62
4/5/2021 1:45:00 AM 6.69 44.042 0.094 7.43 2.23 11.66
4/5/2021 2:00:00 AM 6.58 43.844 0.094 7.43 2.18 11.69
4/5/2021 2:15:00 AM 6.49 43.682 0.094 7.43 2.26 11.71
4/5/2021 2:30:00 AM 6.39 43.502 0.094 7.43 2.1 11.75
4/5/2021 2:45:00 AM 6.29 43.322 0.094 7.43 2.14 11.78
4/5/2021 3:00:00 AM 6.2 43.16 0.094 7.43 2.37 11.81
4/5/2021 3:15:00 AM 6.1 42.98 0.094 7.43 2.22 11.83
4/5/2021 3:30:00 AM 6.01 42.818 0.094 7.43 2.23 11.86
4/5/2021 3:45:00 AM 5.91 42.638 0.094 7.43 2.36 11.9
4/5/2021 4:00:00 AM 5.82 42.476 0.094 7.43 2.09 11.93
4/5/2021 4:15:00 AM 5.73 42.314 0.094 7.43 2.2 11.96
4/5/2021 4:30:00 AM 5.64 42.152 0.094 7.43 4.39 11.99
4/5/2021 4:45:00 AM 5.55 41.99 0.094 7.43 2.19 12.01
4/5/2021 5:00:00 AM 5.47 41.846 0.094 7.43 2.04 12.05
4/5/2021 5:15:00 AM 5.38 41.684 0.094 7.43 2.29 12.08
4/5/2021 5:30:00 AM 5.3 41.54 0.094 7.43 2.36 12.1
4/5/2021 5:45:00 AM 5.22 41.396 0.094 7.43 2.2 12.13
4/5/2021 6:00:00 AM 5.14 41.252 0.094 7.43 2.48 12.16
4/5/2021 6:15:00 AM 5.06 41.108 0.094 7.43 2.35 12.18
4/5/2021 6:30:00 AM 4.99 40.982 0.094 7.43 2.25 12.21
4/5/2021 6:45:00 AM 4.92 40.856 0.095 7.43 2.73 12.24
4/5/2021 7:00:00 AM 4.85 40.73 0.094 7.44 2.02 12.31
4/5/2021 7:15:00 AM 4.79 40.622 0.094 7.46 2.04 12.4
4/5/2021 7:30:00 AM 4.74 40.532 0.094 7.48 2.09 12.52
4/5/2021 7:45:00 AM 4.69 40.442 0.094 7.51 2.05 12.64
4/5/2021 8:00:00 AM 4.65 40.37 0.095 7.54 1.87 12.75
4/5/2021 8:15:00 AM 4.63 40.334 0.094 7.57 2.34 12.86
4/5/2021 8:30:00 AM 4.62 40.316 0.094 7.6 2.14 12.96
4/5/2021 8:45:00 AM 4.65 40.37 0.094 7.64 1.96 13.05
4/5/2021 9:00:00 AM 4.68 40.424 0.093 7.67 1.98 13.12
4/5/2021 9:15:00 AM 4.75 40.55 0.093 7.7 1.97 13.17
4/5/2021 9:30:00 AM 4.84 40.712 0.093 7.73 1.98 13.21
4/5/2021 9:45:00 AM 4.96 40.928 0.093 7.77 1.93 13.24
4/5/2021 10:00:00 AM 5.11 41.198 0.093 7.81 2.11 13.26
4/5/2021 10:15:00 AM 5.28 41.504 0.093 7.85 1.97 13.26
4/5/2021 10:30:00 AM 5.5 41.9 0.093 7.88 1.98 13.24
4/5/2021 10:45:00 AM 5.74 42.332 0.092 7.9 1.83 13.2
4/5/2021 11:00:00 AM 5.99 42.782 0.092 7.93 1.85 13.15
4/5/2021 11:15:00 AM 6.24 43.232 0.092 7.96 1.93 13.12
4/5/2021 11:30:00 AM 6.51 43.718 0.092 7.98 1.89 13.06
4/5/2021 11:45:00 AM 6.78 44.204 0.092 8 1.77 13
4/5/2021 12:00:00 PM 7.06 44.708 0.092 8.02 1.93 12.94
4/5/2021 12:15:00 PM 7.35 45.23 0.092 8.05 1.94 12.86
4/5/2021 12:30:00 PM 7.64 45.752 0.091 8.07 1.84 12.8
4/5/2021 12:45:00 PM 7.94 46.292 0.091 8.1 1.8 12.73
4/5/2021 1:00:00 PM 8.25 46.85 0.091 8.12 1.74 12.65
4/5/2021 1:15:00 PM 8.54 47.372 0.091 8.16 1.88 12.58
4/5/2021 1:30:00 PM 8.82 47.876 0.091 8.18 1.86 12.5
4/5/2021 1:45:00 PM 9.11 48.398 0.091 8.2 1.74 12.43
4/5/2021 2:00:00 PM 9.38 48.884 0.091 8.23 1.65 12.37
4/5/2021 2:15:00 PM 9.63 49.334 0.091 8.26 1.96 12.29
4/5/2021 2:30:00 PM 9.87 49.766 0.091 8.3 1.82 12.23
4/5/2021 2:45:00 PM 10.08 50.144 0.091 8.34 1.81 12.18
4/5/2021 3:00:00 PM 10.26 50.468 0.091 8.36 1.83 12.13
4/5/2021 3:15:00 PM 10.45 50.81 0.091 8.39 1.68 12.07
4/5/2021 3:30:00 PM 10.61 51.098 0.091 8.41 1.98 12.03
4/5/2021 3:45:00 PM 10.71 51.278 0.091 8.42 1.83 11.98
4/5/2021 4:00:00 PM 10.81 51.458 0.091 8.45 1.89 11.95
4/5/2021 4:15:00 PM 10.87 51.566 0.091 8.47 1.95 11.92
4/5/2021 4:30:00 PM 10.93 51.674 0.091 8.5 1.76 11.91
4/5/2021 4:45:00 PM 10.93 51.674 0.091 8.5 1.73 11.88
4/5/2021 5:00:00 PM 10.9 51.62 0.091 8.5 1.9 11.84
4/5/2021 5:15:00 PM 10.82 51.476 0.091 8.45 1.96 11.8
4/5/2021 5:30:00 PM 10.73 51.314 0.091 8.4 1.96 11.76
4/5/2021 5:45:00 PM 10.63 51.134 0.091 8.33 1.88 11.72
4/5/2021 6:00:00 PM 10.53 50.954 0.091 8.23 1.87 11.66
4/5/2021 6:15:00 PM 10.43 50.774 0.091 8.1 2.02 11.56
4/5/2021 6:30:00 PM 10.33 50.594 0.091 7.98 1.99 11.47
4/5/2021 6:45:00 PM 10.23 50.414 0.091 7.88 2.27 11.38
4/5/2021 7:00:00 PM 10.12 50.216 0.092 7.8 2.07 11.3
4/5/2021 7:15:00 PM 10.01 50.018 0.091 7.74 2.08 11.22
4/5/2021 7:30:00 PM 9.9 49.82 0.091 7.68 1.93 11.14
4/5/2021 7:45:00 PM 9.79 49.622 0.091 7.63 2.01 11.06
4/5/2021 8:00:00 PM 9.68 49.424 0.092 7.58 2.05 11
4/5/2021 8:15:00 PM 9.56 49.208 0.092 7.55 2.17 10.96
4/5/2021 8:30:00 PM 9.45 49.01 0.092 7.52 2.25 10.94
4/5/2021 8:45:00 PM 9.36 48.848 0.092 7.5 2.32 10.94
4/5/2021 9:00:00 PM 9.27 48.686 0.092 7.49 2.2 10.94
4/5/2021 9:15:00 PM 9.17 48.506 0.092 7.48 2.75 10.95
4/5/2021 9:30:00 PM 9.09 48.362 0.092 7.47 2.46 10.96
4/5/2021 9:45:00 PM 9.01 48.218 0.092 7.46 2.61 10.98
4/5/2021 10:00:00 PM 8.94 48.092 0.092 7.46 2.47 11
4/5/2021 10:15:00 PM 8.86 47.948 0.093 7.45 2.6 11.02
4/5/2021 10:30:00 PM 8.79 47.822 0.093 7.45 3.24 11.03
4/5/2021 10:45:00 PM 8.73 47.714 0.093 7.44 2.51 11.05
4/5/2021 11:00:00 PM 8.65 47.57 0.093 7.44 2.17 11.07
4/5/2021 11:15:00 PM 8.58 47.444 0.093 7.44 2.28 11.09
4/5/2021 11:30:00 PM 8.52 47.336 0.093 7.43 2.38 11.1
4/5/2021 11:45:00 PM 8.45 47.21 0.093 7.43 2.2 11.12
4/6/2021 12:00:00 AM 8.39 47.102 0.093 7.44 2.17 11.13
4/6/2021 12:15:00 AM 8.32 46.976 0.093 7.43 2.3 11.15
4/6/2021 12:30:00 AM 8.25 46.85 0.093 7.43 2.47 11.18
4/6/2021 12:45:00 AM 8.16 46.688 0.093 7.43 2.52 11.19
4/6/2021 1:00:00 AM 8.07 46.526 0.093 7.43 2.47 11.22
4/6/2021 1:15:00 AM 7.98 46.364 0.093 7.43 2.22 11.23
4/6/2021 1:30:00 AM 7.89 46.202 0.093 7.43 2.09 11.26
4/6/2021 1:45:00 AM 7.8 46.04 0.093 7.43 2.19 11.29
4/6/2021 2:00:00 AM 7.71 45.878 0.093 7.42 2.31 11.31
4/6/2021 2:15:00 AM 7.62 45.716 0.093 7.43 2.19 11.33
4/6/2021 2:30:00 AM 7.53 45.554 0.093 7.42 2.21 11.36
4/6/2021 2:45:00 AM 7.44 45.392 0.093 7.42 2.43 11.38
4/6/2021 3:00:00 AM 7.36 45.248 0.093 7.43 2.46 11.41
4/6/2021 3:15:00 AM 7.27 45.086 0.093 7.42 2.33 11.43
4/6/2021 3:30:00 AM 7.18 44.924 0.093 7.43 2.18 11.46
4/6/2021 3:45:00 AM 7.1 44.78 0.093 7.43 2.62 11.49
4/6/2021 4:00:00 AM 7.01 44.618 0.093 7.43 3.13 11.51
4/6/2021 4:15:00 AM 6.92 44.456 0.093 7.42 2.54 11.54
4/6/2021 4:30:00 AM 6.84 44.312 0.093 7.42 2.4 11.56
4/6/2021 4:45:00 AM 6.76 44.168 0.093 7.42 2.21 11.59
4/6/2021 5:00:00 AM 6.67 44.006 0.093 7.42 2.2 11.62
4/6/2021 5:15:00 AM 6.58 43.844 0.093 7.43 2.38 11.65
4/6/2021 5:30:00 AM 6.5 43.7 0.094 7.43 2.33 11.67
4/6/2021 5:45:00 AM 6.41 43.538 0.094 7.43 2.21 11.7
4/6/2021 6:00:00 AM 6.33 43.394 0.094 7.43 2.32 11.73
4/6/2021 6:15:00 AM 6.25 43.25 0.094 7.43 2.33 11.75
4/6/2021 6:30:00 AM 6.16 43.088 0.094 7.43 2.26 11.78
4/6/2021 6:45:00 AM 6.08 42.944 0.094 7.44 2.31 11.82
4/6/2021 7:00:00 AM 6.01 42.818 0.094 7.44 2.45 11.88
4/6/2021 7:15:00 AM 5.94 42.692 0.094 7.46 3.2 11.98
4/6/2021 7:30:00 AM 5.88 42.584 0.094 7.49 2.17 12.11
4/6/2021 7:45:00 AM 5.83 42.494 0.093 7.52 2.25 12.24
4/6/2021 8:00:00 AM 5.78 42.404 0.093 7.55 2.09 12.37
4/6/2021 8:15:00 AM 5.75 42.35 0.093 7.58 2.3 12.5
4/6/2021 8:30:00 AM 5.75 42.35 0.093 7.62 2.21 12.6
4/6/2021 8:45:00 AM 5.76 42.368 0.093 7.66 2.17 12.7
4/6/2021 9:00:00 AM 5.8 42.44 0.093 7.7 2.38 12.77
4/6/2021 9:15:00 AM 5.87 42.566 0.093 7.74 2.18 12.83
4/6/2021 9:30:00 AM 5.95 42.71 0.093 7.78 2.26 12.88
4/6/2021 9:45:00 AM 6.06 42.908 0.093 7.82 2.54 12.91
4/6/2021 10:00:00 AM 6.21 43.178 0.092 7.86 2.02 12.93
4/6/2021 10:15:00 AM 6.38 43.484 0.092 7.9 2.31 12.94
4/6/2021 10:30:00 AM 6.6 43.88 0.092 7.93 2.09 12.92
4/6/2021 10:45:00 AM 6.84 44.312 0.092 7.97 1.9 12.9
4/6/2021 11:00:00 AM 7.09 44.762 0.092 8 2.06 12.85
4/6/2021 11:15:00 AM 7.36 45.248 0.092 8.04 2.06 12.8
4/6/2021 11:30:00 AM 7.63 45.734 0.092 8.08 1.89 12.76
4/6/2021 11:45:00 AM 7.92 46.256 0.091 8.1 2.03 12.69
4/6/2021 12:00:00 PM 8.21 46.778 0.091 8.14 2.09 12.63
4/6/2021 12:15:00 PM 8.48 47.264 0.091 8.17 1.94 12.59
4/6/2021 12:30:00 PM 8.78 47.804 0.091 8.22 1.84 12.53
4/6/2021 12:45:00 PM 9.07 48.326 0.091 8.25 1.83 12.46
4/6/2021 1:00:00 PM 9.34 48.812 0.091 8.29 2.42 12.39
4/6/2021 1:15:00 PM 9.63 49.334 0.091 8.32 2.1 12.33
4/6/2021 1:30:00 PM 9.92 49.856 0.091 8.35 2.2 12.26
4/6/2021 1:45:00 PM 10.21 50.378 0.091 8.38 2.05 12.19
4/6/2021 2:00:00 PM 10.44 50.792 0.091 8.41 2.1 12.13
4/6/2021 2:15:00 PM 10.72 51.296 0.091 8.45 1.89 12.07
4/6/2021 2:30:00 PM 10.95 51.71 0.091 8.47 1.89 12
4/6/2021 2:45:00 PM 11.18 52.124 0.09 8.49 1.9 11.94
4/6/2021 3:00:00 PM 11.39 52.502 0.09 8.52 1.95 11.88
4/6/2021 3:15:00 PM 11.59 52.862 0.09 8.54 1.98 11.82
4/6/2021 3:30:00 PM 11.76 53.168 0.09 8.55 1.8 11.76
4/6/2021 3:45:00 PM 11.92 53.456 0.09 8.58 1.97 11.72
4/6/2021 4:00:00 PM 12.04 53.672 0.09 8.59 1.93 11.68
4/6/2021 4:15:00 PM 12.13 53.834 0.09 8.6 2.05 11.64
4/6/2021 4:30:00 PM 12.19 53.942 0.09 8.6 2.11 11.59
4/6/2021 4:45:00 PM 12.23 54.014 0.09 8.6 2.15 11.57
4/6/2021 5:00:00 PM 12.2 53.96 0.091 8.58 1.72 11.52
4/6/2021 5:15:00 PM 12.17 53.906 0.09 8.57 2.07 11.5
4/6/2021 5:30:00 PM 12.12 53.816 0.09 8.53 2.41 11.45
4/6/2021 5:45:00 PM 12.03 53.654 0.09 8.47 4.19 11.4
4/6/2021 6:00:00 PM 11.92 53.456 0.09 8.38 2.65 11.35
4/6/2021 6:15:00 PM 11.79 53.222 0.09 8.28 2.19 11.3
4/6/2021 6:30:00 PM 11.67 53.006 0.091 8.18 2.07 11.25
4/6/2021 6:45:00 PM 11.54 52.772 0.091 8.04 1.93 11.15
4/6/2021 7:00:00 PM 11.38 52.484 0.091 7.9 1.96 11.02
4/6/2021 7:15:00 PM 11.26 52.268 0.091 7.81 2.1 10.95
4/6/2021 7:30:00 PM 11.13 52.034 0.091 7.72 2.16 10.84
4/6/2021 7:45:00 PM 11 51.8 0.091 7.64 2.1 10.72
4/6/2021 8:00:00 PM 10.88 51.584 0.091 7.59 2.05 10.64
4/6/2021 8:15:00 PM 10.76 51.368 0.091 7.55 2.36 10.6
4/6/2021 8:30:00 PM 10.64 51.152 0.092 7.52 2.93 10.58
4/6/2021 8:45:00 PM 10.52 50.936 0.092 7.51 2.58 10.58
4/6/2021 9:00:00 PM 10.4 50.72 0.092 7.49 2.35 10.59
4/6/2021 9:15:00 PM 10.3 50.54 0.092 7.48 2.25 10.6
4/6/2021 9:30:00 PM 10.2 50.36 0.092 7.47 2.37 10.61
4/6/2021 9:45:00 PM 10.1 50.18 0.092 7.47 2.27 10.63
4/6/2021 10:00:00 PM 9.99 49.982 0.092 7.46 2.13 10.65
4/6/2021 10:15:00 PM 9.89 49.802 0.092 7.45 2.52 10.67
4/6/2021 10:30:00 PM 9.79 49.622 0.093 7.45 2.36 10.7
4/6/2021 10:45:00 PM 9.7 49.46 0.093 7.45 2.41 10.72
4/6/2021 11:00:00 PM 9.61 49.298 0.093 7.45 2.47 10.75
4/6/2021 11:15:00 PM 9.52 49.136 0.093 7.44 2.48 10.77
4/6/2021 11:30:00 PM 9.44 48.992 0.093 7.44 2.25 10.8
4/6/2021 11:45:00 PM 9.36 48.848 0.093 7.44 2.39 10.82
4/7/2021 12:00:00 AM 9.29 48.722 0.093 7.44 2.24 10.84
4/7/2021 12:15:00 AM 9.23 48.614 0.093 7.44 2.22 10.86
4/7/2021 12:30:00 AM 9.16 48.488 0.093 7.44 2.61 10.88
4/7/2021 12:45:00 AM 9.09 48.362 0.093 7.44 2.35 10.9
4/7/2021 1:00:00 AM 9.02 48.236 0.093 7.43 2.25 10.93
4/7/2021 1:15:00 AM 8.96 48.128 0.093 7.44 2.34 10.94
4/7/2021 1:30:00 AM 8.9 48.02 0.093 7.44 2.27 10.96
4/7/2021 1:45:00 AM 8.83 47.894 0.093 7.44 2.62 10.96
4/7/2021 2:00:00 AM 8.78 47.804 0.093 7.43 2.41 10.98
4/7/2021 2:15:00 AM 8.72 47.696 0.093 7.44 2.41 11
4/7/2021 2:30:00 AM 8.67 47.606 0.093 7.43 2.45 11.01
4/7/2021 2:45:00 AM 8.61 47.498 0.093 7.43 2.65 11.03
4/7/2021 3:00:00 AM 8.55 47.39 0.093 7.43 2.3 11.04
4/7/2021 3:15:00 AM 8.48 47.264 0.093 7.43 2.29 11.06
4/7/2021 3:30:00 AM 8.41 47.138 0.093 7.43 2.51 11.08
4/7/2021 3:45:00 AM 8.34 47.012 0.093 7.43 4.05 11.1
4/7/2021 4:00:00 AM 8.27 46.886 0.093 7.43 2.33 11.12
4/7/2021 4:15:00 AM 8.21 46.778 0.093 7.43 2.23 11.14
4/7/2021 4:30:00 AM 8.16 46.688 0.093 7.42 2.27 11.15
4/7/2021 4:45:00 AM 8.11 46.598 0.093 7.42 2.43 11.17
4/7/2021 5:00:00 AM 8.06 46.508 0.093 7.43 2.36 11.19
4/7/2021 5:15:00 AM 8.02 46.436 0.093 7.43 2.49 11.21
4/7/2021 5:30:00 AM 7.98 46.364 0.093 7.44 2.49 11.22
4/7/2021 5:45:00 AM 7.95 46.31 0.093 7.43 2.19 11.24
4/7/2021 6:00:00 AM 7.91 46.238 0.093 7.44 2.55 11.26
4/7/2021 6:15:00 AM 7.87 46.166 0.094 7.43 2.33 11.26
4/7/2021 6:30:00 AM 7.84 46.112 0.094 7.44 2.32 11.28
4/7/2021 6:45:00 AM 7.8 46.04 0.094 7.43 2.18 11.29
4/7/2021 7:00:00 AM 7.76 45.968 0.094 7.44 2.29 11.33
4/7/2021 7:15:00 AM 7.73 45.914 0.094 7.46 2.36 11.42
4/7/2021 7:30:00 AM 7.71 45.878 0.094 7.49 2.24 11.52
4/7/2021 7:45:00 AM 7.69 45.842 0.094 7.52 2.34 11.66
4/7/2021 8:00:00 AM 7.68 45.824 0.093 7.56 2.37 11.82
4/7/2021 8:15:00 AM 7.7 45.86 0.093 7.62 2.24 11.99
4/7/2021 8:30:00 AM 7.72 45.896 0.093 7.68 2.11 12.12
4/7/2021 8:45:00 AM 7.73 45.914 0.093 7.73 2.09 12.21
4/7/2021 9:00:00 AM 7.73 45.914 0.093 7.77 2.34 12.27
4/7/2021 9:15:00 AM 7.78 46.004 0.093 7.83 2.4 12.33
4/7/2021 9:30:00 AM 7.89 46.202 0.093 7.89 2.02 12.4
4/7/2021 9:45:00 AM 7.97 46.346 0.093 7.92 2.1 12.43
4/7/2021 10:00:00 AM 8.04 46.472 0.092 7.96 2.12 12.44
4/7/2021 10:15:00 AM 8.18 46.724 0.092 8 1.97 12.44
4/7/2021 10:30:00 AM 8.37 47.066 0.092 8.05 2.07 12.44
4/7/2021 10:45:00 AM 8.61 47.498 0.092 8.09 2 12.41
4/7/2021 11:00:00 AM 8.85 47.93 0.092 8.14 2.02 12.39
4/7/2021 11:15:00 AM 9.12 48.416 0.092 8.18 2.08 12.35
4/7/2021 11:30:00 AM 9.38 48.884 0.092 8.22 2.05 12.3
4/7/2021 11:45:00 AM 9.66 49.388 0.092 8.25 1.92 12.25
4/7/2021 12:00:00 PM 9.94 49.892 0.092 8.29 2.19 12.19
4/7/2021 12:15:00 PM 10.25 50.45 0.092 8.33 2.02 12.14
4/7/2021 12:30:00 PM 10.54 50.972 0.091 8.37 2.03 12.09
4/7/2021 12:45:00 PM 10.86 51.548 0.091 8.41 1.92 12.02
4/7/2021 1:00:00 PM 11.16 52.088 0.091 8.44 2.08 11.96
4/7/2021 1:15:00 PM 11.49 52.682 0.091 8.49 1.98 11.91
4/7/2021 1:30:00 PM 11.69 53.042 0.091 8.52 2 11.84
4/7/2021 1:45:00 PM 11.87 53.366 0.091 8.54 2.07 11.77
4/7/2021 2:00:00 PM 12.07 53.726 0.097 8.56 0.78 11.73
4/7/2021 2:15:00 PM 12.3 54.14 0.097 8.58 0.73 11.69
4/7/2021 2:30:00 PM 12.6 54.68 0.097 8.65 0.67 11.65
4/7/2021 2:45:00 PM 12.83 55.094 0.097 8.69 0.71 11.58
4/7/2021 3:00:00 PM 12.91 55.238 0.097 8.68 0.69 11.51
4/7/2021 3:15:00 PM 12.93 55.274 0.097 8.68 0.67 11.45
4/7/2021 3:30:00 PM 12.93 55.274 0.097 8.63 0.94 11.36
4/7/2021 3:45:00 PM 13.13 55.634 0.097 8.68 0.65 11.4
4/7/2021 4:00:00 PM 13.37 56.066 0.097 8.72 0.7 11.37
4/7/2021 4:15:00 PM 13.36 56.048 0.097 8.69 0.67 11.3
4/7/2021 4:30:00 PM 13.27 55.886 0.097 8.65 0.79 11.24
4/7/2021 4:45:00 PM 13.1 55.58 0.097 8.57 0.74 11.18
4/7/2021 5:00:00 PM 13.02 55.436 0.097 8.56 0.79 11.22
4/7/2021 5:15:00 PM 13 55.4 0.097 8.58 0.8 11.23
4/7/2021 5:30:00 PM 13.07 55.526 0.097 8.62 0.81 11.26
4/7/2021 5:45:00 PM 13.07 55.526 0.097 8.63 0.68 11.23
4/7/2021 6:00:00 PM 13.07 55.526 0.097 8.59 0.83 11.17
4/7/2021 6:15:00 PM 13.03 55.454 0.097 8.5 0.73 11.08
4/7/2021 6:30:00 PM 12.99 55.382 0.097 8.35 0.98 10.97
4/7/2021 6:45:00 PM 12.95 55.31 0.097 8.21 0.79 10.87
4/7/2021 7:00:00 PM 12.9 55.22 0.097 8.07 0.78 10.75
4/7/2021 7:15:00 PM 12.84 55.112 0.097 7.92 0.76 10.62
4/7/2021 7:30:00 PM 12.76 54.968 0.097 7.81 0.74 10.47
4/7/2021 7:45:00 PM 12.66 54.788 0.098 7.7 0.88 10.33
4/7/2021 8:00:00 PM 12.54 54.572 0.098 7.63 0.92 10.23
4/7/2021 8:15:00 PM 12.42 54.356 0.098 7.58 0.84 10.17
4/7/2021 8:30:00 PM 12.29 54.122 0.098 7.54 1.02 10.14
4/7/2021 8:45:00 PM 12.15 53.87 0.098 7.52 1.13 10.13
4/7/2021 9:00:00 PM 12.02 53.636 0.099 7.5 0.91 10.14
4/7/2021 9:15:00 PM 11.9 53.42 0.099 7.49 0.94 10.16
4/7/2021 9:30:00 PM 11.77 53.186 0.099 7.48 1.1 10.18
4/7/2021 9:45:00 PM 11.65 52.97 0.099 7.47 0.88 10.19
4/7/2021 10:00:00 PM 11.52 52.736 0.099 7.46 0.9 10.22
4/7/2021 10:15:00 PM 11.4 52.52 0.1 7.46 0.93 10.24
4/7/2021 10:30:00 PM 11.27 52.286 0.1 7.46 0.9 10.27
4/7/2021 10:45:00 PM 11.14 52.052 0.1 7.45 1.02 10.31
4/7/2021 11:00:00 PM 11.02 51.836 0.1 7.45 1.25 10.34
4/7/2021 11:15:00 PM 10.89 51.602 0.1 7.45 0.94 10.37
4/7/2021 11:30:00 PM 10.76 51.368 0.1 7.44 2.38 10.39
4/7/2021 11:45:00 PM 10.64 51.152 0.1 7.44 1.1 10.43
4/8/2021 12:00:00 AM 10.52 50.936 0.1 7.44 1.12 10.47
4/8/2021 12:15:00 AM 10.4 50.72 0.1 7.44 0.99 10.49
4/8/2021 12:30:00 AM 10.28 50.504 0.1 7.43 1.05 10.52
4/8/2021 12:45:00 AM 10.17 50.306 0.1 7.44 0.99 10.56
4/8/2021 1:00:00 AM 10.06 50.108 0.1 7.44 0.88 10.59
4/8/2021 1:15:00 AM 9.95 49.91 0.101 7.43 1.37 10.61
4/8/2021 1:30:00 AM 9.84 49.712 0.101 7.43 0.91 10.64
4/8/2021 1:45:00 AM 9.74 49.532 0.101 7.43 0.9 10.67
4/8/2021 2:00:00 AM 9.63 49.334 0.101 7.43 0.97 10.7
4/8/2021 2:15:00 AM 9.53 49.154 0.101 7.43 0.94 10.73
4/8/2021 2:30:00 AM 9.43 48.974 0.101 7.43 0.99 10.76
4/8/2021 2:45:00 AM 9.34 48.812 0.101 7.43 0.83 10.79
4/8/2021 3:00:00 AM 9.24 48.632 0.101 7.43 0.94 10.82
4/8/2021 3:15:00 AM 9.15 48.47 0.101 7.42 0.97 10.85
4/8/2021 3:30:00 AM 9.06 48.308 0.101 7.43 0.92 10.87
4/8/2021 3:45:00 AM 8.97 48.146 0.101 7.43 1.14 10.9
4/8/2021 4:00:00 AM 8.88 47.984 0.101 7.43 0.96 10.92
4/8/2021 4:15:00 AM 8.8 47.84 0.101 7.42 0.93 10.95
4/8/2021 4:30:00 AM 8.71 47.678 0.101 7.42 1.01 10.97
4/8/2021 4:45:00 AM 8.63 47.534 0.101 7.4 1.01 11
4/8/2021 5:00:00 AM 8.55 47.39 0.101 7.42 1 11.01
4/8/2021 5:15:00 AM 8.47 47.246 0.101 7.41 0.99 11.04
4/8/2021 5:30:00 AM 8.39 47.102 0.101 7.42 1.24 11.07
4/8/2021 5:45:00 AM 8.31 46.958 0.101 7.42 0.93 11.09
4/8/2021 6:00:00 AM 8.23 46.814 0.101 7.42 0.96 11.12
4/8/2021 6:15:00 AM 8.15 46.67 0.101 7.42 0.93 11.14
4/8/2021 6:30:00 AM 8.07 46.526 0.101 7.43 0.88 11.16
4/8/2021 6:45:00 AM 8 46.4 0.101 7.43 0.94 11.2
4/8/2021 7:00:00 AM 7.93 46.274 0.101 7.44 0.95 11.28
4/8/2021 7:15:00 AM 7.87 46.166 0.101 7.46 0.86 11.4
4/8/2021 7:30:00 AM 7.81 46.058 0.101 7.49 1.17 11.54
4/8/2021 7:45:00 AM 7.76 45.968 0.101 7.53 0.92 11.67
4/8/2021 8:00:00 AM 7.73 45.914 0.101 7.57 0.79 11.81
4/8/2021 8:15:00 AM 7.71 45.878 0.101 7.61 0.77 11.94
4/8/2021 8:30:00 AM 7.71 45.878 0.101 7.65 0.94 12.06
4/8/2021 8:45:00 AM 7.74 45.932 0.101 7.69 0.79 12.16
4/8/2021 9:00:00 AM 7.8 46.04 0.101 7.74 0.79 12.23
4/8/2021 9:15:00 AM 7.89 46.202 0.101 7.8 0.84 12.31
4/8/2021 9:30:00 AM 8.01 46.418 0.1 7.86 0.75 12.36
4/8/2021 9:45:00 AM 8.14 46.652 0.1 7.92 0.78 12.38
4/8/2021 10:00:00 AM 8.29 46.922 0.1 7.97 0.77 12.4
4/8/2021 10:15:00 AM 8.48 47.264 0.1 8.02 0.73 12.41
4/8/2021 10:30:00 AM 8.7 47.66 0.1 8.07 0.78 12.4
4/8/2021 10:45:00 AM 8.93 48.074 0.1 8.11 0.77 12.37
4/8/2021 11:00:00 AM 9.19 48.542 0.099 8.17 0.84 12.34
4/8/2021 11:15:00 AM 9.46 49.028 0.099 8.21 0.77 12.3
4/8/2021 11:30:00 AM 9.74 49.532 0.099 8.25 0.69 12.25
4/8/2021 11:45:00 AM 10.02 50.036 0.099 8.29 0.7 12.2
4/8/2021 12:00:00 PM 10.31 50.558 0.099 8.33 0.79 12.14
4/8/2021 12:15:00 PM 10.6 51.08 0.099 8.38 0.68 12.09
4/8/2021 12:30:00 PM 10.91 51.638 0.099 8.41 0.68 12.02
4/8/2021 12:45:00 PM 11.2 52.16 0.099 8.45 0.79 11.96
4/8/2021 1:00:00 PM 11.52 52.736 0.099 8.49 0.78 11.89
4/8/2021 1:15:00 PM 11.8 53.24 0.099 8.52 0.66 11.82
4/8/2021 1:30:00 PM 12.09 53.762 0.098 8.55 0.76 11.76
4/8/2021 1:45:00 PM 12.37 54.266 0.098 8.59 0.73 11.7
4/8/2021 2:00:00 PM 12.65 54.77 0.098 8.63 0.71 11.64
4/8/2021 2:15:00 PM 12.91 55.238 0.098 8.65 0.71 11.57
4/8/2021 2:30:00 PM 13.16 55.688 0.098 8.68 0.9 11.51
4/8/2021 2:45:00 PM 13.39 56.102 0.098 8.71 0.69 11.46
4/8/2021 3:00:00 PM 13.6 56.48 0.098 8.73 0.79 11.4
4/8/2021 3:15:00 PM 13.8 56.84 0.098 8.76 0.7 11.35
4/8/2021 3:30:00 PM 13.97 57.146 0.098 8.78 0.83 11.3
4/8/2021 3:45:00 PM 14.1 57.38 0.098 8.8 0.76 11.26
4/8/2021 4:00:00 PM 14.22 57.596 0.098 8.82 0.77 11.23
4/8/2021 4:15:00 PM 14.3 57.74 0.098 8.83 0.83 11.19
4/8/2021 4:30:00 PM 14.34 57.812 0.098 8.84 0.8 11.16
4/8/2021 4:45:00 PM 14.35 57.83 0.098 8.84 0.79 11.12
4/8/2021 5:00:00 PM 14.33 57.794 0.098 8.83 0.75 11.09
4/8/2021 5:15:00 PM 14.3 57.74 0.098 8.82 0.9 11.05
4/8/2021 5:30:00 PM 14.24 57.632 0.098 8.79 0.89 11.01
4/8/2021 5:45:00 PM 14.13 57.434 0.098 8.73 0.76 10.95
4/8/2021 6:00:00 PM 14.01 57.218 0.098 8.66 0.87 10.9
4/8/2021 6:15:00 PM 13.87 56.966 0.098 8.55 0.87 10.83
4/8/2021 6:30:00 PM 13.72 56.696 0.098 8.4 1.17 10.74
4/8/2021 6:45:00 PM 13.57 56.426 0.098 8.22 0.85 10.65
4/8/2021 7:00:00 PM 13.4 56.12 0.098 8.04 0.78 10.52
4/8/2021 7:15:00 PM 13.24 55.832 0.098 7.89 0.83 10.38
4/8/2021 7:30:00 PM 13.1 55.58 0.099 7.78 0.92 10.26
4/8/2021 7:45:00 PM 12.96 55.328 0.099 7.7 0.91 10.15
4/8/2021 8:00:00 PM 12.82 55.076 0.099 7.65 0.95 10.09
4/8/2021 8:15:00 PM 12.69 54.842 0.099 7.6 0.92 10.04
4/8/2021 8:30:00 PM 12.56 54.608 0.099 7.57 0.91 10.02
4/8/2021 8:45:00 PM 12.44 54.392 0.1 7.55 0.92 10.02
4/8/2021 9:00:00 PM 12.32 54.176 0.1 7.54 0.88 10.03
4/8/2021 9:15:00 PM 12.21 53.978 0.1 7.53 0.93 10.04
4/8/2021 9:30:00 PM 12.1 53.78 0.1 7.52 0.97 10.06
4/8/2021 9:45:00 PM 11.99 53.582 0.1 7.51 1.1 10.08
4/8/2021 10:00:00 PM 11.89 53.402 0.1 7.51 1.02 10.1
4/8/2021 10:15:00 PM 11.78 53.204 0.1 7.5 0.96 10.12
4/8/2021 10:30:00 PM 11.68 53.024 0.101 7.5 0.88 10.15
4/8/2021 10:45:00 PM 11.58 52.844 0.101 7.49 0.91 10.17
4/8/2021 11:00:00 PM 11.48 52.664 0.101 7.49 1.03 10.2
4/8/2021 11:15:00 PM 11.38 52.484 0.101 7.49 0.92 10.22
4/8/2021 11:30:00 PM 11.28 52.304 0.101 7.49 0.95 10.25
4/8/2021 11:45:00 PM 11.19 52.142 0.101 7.49 1.28 10.28
4/9/2021 12:00:00 AM 11.09 51.962 0.101 7.48 1.03 10.3
4/9/2021 12:15:00 AM 11 51.8 0.101 7.48 1.01 10.32
4/9/2021 12:30:00 AM 10.92 51.656 0.101 7.48 1.03 10.35
4/9/2021 12:45:00 AM 10.83 51.494 0.101 7.48 1.02 10.37
4/9/2021 1:00:00 AM 10.75 51.35 0.101 7.48 1.02 10.4
4/9/2021 1:15:00 AM 10.66 51.188 0.101 7.47 0.94 10.42
4/9/2021 1:30:00 AM 10.58 51.044 0.102 7.47 1.01 10.44
4/9/2021 1:45:00 AM 10.5 50.9 0.102 7.47 0.98 10.47
4/9/2021 2:00:00 AM 10.43 50.774 0.102 7.47 0.96 10.49
4/9/2021 2:15:00 AM 10.35 50.63 0.102 7.47 1.05 10.51
4/9/2021 2:30:00 AM 10.27 50.486 0.102 7.47 0.97 10.53
4/9/2021 2:45:00 AM 10.2 50.36 0.102 7.47 0.91 10.55
4/9/2021 3:00:00 AM 10.13 50.234 0.102 7.47 0.98 10.57
4/9/2021 3:15:00 AM 10.07 50.126 0.102 7.47 0.95 10.59
4/9/2021 3:30:00 AM 10.01 50.018 0.102 7.47 0.96 10.61
4/9/2021 3:45:00 AM 9.95 49.91 0.102 7.45 0.96 10.63
4/9/2021 4:00:00 AM 9.9 49.82 0.102 7.47 0.95 10.65
4/9/2021 4:15:00 AM 9.85 49.73 0.102 7.46 1.06 10.66
4/9/2021 4:30:00 AM 9.8 49.64 0.102 7.46 1.16 10.68
4/9/2021 4:45:00 AM 9.77 49.586 0.102 7.46 1.11 10.68
4/9/2021 5:00:00 AM 9.73 49.514 0.102 7.46 0.98 10.69
4/9/2021 5:15:00 AM 9.7 49.46 0.102 7.46 1.02 10.71
4/9/2021 5:30:00 AM 9.65 49.37 0.102 7.46 1 10.72
4/9/2021 5:45:00 AM 9.62 49.316 0.102 7.46 0.91 10.73
4/9/2021 6:00:00 AM 9.58 49.244 0.102 7.46 0.99 10.74
4/9/2021 6:15:00 AM 9.55 49.19 0.102 7.46 0.99 10.76
4/9/2021 6:30:00 AM 9.51 49.118 0.102 7.46 1.07 10.76
4/9/2021 6:45:00 AM 9.48 49.064 0.102 7.47 1.07 10.78
4/9/2021 7:00:00 AM 9.45 49.01 0.102 7.48 0.99 10.82
4/9/2021 7:15:00 AM 9.42 48.956 0.102 7.47 0.9 10.87
4/9/2021 7:30:00 AM 9.4 48.92 0.102 7.51 0.89 10.94
4/9/2021 7:45:00 AM 9.39 48.902 0.102 7.54 0.98 11.08
4/9/2021 8:00:00 AM 9.39 48.902 0.102 7.59 0.86 11.26
4/9/2021 8:15:00 AM 9.39 48.902 0.102 7.64 0.85 11.42
4/9/2021 8:30:00 AM 9.38 48.884 0.102 7.66 0.83 11.44
4/9/2021 8:45:00 AM 9.38 48.884 0.102 7.69 0.94 11.52
4/9/2021 9:00:00 AM 9.37 48.866 0.102 7.7 0.8 11.52
4/9/2021 9:15:00 AM 9.36 48.848 0.102 7.72 0.89 11.57
4/9/2021 9:30:00 AM 9.38 48.884 0.101 7.79 0.82 11.72
4/9/2021 9:45:00 AM 9.43 48.974 0.101 7.87 0.88 11.86
4/9/2021 10:00:00 AM 9.47 49.046 0.101 7.94 0.84 11.94
4/9/2021 10:15:00 AM 9.5 49.1 0.101 8 0.77 11.98
4/9/2021 10:30:00 AM 9.54 49.172 0.101 8.06 0.82 12.03
4/9/2021 10:45:00 AM 9.58 49.244 0.101 8.1 1.02 12.05
4/9/2021 11:00:00 AM 9.6 49.28 0.101 8.14 0.85 12.06
4/9/2021 11:15:00 AM 9.63 49.334 0.101 8.17 0.79 12.07
4/9/2021 11:30:00 AM 9.66 49.388 0.101 8.21 0.83 12.08
4/9/2021 11:45:00 AM 9.7 49.46 0.1 8.27 0.87 12.11
4/9/2021 12:00:00 PM 9.72 49.496 0.1 8.25 0.85 12.06
4/9/2021 12:15:00 PM 9.74 49.532 0.1 8.27 0.82 12.05
4/9/2021 12:30:00 PM 9.78 49.604 0.1 8.31 0.86 12.06
4/9/2021 12:45:00 PM 9.82 49.676 0.1 8.36 0.89 12.08
4/9/2021 1:00:00 PM 9.86 49.748 0.1 8.39 0.82 12.09
4/9/2021 1:15:00 PM 9.89 49.802 0.1 8.43 0.85 12.1
4/9/2021 1:30:00 PM 9.98 49.964 0.1 8.5 0.84 12.15
4/9/2021 1:45:00 PM 10.09 50.162 0.1 8.57 0.85 12.17
4/9/2021 2:00:00 PM 10.16 50.288 0.1 8.6 0.83 12.14
4/9/2021 2:15:00 PM 10.2 50.36 0.1 8.6 0.89 12.1
4/9/2021 2:30:00 PM 10.23 50.414 0.099 8.6 0.85 12.07
4/9/2021 2:45:00 PM 10.28 50.504 0.099 8.63 0.82 12.08
4/9/2021 3:00:00 PM 10.34 50.612 0.099 8.64 0.88 12.08
4/9/2021 3:15:00 PM 10.34 50.612 0.099 8.59 0.83 11.99
4/9/2021 3:30:00 PM 10.33 50.594 0.099 8.55 0.85 11.95
4/9/2021 3:45:00 PM 10.37 50.666 0.099 8.56 0.89 11.97
4/9/2021 4:00:00 PM 10.43 50.774 0.099 8.6 0.87 11.99
4/9/2021 4:15:00 PM 10.47 50.846 0.099 8.62 0.89 11.98
4/9/2021 4:30:00 PM 10.48 50.864 0.099 8.61 0.87 11.95
4/9/2021 4:45:00 PM 10.48 50.864 0.099 8.59 0.85 11.91
4/9/2021 5:00:00 PM 10.49 50.882 0.099 8.57 0.86 11.88
4/9/2021 5:15:00 PM 10.49 50.882 0.099 8.49 0.9 11.81
4/9/2021 5:30:00 PM 10.49 50.882 0.099 8.45 0.91 11.78
4/9/2021 5:45:00 PM 10.48 50.864 0.099 8.4 0.84 11.73
4/9/2021 6:00:00 PM 10.46 50.828 0.099 8.23 0.91 11.57
4/9/2021 6:15:00 PM 10.43 50.774 0.1 8.05 0.87 11.41
4/9/2021 6:30:00 PM 10.4 50.72 0.1 7.94 0.87 11.31
4/9/2021 6:45:00 PM 10.37 50.666 0.1 7.87 0.88 11.24
4/9/2021 7:00:00 PM 10.33 50.594 0.1 7.8 0.86 11.14
4/9/2021 7:15:00 PM 10.3 50.54 0.1 7.73 0.85 11.02
4/9/2021 7:30:00 PM 10.26 50.468 0.1 7.68 0.95 10.94
4/9/2021 7:45:00 PM 10.23 50.414 0.1 7.64 0.85 10.86
4/9/2021 8:00:00 PM 10.2 50.36 0.101 7.61 0.96 10.79
4/9/2021 8:15:00 PM 10.17 50.306 0.101 7.58 0.89 10.74
4/9/2021 8:30:00 PM 10.13 50.234 0.101 7.56 1.09 10.71
4/9/2021 8:45:00 PM 10.1 50.18 0.101 7.54 0.88 10.69
4/9/2021 9:00:00 PM 10.07 50.126 0.101 7.53 1.02 10.69
4/9/2021 9:15:00 PM 10.04 50.072 0.101 7.53 0.84 10.68
4/9/2021 9:30:00 PM 10.02 50.036 0.101 7.52 1.13 10.68
4/9/2021 9:45:00 PM 9.99 49.982 0.102 7.51 0.87 10.67
4/9/2021 10:00:00 PM 9.97 49.946 0.102 7.51 0.87 10.68
4/9/2021 10:15:00 PM 9.94 49.892 0.102 7.5 0.93 10.68
4/9/2021 10:30:00 PM 9.92 49.856 0.102 7.49 0.97 10.68
4/9/2021 10:45:00 PM 9.9 49.82 0.102 7.5 0.84 10.69
4/9/2021 11:00:00 PM 9.88 49.784 0.102 7.49 0.96 10.69
4/9/2021 11:15:00 PM 9.86 49.748 0.102 7.49 0.79 10.69
4/9/2021 11:30:00 PM 9.84 49.712 0.102 7.49 0.91 10.7
4/9/2021 11:45:00 PM 9.82 49.676 0.102 7.49 0.95 10.7
4/10/2021 12:00:00 AM 9.8 49.64 0.102 7.49 1 10.7
4/10/2021 12:15:00 AM 9.78 49.604 0.102 7.48 0.95 10.71
4/10/2021 12:30:00 AM 9.76 49.568 0.102 7.48 0.94 10.72
4/10/2021 12:45:00 AM 9.74 49.532 0.102 7.48 0.88 10.72
4/10/2021 1:00:00 AM 9.72 49.496 0.102 7.48 0.93 10.73
4/10/2021 1:15:00 AM 9.7 49.46 0.102 7.48 0.93 10.74
4/10/2021 1:30:00 AM 9.68 49.424 0.102 7.48 0.88 10.74
4/10/2021 1:45:00 AM 9.67 49.406 0.102 7.47 0.82 10.75
4/10/2021 2:00:00 AM 9.65 49.37 0.102 7.47 0.91 10.75
4/10/2021 2:15:00 AM 9.63 49.334 0.102 7.47 0.94 10.75
4/10/2021 2:30:00 AM 9.61 49.298 0.102 7.47 0.92 10.76
4/10/2021 2:45:00 AM 9.59 49.262 0.102 7.47 0.84 10.76
4/10/2021 3:00:00 AM 9.58 49.244 0.102 7.47 0.91 10.76
4/10/2021 3:15:00 AM 9.56 49.208 0.102 7.47 0.98 10.77
4/10/2021 3:30:00 AM 9.54 49.172 0.102 7.46 0.94 10.78
4/10/2021 3:45:00 AM 9.52 49.136 0.102 7.46 0.89 10.78
4/10/2021 4:00:00 AM 9.51 49.118 0.102 7.47 0.94 10.78
4/10/2021 4:15:00 AM 9.5 49.1 0.102 7.47 0.98 10.78
4/10/2021 4:30:00 AM 9.49 49.082 0.102 7.47 0.88 10.78
4/10/2021 4:45:00 AM 9.48 49.064 0.102 7.47 0.89 10.78
4/10/2021 5:00:00 AM 9.46 49.028 0.102 7.47 0.98 10.79
4/10/2021 5:15:00 AM 9.45 49.01 0.102 7.47 0.92 10.79
4/10/2021 5:30:00 AM 9.43 48.974 0.102 7.47 0.9 10.79
4/10/2021 5:45:00 AM 9.42 48.956 0.102 7.47 1.16 10.8
4/10/2021 6:00:00 AM 9.41 48.938 0.102 7.47 0.91 10.81
4/10/2021 6:15:00 AM 9.39 48.902 0.102 7.46 0.98 10.81
4/10/2021 6:30:00 AM 9.38 48.884 0.102 7.47 0.95 10.82
4/10/2021 6:45:00 AM 9.36 48.848 0.102 7.46 0.99 10.83
4/10/2021 7:00:00 AM 9.35 48.83 0.102 7.47 0.92 10.86
4/10/2021 7:15:00 AM 9.35 48.83 0.102 7.48 0.86 10.9
4/10/2021 7:30:00 AM 9.34 48.812 0.102 7.5 0.95 10.96
4/10/2021 7:45:00 AM 9.34 48.812 0.102 7.52 0.9 11.03
4/10/2021 8:00:00 AM 9.34 48.812 0.102 7.55 0.91 11.13
4/10/2021 8:15:00 AM 9.36 48.848 0.102 7.58 0.82 11.25
4/10/2021 8:30:00 AM 9.38 48.884 0.102 7.64 0.84 11.41
4/10/2021 8:45:00 AM 9.42 48.956 0.102 7.7 0.96 11.56
4/10/2021 9:00:00 AM 9.46 49.028 0.102 7.77 0.87 11.69
4/10/2021 9:15:00 AM 9.5 49.1 0.102 7.82 0.94 11.75
4/10/2021 9:30:00 AM 9.53 49.154 0.102 7.87 0.84 11.81
4/10/2021 9:45:00 AM 9.56 49.208 0.102 7.92 0.85 11.85
4/10/2021 10:00:00 AM 9.61 49.298 0.102 7.99 0.9 11.92
4/10/2021 10:15:00 AM 9.66 49.388 0.101 8.04 0.87 11.95
4/10/2021 10:30:00 AM 9.71 49.478 0.101 8.1 0.88 11.98
4/10/2021 10:45:00 AM 9.77 49.586 0.101 8.16 0.8 12.02
4/10/2021 11:00:00 AM 9.84 49.712 0.101 8.22 0.87 12.03
4/10/2021 11:15:00 AM 9.91 49.838 0.101 8.27 0.83 12.04
4/10/2021 11:30:00 AM 9.98 49.964 0.101 8.33 0.85 12.05
4/10/2021 11:45:00 AM 10.04 50.072 0.101 8.36 0.92 12.04
4/10/2021 12:00:00 PM 10.12 50.216 0.101 8.4 0.87 12.03
4/10/2021 12:15:00 PM 10.19 50.342 0.101 8.44 0.9 12.03
4/10/2021 12:30:00 PM 10.24 50.432 0.101 8.47 0.85 12.02
4/10/2021 12:45:00 PM 10.3 50.54 0.101 8.5 0.95 12.02
4/10/2021 1:00:00 PM 10.38 50.684 0.1 8.56 0.9 12.03
4/10/2021 1:15:00 PM 10.5 50.9 0.1 8.61 0.85 12.04
4/10/2021 1:30:00 PM 10.62 51.116 0.1 8.67 0.92 12.05
4/10/2021 1:45:00 PM 10.75 51.35 0.1 8.72 0.87 12.05
4/10/2021 2:00:00 PM 10.89 51.602 0.1 8.76 0.9 12.03
4/10/2021 2:15:00 PM 11.03 51.854 0.1 8.79 0.91 12
4/10/2021 2:30:00 PM 11.11 51.998 0.1 8.8 0.8 11.96
4/10/2021 2:45:00 PM 11.17 52.106 0.1 8.82 0.9 11.93
4/10/2021 3:00:00 PM 11.23 52.214 0.1 8.82 0.85 11.89
4/10/2021 3:15:00 PM 11.28 52.304 0.1 8.82 0.82 11.85
4/10/2021 3:30:00 PM 11.32 52.376 0.1 8.8 0.86 11.79
4/10/2021 3:45:00 PM 11.33 52.394 0.1 8.77 0.9 11.71
4/10/2021 4:00:00 PM 11.35 52.43 0.1 8.73 0.88 11.67
4/10/2021 4:15:00 PM 11.38 52.484 0.1 8.72 0.93 11.67
4/10/2021 4:30:00 PM 11.39 52.502 0.1 8.71 0.89 11.65
4/10/2021 4:45:00 PM 11.41 52.538 0.099 8.69 0.92 11.62
4/10/2021 5:00:00 PM 11.43 52.574 0.099 8.69 0.86 11.61
4/10/2021 5:15:00 PM 11.45 52.61 0.099 8.69 0.88 11.6
4/10/2021 5:30:00 PM 11.46 52.628 0.099 8.65 0.94 11.54
4/10/2021 5:45:00 PM 11.44 52.592 0.099 8.58 0.91 11.48
4/10/2021 6:00:00 PM 11.42 52.556 0.1 8.47 0.98 11.38
4/10/2021 6:15:00 PM 11.39 52.502 0.1 8.33 0.85 11.3
4/10/2021 6:30:00 PM 11.35 52.43 0.1 8.25 0.97 11.27
4/10/2021 6:45:00 PM 11.29 52.322 0.1 8.17 0.88 11.22
4/10/2021 7:00:00 PM 11.23 52.214 0.1 8.06 0.99 11.12
4/10/2021 7:15:00 PM 11.16 52.088 0.1 7.95 0.94 11
4/10/2021 7:30:00 PM 11.09 51.962 0.1 7.84 0.89 10.86
4/10/2021 7:45:00 PM 11.01 51.818 0.101 7.75 0.97 10.72
4/10/2021 8:00:00 PM 10.93 51.674 0.101 7.68 0.98 10.6
4/10/2021 8:15:00 PM 10.87 51.566 0.101 7.63 1.05 10.52
4/10/2021 8:30:00 PM 10.81 51.458 0.101 7.6 3.53 10.46
4/10/2021 8:45:00 PM 10.76 51.368 0.079 7.57 14.11 10.43
4/10/2021 9:00:00 PM 10.7 51.26 0.102 7.56 0.94 10.42
4/10/2021 9:15:00 PM 10.65 51.17 0.102 7.54 0.86 10.41
4/10/2021 9:30:00 PM 10.6 51.08 0.102 7.53 0.8 10.41
4/10/2021 9:45:00 PM 10.55 50.99 0.102 7.52 0.76 10.41
4/10/2021 10:00:00 PM 10.5 50.9 0.102 7.51 0.97 10.42
4/10/2021 10:15:00 PM 10.45 50.81 0.102 7.51 0.75 10.43
4/10/2021 10:30:00 PM 10.4 50.72 0.102 7.51 0.74 10.43
4/10/2021 10:45:00 PM 10.37 50.666 0.102 7.5 0.8 10.43
4/10/2021 11:00:00 PM 10.34 50.612 0.103 7.5 0.8 10.44
4/10/2021 11:15:00 PM 10.31 50.558 0.103 7.49 0.77 10.45
4/10/2021 11:30:00 PM 10.28 50.504 0.103 7.49 0.78 10.46
4/10/2021 11:45:00 PM 10.26 50.468 0.103 7.49 0.74 10.46
4/11/2021 12:00:00 AM 10.24 50.432 0.103 7.49 0.72 10.47
4/11/2021 12:15:00 AM 10.22 50.396 0.103 7.49 0.9 10.47
4/11/2021 12:30:00 AM 10.19 50.342 0.103 7.49 0.81 10.48
4/11/2021 12:45:00 AM 10.16 50.288 0.103 7.48 0.76 10.48
4/11/2021 1:00:00 AM 10.14 50.252 0.103 7.48 0.75 10.48
4/11/2021 1:15:00 AM 10.13 50.234 0.103 7.48 0.78 10.48
4/11/2021 1:30:00 AM 10.12 50.216 0.103 7.48 0.69 10.48
4/11/2021 1:45:00 AM 10.11 50.198 0.103 7.48 0.65 10.49
4/11/2021 2:00:00 AM 10.1 50.18 0.103 7.48 0.74 10.49
4/11/2021 2:15:00 AM 10.09 50.162 0.103 7.48 0.79 10.49
4/11/2021 2:30:00 AM 10.07 50.126 0.103 7.48 0.56 10.49
4/11/2021 2:45:00 AM 10.06 50.108 0.103 7.48 0.7 10.49
4/11/2021 3:00:00 AM 10.04 50.072 0.103 7.48 0.78 10.49
4/11/2021 3:15:00 AM 10.02 50.036 0.103 7.48 0.72 10.5
4/11/2021 3:30:00 AM 10 50 0.103 7.48 0.78 10.5
4/11/2021 3:45:00 AM 9.98 49.964 0.103 7.48 0.88 10.51
4/11/2021 4:00:00 AM 9.97 49.946 0.103 7.47 0.73 10.5
4/11/2021 4:15:00 AM 9.96 49.928 0.103 7.47 0.82 10.51
4/11/2021 4:30:00 AM 9.94 49.892 0.103 7.47 0.76 10.51
4/11/2021 4:45:00 AM 9.92 49.856 0.103 7.47 0.68 10.51
4/11/2021 5:00:00 AM 9.91 49.838 0.103 7.47 0.8 10.51
4/11/2021 5:15:00 AM 9.9 49.82 0.103 7.47 0.75 10.51
4/11/2021 5:30:00 AM 9.88 49.784 0.103 7.46 0.72 10.51
4/11/2021 5:45:00 AM 9.88 49.784 0.103 7.46 0.81 10.51
4/11/2021 6:00:00 AM 9.88 49.784 0.102 7.46 1.13 10.51
4/11/2021 6:15:00 AM 9.88 49.784 0.102 7.46 0.81 10.5
4/11/2021 6:30:00 AM 9.89 49.802 0.102 7.46 0.77 10.5
4/11/2021 6:45:00 AM 9.89 49.802 0.102 7.46 0.96 10.5
4/11/2021 7:00:00 AM 9.89 49.802 0.102 7.46 0.88 10.5
4/11/2021 7:15:00 AM 9.9 49.82 0.101 7.46 0.92 10.52
4/11/2021 7:30:00 AM 9.91 49.838 0.101 7.47 1 10.54
4/11/2021 7:45:00 AM 9.9 49.82 0.101 7.48 0.93 10.57
4/11/2021 8:00:00 AM 9.9 49.82 0.101 7.49 0.92 10.6
4/11/2021 8:15:00 AM 9.91 49.838 0.101 7.49 0.9 10.61
4/11/2021 8:30:00 AM 9.91 49.838 0.1 7.49 1.06 10.62
4/11/2021 8:45:00 AM 9.9 49.82 0.1 7.5 1.03 10.66
4/11/2021 9:00:00 AM 9.9 49.82 0.1 7.52 1.1 10.72
4/11/2021 9:15:00 AM 9.93 49.874 0.1 7.54 1.04 10.79
4/11/2021 9:30:00 AM 9.96 49.928 0.099 7.57 1.12 10.86
4/11/2021 9:45:00 AM 9.99 49.982 0.099 7.6 1.11 10.96
4/11/2021 10:00:00 AM 10 50 0.099 7.62 1.32 11.01
4/11/2021 10:15:00 AM 10.02 50.036 0.098 7.65 1.49 11.08
4/11/2021 10:30:00 AM 10.06 50.108 0.098 7.7 1.37 11.21
4/11/2021 10:45:00 AM 10.11 50.198 0.098 7.76 1.25 11.31
4/11/2021 11:00:00 AM 10.14 50.252 0.097 7.8 1.25 11.38
4/11/2021 11:15:00 AM 10.18 50.324 0.097 7.84 1.38 11.42
4/11/2021 11:30:00 AM 10.22 50.396 0.097 7.89 1.21 11.46
4/11/2021 11:45:00 AM 10.34 50.612 0.097 7.98 1.41 11.56
4/11/2021 12:00:00 PM 10.45 50.81 0.097 8.05 1.38 11.61
4/11/2021 12:15:00 PM 10.5 50.9 0.096 8.07 1.4 11.59
4/11/2021 12:30:00 PM 10.58 51.044 0.095 8.05 1.55 11.52
4/11/2021 12:45:00 PM 10.61 51.098 0.095 8.06 1.75 11.51
4/11/2021 1:00:00 PM 10.63 51.134 0.095 8.06 1.94 11.49
4/11/2021 1:15:00 PM 10.65 51.17 0.095 8.04 1.8 11.44
4/11/2021 1:30:00 PM 10.66 51.188 0.095 8.07 1.96 11.47
4/11/2021 1:45:00 PM 10.72 51.296 0.095 8.12 1.97 11.51
4/11/2021 2:00:00 PM 10.79 51.422 0.096 8.16 2.5 11.52
4/11/2021 2:15:00 PM 10.85 51.53 0.096 8.19 2.52 11.52
4/11/2021 2:30:00 PM 10.89 51.602 0.097 8.18 2.47 11.48
4/11/2021 2:45:00 PM 10.94 51.692 0.097 8.19 2.41 11.47
4/11/2021 3:00:00 PM 11.01 51.818 0.097 8.22 2.31 11.47
4/11/2021 3:15:00 PM 11.07 51.926 0.098 8.22 2.32 11.44
4/11/2021 3:30:00 PM 11.11 51.998 0.099 8.21 2.4 11.41
4/11/2021 3:45:00 PM 11.15 52.07 0.1 8.19 2.42 11.37
4/11/2021 4:00:00 PM 11.2 52.16 0.101 8.19 3 11.36
4/11/2021 4:15:00 PM 11.23 52.214 0.102 8.13 2.41 11.29
4/11/2021 4:30:00 PM 11.26 52.268 0.103 8.11 2.43 11.25
4/11/2021 4:45:00 PM 11.28 52.304 0.104 8.09 2.67 11.21
4/11/2021 5:00:00 PM 11.28 52.304 0.104 8.03 2.62 11.16
4/11/2021 5:15:00 PM 11.29 52.322 0.104 8.01 2.88 11.14
4/11/2021 5:30:00 PM 11.29 52.322 0.105 7.98 2.82 11.09
4/11/2021 5:45:00 PM 11.28 52.304 0.106 7.93 3.04 11.04
4/11/2021 6:00:00 PM 11.27 52.286 0.107 7.9 3.36 10.99
4/11/2021 6:15:00 PM 11.27 52.286 0.107 7.87 3.42 10.95
4/11/2021 6:30:00 PM 11.25 52.25 0.108 7.82 3.56 10.87
4/11/2021 6:45:00 PM 11.22 52.196 0.109 7.76 3.87 10.77
4/11/2021 7:00:00 PM 11.17 52.106 0.111 7.71 3.43 10.69
4/11/2021 7:15:00 PM 11.14 52.052 0.112 7.67 3.43 10.61
4/11/2021 7:30:00 PM 11.11 51.998 0.114 7.64 3.39 10.55
4/11/2021 7:45:00 PM 11.08 51.944 0.117 7.61 3.89 10.49
4/11/2021 8:00:00 PM 11.04 51.872 0.119 7.58 4.85 10.43
4/11/2021 8:15:00 PM 11 51.8 0.12 7.57 3.9 10.4
4/11/2021 8:30:00 PM 10.95 51.71 0.122 7.56 3.45 10.38
4/11/2021 8:45:00 PM 10.91 51.638 0.123 7.54 3.46 10.37
4/11/2021 9:00:00 PM 10.86 51.548 0.123 7.53 3.38 10.36
4/11/2021 9:15:00 PM 10.81 51.458 0.124 7.52 3.17 10.36
4/11/2021 9:30:00 PM 10.77 51.386 0.124 7.51 3.3 10.36
4/11/2021 9:45:00 PM 10.74 51.332 0.124 7.51 3.31 10.36
4/11/2021 10:00:00 PM 10.7 51.26 0.125 7.5 3.29 10.37
4/11/2021 10:15:00 PM 10.67 51.206 0.125 7.49 3.22 10.38
4/11/2021 10:30:00 PM 10.66 51.188 0.124 7.49 3.86 10.39
4/11/2021 10:45:00 PM 10.64 51.152 0.124 7.49 3.79 10.4
4/11/2021 11:00:00 PM 10.61 51.098 0.124 7.49 3.92 10.4
4/11/2021 11:15:00 PM 10.57 51.026 0.124 7.49 4.29 10.41
4/11/2021 11:30:00 PM 10.53 50.954 0.125 7.48 4.42 10.41
4/11/2021 11:45:00 PM 10.5 50.9 0.125 7.49 14.56 10.4
4/12/2021 12:00:00 AM 10.47 50.846 0.125 7.47 12.7 10.41
4/12/2021 12:15:00 AM 10.43 50.774 0.125 7.46 8.62 10.42
4/12/2021 12:30:00 AM 10.39 50.702 0.126 7.46 7.4 10.44
4/12/2021 12:45:00 AM 10.35 50.63 0.125 7.45 7.4 10.46
4/12/2021 1:00:00 AM 10.31 50.558 0.124 7.44 8.49 10.47
4/12/2021 1:15:00 AM 10.25 50.45 0.122 7.43 8.48 10.49
4/12/2021 1:30:00 AM 10.21 50.378 0.12 7.43 8.74 10.5
4/12/2021 1:45:00 AM 10.16 50.288 0.118 7.42 10.59 10.52
4/12/2021 2:00:00 AM 10.12 50.216 0.117 7.41 11.65 10.53
4/12/2021 2:15:00 AM 10.07 50.126 0.115 7.4 11.46 10.56
4/12/2021 2:30:00 AM 10.02 50.036 0.114 7.39 12.15 10.57
4/12/2021 2:45:00 AM 9.96 49.928 0.113 7.39 14.22 10.59
4/12/2021 3:00:00 AM 9.91 49.838 0.114 7.4 15.54 10.61
4/12/2021 3:15:00 AM 9.86 49.748 0.114 7.4 15.03 10.62
4/12/2021 3:30:00 AM 9.81 49.658 0.115 7.4 16 10.64
4/12/2021 3:45:00 AM 9.77 49.586 0.115 7.4 16.47 10.66
4/12/2021 4:00:00 AM 9.73 49.514 0.116 7.41 14.72 10.67
4/12/2021 4:15:00 AM 9.7 49.46 0.116 7.41 15.33 10.69
4/12/2021 4:30:00 AM 9.67 49.406 0.117 7.4 15.15 10.7
4/12/2021 4:45:00 AM 9.65 49.37 0.118 7.41 13.57 10.71
4/12/2021 5:00:00 AM 9.62 49.316 0.119 7.41 13.74 10.71
4/12/2021 5:15:00 AM 9.61 49.298 0.121 7.42 15.28 10.72
4/12/2021 5:30:00 AM 9.59 49.262 0.123 7.42 14.11 10.73
4/12/2021 5:45:00 AM 9.56 49.208 0.125 7.42 13.51 10.74
4/12/2021 6:00:00 AM 9.54 49.172 0.127 7.43 12.2 10.75
4/12/2021 6:15:00 AM 9.52 49.136 0.128 7.42 11.47 10.76
4/12/2021 6:30:00 AM 9.5 49.1 0.128 7.44 12.72 10.76
4/12/2021 6:45:00 AM 9.48 49.064 0.128 7.44 10.52 10.77
4/12/2021 7:00:00 AM 9.46 49.028 0.127 7.44 10.36 10.78
4/12/2021 7:15:00 AM 9.45 49.01 0.126 7.45 9.43 10.8
4/12/2021 7:30:00 AM 9.43 48.974 0.125 7.45 9.77 10.81
4/12/2021 7:45:00 AM 9.42 48.956 0.125 7.45 9.11 10.83
4/12/2021 8:00:00 AM 9.4 48.92 0.124 7.46 8.61 10.83
4/12/2021 8:15:00 AM 9.38 48.884 0.124 7.46 9.86 10.85
4/12/2021 8:30:00 AM 9.37 48.866 0.124 7.47 7.97 10.87
4/12/2021 8:45:00 AM 9.35 48.83 0.124 7.48 8.34 10.9
4/12/2021 9:00:00 AM 9.34 48.812 0.124 7.49 7.37 10.93
4/12/2021 9:15:00 AM 9.33 48.794 0.124 7.5 7.3 10.97
4/12/2021 9:30:00 AM 9.31 48.758 0.124 7.51 7.28 11
4/12/2021 9:45:00 AM 9.31 48.758 0.124 7.52 6.51 11.05
4/12/2021 10:00:00 AM 9.31 48.758 0.124 7.53 6.53 11.09
4/12/2021 10:15:00 AM 9.31 48.758 0.124 7.54 6.12 11.12
4/12/2021 10:30:00 AM 9.31 48.758 0.123 7.55 5.62 11.15
4/12/2021 10:45:00 AM 9.32 48.776 0.123 7.57 5.55 11.21
4/12/2021 11:00:00 AM 9.33 48.794 0.123 7.58 5.17 11.27
4/12/2021 11:15:00 AM 9.33 48.794 0.123 7.59 4.93 11.29
4/12/2021 11:30:00 AM 9.32 48.776 0.123 7.59 4.88 11.28
4/12/2021 11:45:00 AM 9.3 48.74 0.123 7.59 4.52 11.27
4/12/2021 12:00:00 PM 9.3 48.74 0.123 7.6 4.38 11.28
4/12/2021 12:15:00 PM 9.29 48.722 0.123 7.6 4.37 11.3
4/12/2021 12:30:00 PM 9.28 48.704 0.122 7.6 4.12 11.31
4/12/2021 12:45:00 PM 9.27 48.686 0.122 7.6 3.9 11.33
4/12/2021 1:00:00 PM 9.27 48.686 0.122 7.61 3.84 11.32
4/12/2021 1:15:00 PM 9.27 48.686 0.121 7.62 3.87 11.35
4/12/2021 1:30:00 PM 9.28 48.704 0.121 7.62 3.65 11.36
4/12/2021 1:45:00 PM 9.28 48.704 0.12 7.62 3.54 11.35
4/12/2021 2:00:00 PM 9.3 48.74 0.12 7.63 3.53 11.38
4/12/2021 2:15:00 PM 9.32 48.776 0.119 7.64 3.42 11.4
4/12/2021 2:30:00 PM 9.35 48.83 0.119 7.66 3.35 11.44
4/12/2021 2:45:00 PM 9.39 48.902 0.118 7.68 3.26 11.47
4/12/2021 3:00:00 PM 9.4 48.92 0.118 7.68 3.29 11.45
4/12/2021 3:15:00 PM 9.39 48.902 0.117 7.66 3.38 11.43
4/12/2021 3:30:00 PM 9.38 48.884 0.116 7.66 3.03 11.41
4/12/2021 3:45:00 PM 9.36 48.848 0.116 7.65 3.17 11.39
4/12/2021 4:00:00 PM 9.35 48.83 0.116 7.63 2.77 11.37
4/12/2021 4:15:00 PM 9.33 48.794 0.115 7.63 3.15 11.38
4/12/2021 4:30:00 PM 9.31 48.758 0.115 7.62 2.9 11.36
4/12/2021 4:45:00 PM 9.29 48.722 0.114 7.61 2.85 11.34
4/12/2021 5:00:00 PM 9.27 48.686 0.114 7.6 2.93 11.33
4/12/2021 5:15:00 PM 9.25 48.65 0.114 7.59 2.85 11.32
4/12/2021 5:30:00 PM 9.23 48.614 0.113 7.58 2.87 11.29
4/12/2021 5:45:00 PM 9.22 48.596 0.113 7.57 2.86 11.29
4/12/2021 6:00:00 PM 9.2 48.56 0.112 7.56 2.79 11.29
4/12/2021 6:15:00 PM 9.18 48.524 0.112 7.56 2.66 11.28
4/12/2021 6:30:00 PM 9.16 48.488 0.111 7.54 3.6 11.23
4/12/2021 6:45:00 PM 9.14 48.452 0.111 7.52 2.86 11.22
4/12/2021 7:00:00 PM 9.11 48.398 0.111 7.51 2.77 11.2
4/12/2021 7:15:00 PM 9.09 48.362 0.11 7.49 2.99 11.16
4/12/2021 7:30:00 PM 9.06 48.308 0.11 7.48 2.55 11.13
4/12/2021 7:45:00 PM 9.03 48.254 0.11 7.46 2.9 11.1
4/12/2021 8:00:00 PM 9.01 48.218 0.109 7.45 2.71 11.07
4/12/2021 8:15:00 PM 8.98 48.164 0.109 7.44 3 11.05
4/12/2021 8:30:00 PM 8.94 48.092 0.109 7.43 2.74 11.05
4/12/2021 8:45:00 PM 8.91 48.038 0.108 7.42 2.63 11.04
4/12/2021 9:00:00 PM 8.89 48.002 0.108 7.41 2.69 11.04
4/12/2021 9:15:00 PM 8.86 47.948 0.108 7.41 2.77 11.05
4/12/2021 9:30:00 PM 8.83 47.894 0.107 7.4 2.64 11.04
4/12/2021 9:45:00 PM 8.81 47.858 0.107 7.4 2.68 11.05
4/12/2021 10:00:00 PM 8.78 47.804 0.107 7.4 2.79 11.06
4/12/2021 10:15:00 PM 8.75 47.75 0.107 7.39 2.65 11.07
4/12/2021 10:30:00 PM 8.72 47.696 0.106 7.39 2.57 11.07
4/12/2021 10:45:00 PM 8.69 47.642 0.106 7.39 2.62 11.08
4/12/2021 11:00:00 PM 8.67 47.606 0.106 7.39 2.62 11.09
4/12/2021 11:15:00 PM 8.64 47.552 0.106 7.39 2.4 11.1
4/12/2021 11:30:00 PM 8.61 47.498 0.105 7.39 2.46 11.1
4/12/2021 11:45:00 PM 8.58 47.444 0.105 7.39 2.62 11.11
4/13/2021 12:00:00 AM 8.55 47.39 0.105 7.39 2.37 11.12
4/13/2021 12:15:00 AM 8.52 47.336 0.105 7.38 2.47 11.14
4/13/2021 12:30:00 AM 8.5 47.3 0.104 7.38 2.65 11.15
4/13/2021 12:45:00 AM 8.47 47.246 0.104 7.38 2.57 11.15
4/13/2021 1:00:00 AM 8.44 47.192 0.104 7.38 2.51 11.16
4/13/2021 1:15:00 AM 8.42 47.156 0.104 7.37 2.5 11.17
4/13/2021 1:30:00 AM 8.39 47.102 0.103 7.38 2.35 11.18
4/13/2021 1:45:00 AM 8.37 47.066 0.103 7.38 2.43 11.18
4/13/2021 2:00:00 AM 8.35 47.03 0.103 7.38 2.38 11.19
4/13/2021 2:15:00 AM 8.33 46.994 0.103 7.38 2.37 11.2
4/13/2021 2:30:00 AM 8.3 46.94 0.103 7.38 2.54 11.2
4/13/2021 2:45:00 AM 8.29 46.922 0.102 7.37 2.55 11.21
4/13/2021 3:00:00 AM 8.27 46.886 0.102 7.38 2.16 11.21
4/13/2021 3:15:00 AM 8.25 46.85 0.102 7.37 2.45 11.22
4/13/2021 3:30:00 AM 8.23 46.814 0.102 7.37 2.42 11.23
4/13/2021 3:45:00 AM 8.21 46.778 0.102 7.37 2.33 11.24
4/13/2021 4:00:00 AM 8.2 46.76 0.101 7.37 2.5 11.24
4/13/2021 4:15:00 AM 8.18 46.724 0.101 7.37 2.26 11.25
4/13/2021 4:30:00 AM 8.16 46.688 0.101 7.35 2.48 11.26
4/13/2021 4:45:00 AM 8.14 46.652 0.1 7.37 2.53 11.26
4/13/2021 5:00:00 AM 8.13 46.634 0.1 7.37 2.16 11.27
4/13/2021 5:15:00 AM 8.11 46.598 0.1 7.36 2.38 11.27
4/13/2021 5:30:00 AM 8.1 46.58 0.1 7.37 2.24 11.28
4/13/2021 5:45:00 AM 8.08 46.544 0.099 7.37 2.29 11.28
4/13/2021 6:00:00 AM 8.07 46.526 0.099 7.36 2.34 11.29
4/13/2021 6:15:00 AM 8.05 46.49 0.099 7.36 2.62 11.29
4/13/2021 6:30:00 AM 8.04 46.472 0.099 7.37 2.36 11.29
4/13/2021 6:45:00 AM 8.02 46.436 0.099 7.37 2.39 11.31
4/13/2021 7:00:00 AM 8.01 46.418 0.098 7.37 2.4 11.32
4/13/2021 7:15:00 AM 8 46.4 0.098 7.37 2.25 11.35
4/13/2021 7:30:00 AM 7.99 46.382 0.098 7.38 2.35 11.38
4/13/2021 7:45:00 AM 7.99 46.382 0.098 7.39 2.27 11.42
4/13/2021 8:00:00 AM 7.99 46.382 0.098 7.41 2.02 11.48
4/13/2021 8:15:00 AM 8.01 46.418 0.098 7.43 1.84 11.57
4/13/2021 8:30:00 AM 8.02 46.436 0.097 7.45 1.96 11.63
4/13/2021 8:45:00 AM 8.03 46.454 0.097 7.47 1.74 11.66
4/13/2021 9:00:00 AM 8.05 46.49 0.097 7.49 1.86 11.73
4/13/2021 9:15:00 AM 8.13 46.634 0.097 7.53 1.66 11.81
4/13/2021 9:30:00 AM 8.17 46.706 0.097 7.54 1.77 11.85
4/13/2021 9:45:00 AM 8.21 46.778 0.096 7.56 1.66 11.86
4/13/2021 10:00:00 AM 8.25 46.85 0.096 7.57 1.63 11.88
4/13/2021 10:15:00 AM 8.33 46.994 0.096 7.6 1.54 11.91
4/13/2021 10:30:00 AM 8.4 47.12 0.096 7.61 1.48 11.93
4/13/2021 10:45:00 AM 8.55 47.39 0.096 7.64 1.55 11.94
4/13/2021 11:00:00 AM 8.64 47.552 0.095 7.64 1.59 11.94
4/13/2021 11:15:00 AM 8.79 47.822 0.095 7.67 1.48 11.94
4/13/2021 11:30:00 AM 8.88 47.984 0.095 7.68 1.5 11.92
4/13/2021 11:45:00 AM 9.14 48.452 0.095 7.7 1.47 11.92
4/13/2021 12:00:00 PM 9.35 48.83 0.095 7.71 1.43 11.87
4/13/2021 12:15:00 PM 9.57 49.226 0.094 7.72 1.49 11.82
4/13/2021 12:30:00 PM 9.64 49.352 0.094 7.72 1.54 11.79
4/13/2021 12:45:00 PM 9.71 49.478 0.094 7.73 1.43 11.76
4/13/2021 1:00:00 PM 9.8 49.64 0.094 7.74 1.56 11.75
4/13/2021 1:15:00 PM 9.95 49.91 0.094 7.76 1.41 11.72
4/13/2021 1:30:00 PM 10.07 50.126 0.094 7.75 1.53 11.68
4/13/2021 1:45:00 PM 10.38 50.684 0.094 7.77 1.48 11.64
4/13/2021 2:00:00 PM 10.56 51.008 0.093 7.77 1.51 11.59
4/13/2021 2:15:00 PM 10.56 51.008 0.093 7.75 1.39 11.53
4/13/2021 2:30:00 PM 10.6 51.08 0.093 7.71 1.48 11.42
4/13/2021 2:45:00 PM 10.62 51.116 0.093 7.7 1.45 11.38
4/13/2021 3:00:00 PM 10.58 51.044 0.093 7.71 1.49 11.39
4/13/2021 3:15:00 PM 10.52 50.936 0.093 7.71 1.53 11.4
4/13/2021 3:30:00 PM 10.47 50.846 0.093 7.7 1.55 11.38
4/13/2021 3:45:00 PM 10.43 50.774 0.093 7.69 1.63 11.36
4/13/2021 4:00:00 PM 10.46 50.828 0.093 7.7 1.39 11.4
4/13/2021 4:15:00 PM 10.64 51.152 0.092 7.73 1.47 11.43
4/13/2021 4:30:00 PM 10.71 51.278 0.092 7.75 1.49 11.43
4/13/2021 4:45:00 PM 10.71 51.278 0.092 7.74 1.5 11.4
4/13/2021 5:00:00 PM 10.72 51.296 0.092 7.73 1.6 11.37
4/13/2021 5:15:00 PM 10.71 51.278 0.092 7.73 1.47 11.36
4/13/2021 5:30:00 PM 10.76 51.368 0.092 7.74 1.46 11.36
4/13/2021 5:45:00 PM 10.78 51.404 0.092 7.73 1.67 11.35
4/13/2021 6:00:00 PM 10.75 51.35 0.092 7.71 1.38 11.31
4/13/2021 6:15:00 PM 10.72 51.296 0.092 7.69 1.71 11.27
4/13/2021 6:30:00 PM 10.64 51.152 0.092 7.65 1.63 11.22
4/13/2021 6:45:00 PM 10.59 51.062 0.092 7.63 1.74 11.18
4/13/2021 7:00:00 PM 10.51 50.918 0.092 7.59 1.59 11.12
4/13/2021 7:15:00 PM 10.43 50.774 0.092 7.55 1.51 11.06
4/13/2021 7:30:00 PM 10.35 50.63 0.092 7.52 1.62 11
4/13/2021 7:45:00 PM 10.27 50.486 0.092 7.48 1.63 10.95
4/13/2021 8:00:00 PM 10.17 50.306 0.092 7.45 1.57 10.89
4/13/2021 8:15:00 PM 10.08 50.144 0.092 7.42 1.81 10.86
4/13/2021 8:30:00 PM 9.99 49.982 0.092 7.4 1.75 10.84
4/13/2021 8:45:00 PM 9.9 49.82 0.092 7.39 1.74 10.83
4/13/2021 9:00:00 PM 9.82 49.676 0.092 7.38 1.74 10.84
4/13/2021 9:15:00 PM 9.74 49.532 0.092 7.37 1.8 10.84
4/13/2021 9:30:00 PM 9.66 49.388 0.092 7.36 1.81 10.85
4/13/2021 9:45:00 PM 9.58 49.244 0.092 7.36 1.74 10.86
4/13/2021 10:00:00 PM 9.5 49.1 0.092 7.36 1.74 10.88
4/13/2021 10:15:00 PM 9.42 48.956 0.092 7.35 1.92 10.89
4/13/2021 10:30:00 PM 9.35 48.83 0.092 7.35 1.69 10.91
4/13/2021 10:45:00 PM 9.26 48.668 0.092 7.35 1.84 10.93
4/13/2021 11:00:00 PM 9.18 48.524 0.092 7.34 1.88 10.95
4/13/2021 11:15:00 PM 9.09 48.362 0.092 7.34 1.65 10.97
4/13/2021 11:30:00 PM 9.01 48.218 0.092 7.34 1.63 11
4/13/2021 11:45:00 PM 8.94 48.092 0.092 7.34 1.7 11.02
4/14/2021 12:00:00 AM 8.86 47.948 0.092 7.34 1.62 11.04
4/14/2021 12:15:00 AM 8.8 47.84 0.092 7.33 1.77 11.06
4/14/2021 12:30:00 AM 8.73 47.714 0.092 7.34 1.66 11.08
4/14/2021 12:45:00 AM 8.66 47.588 0.092 7.33 1.67 11.1
4/14/2021 1:00:00 AM 8.6 47.48 0.091 7.33 1.84 11.12
4/14/2021 1:15:00 AM 8.53 47.354 0.091 7.33 1.59 11.14
4/14/2021 1:30:00 AM 8.47 47.246 0.091 7.33 1.82 11.16
4/14/2021 1:45:00 AM 8.41 47.138 0.091 7.33 1.69 11.17
4/14/2021 2:00:00 AM 8.34 47.012 0.091 7.33 1.76 11.19
4/14/2021 2:15:00 AM 8.28 46.904 0.091 7.33 1.69 11.2
4/14/2021 2:30:00 AM 8.21 46.778 0.091 7.33 1.69 11.22
4/14/2021 2:45:00 AM 8.15 46.67 0.091 7.33 1.73 11.24
4/14/2021 3:00:00 AM 8.09 46.562 0.091 7.32 1.81 11.26
4/14/2021 3:15:00 AM 8.04 46.472 0.091 7.33 1.84 11.28
4/14/2021 3:30:00 AM 7.99 46.382 0.091 7.33 1.94 11.29
4/14/2021 3:45:00 AM 7.95 46.31 0.091 7.33 1.69 11.29
4/14/2021 4:00:00 AM 7.91 46.238 0.091 7.33 1.79 11.31
4/14/2021 4:15:00 AM 7.88 46.184 0.091 7.33 1.54 11.32
4/14/2021 4:30:00 AM 7.84 46.112 0.091 7.33 1.67 11.33
4/14/2021 4:45:00 AM 7.8 46.04 0.091 7.32 1.63 11.35
4/14/2021 5:00:00 AM 7.77 45.986 0.091 7.33 1.47 11.35
4/14/2021 5:15:00 AM 7.73 45.914 0.091 7.33 1.63 11.36
4/14/2021 5:30:00 AM 7.69 45.842 0.091 7.32 1.49 11.37
4/14/2021 5:45:00 AM 7.65 45.77 0.091 7.32 1.55 11.38
4/14/2021 6:00:00 AM 7.6 45.68 0.091 7.32 1.52 11.4
4/14/2021 6:15:00 AM 7.56 45.608 0.091 7.32 1.47 11.41
4/14/2021 6:30:00 AM 7.52 45.536 0.091 7.32 1.75 11.43
4/14/2021 6:45:00 AM 7.49 45.482 0.091 7.33 1.5 11.46
4/14/2021 7:00:00 AM 7.47 45.446 0.091 7.33 1.49 11.5
4/14/2021 7:15:00 AM 7.45 45.41 0.091 7.35 1.31 11.56
4/14/2021 7:30:00 AM 7.45 45.41 0.091 7.37 1.3 11.63
4/14/2021 7:45:00 AM 7.47 45.446 0.09 7.39 1.34 11.73
4/14/2021 8:00:00 AM 7.49 45.482 0.09 7.39 1.43 11.8
4/14/2021 8:15:00 AM 7.51 45.518 0.09 7.44 1.28 11.87
4/14/2021 8:30:00 AM 7.54 45.572 0.09 7.46 1.17 11.92
4/14/2021 8:45:00 AM 7.59 45.662 0.09 7.48 1.26 11.98
4/14/2021 9:00:00 AM 7.65 45.77 0.09 7.51 1.24 12.02
4/14/2021 9:15:00 AM 7.73 45.914 0.089 7.53 1.19 12.06
4/14/2021 9:30:00 AM 7.84 46.112 0.089 7.56 1.13 12.08
4/14/2021 9:45:00 AM 7.93 46.274 0.089 7.58 1.11 12.1
4/14/2021 10:00:00 AM 8.01 46.418 0.089 7.59 1.16 12.08
4/14/2021 10:15:00 AM 8.09 46.562 0.089 7.61 1.08 12.08
4/14/2021 10:30:00 AM 8.19 46.742 0.089 7.63 1.14 12.08
4/14/2021 10:45:00 AM 8.32 46.976 0.089 7.64 1.11 12.08
4/14/2021 11:00:00 AM 8.44 47.192 0.089 7.67 1.07 12.07
4/14/2021 11:15:00 AM 8.57 47.426 0.089 7.69 1.01 12.05
4/14/2021 11:30:00 AM 8.69 47.642 0.088 7.7 1.13 12.02
4/14/2021 11:45:00 AM 8.82 47.876 0.088 7.71 1.09 12
4/14/2021 12:00:00 PM 8.95 48.11 0.088 7.73 1.39 11.98
4/14/2021 12:15:00 PM 9.16 48.488 0.088 7.75 1.06 11.95
4/14/2021 12:30:00 PM 9.32 48.776 0.088 7.76 0.96 11.91
4/14/2021 12:45:00 PM 9.5 49.1 0.088 7.77 1.07 11.86
4/14/2021 1:00:00 PM 9.63 49.334 0.088 7.78 1.01 11.82
4/14/2021 1:15:00 PM 9.8 49.64 0.088 7.8 1.06 11.79
4/14/2021 1:30:00 PM 9.98 49.964 0.088 7.82 1.12 11.76
4/14/2021 1:45:00 PM 10.23 50.414 0.088 7.82 1.02 11.72
4/14/2021 2:00:00 PM 10.34 50.612 0.088 7.82 1.06 11.66
4/14/2021 2:15:00 PM 10.42 50.756 0.088 7.81 1.04 11.6
4/14/2021 2:30:00 PM 10.64 51.152 0.088 7.82 1.18 11.56
4/14/2021 2:45:00 PM 10.82 51.476 0.088 7.83 1.07 11.51
4/14/2021 3:00:00 PM 10.96 51.728 0.087 7.84 1.05 11.48
4/14/2021 3:15:00 PM 11.14 52.052 0.087 7.85 1.2 11.45
4/14/2021 3:30:00 PM 11.27 52.286 0.087 7.85 1.07 11.4
4/14/2021 3:45:00 PM 11.4 52.52 0.087 7.85 1.16 11.37
4/14/2021 4:00:00 PM 11.42 52.556 0.087 7.84 1.27 11.31
4/14/2021 4:15:00 PM 11.37 52.466 0.087 7.81 1.17 11.25
4/14/2021 4:30:00 PM 11.35 52.43 0.087 7.78 1.13 11.19
4/14/2021 4:45:00 PM 11.33 52.394 0.087 7.77 1.05 11.18
4/14/2021 5:00:00 PM 11.27 52.286 0.087 7.75 1.11 11.14
4/14/2021 5:15:00 PM 11.2 52.16 0.087 7.71 1.01 11.07
4/14/2021 5:30:00 PM 11.13 52.034 0.087 7.69 1.14 11.05
4/14/2021 5:45:00 PM 11.06 51.908 0.087 7.68 1.17 11.06
4/14/2021 6:00:00 PM 10.99 51.782 0.087 7.67 1.18 11.05
4/14/2021 6:15:00 PM 10.93 51.674 0.087 7.65 1.08 11.04
4/14/2021 6:30:00 PM 10.86 51.548 0.087 7.63 1.12 11.02
4/14/2021 6:45:00 PM 10.8 51.44 0.087 7.6 1.21 10.97
4/14/2021 7:00:00 PM 10.73 51.314 0.087 7.57 1.27 10.93
4/14/2021 7:15:00 PM 10.66 51.188 0.088 7.54 1.35 10.89
4/14/2021 7:30:00 PM 10.59 51.062 0.088 7.51 1.18 10.83
4/14/2021 7:45:00 PM 10.51 50.918 0.088 7.48 1.16 10.78
4/14/2021 8:00:00 PM 10.44 50.792 0.088 7.45 1.18 10.73
4/14/2021 8:15:00 PM 10.37 50.666 0.088 7.43 1.3 10.69
4/14/2021 8:30:00 PM 10.3 50.54 0.088 7.41 1.26 10.67
4/14/2021 8:45:00 PM 10.24 50.432 0.088 7.39 1.47 10.67
4/14/2021 9:00:00 PM 10.17 50.306 0.088 7.38 1.44 10.66
4/14/2021 9:15:00 PM 10.11 50.198 0.088 7.37 1.29 10.65
4/14/2021 9:30:00 PM 10.05 50.09 0.088 7.36 1.43 10.66
4/14/2021 9:45:00 PM 9.99 49.982 0.088 7.35 1.46 10.66
4/14/2021 10:00:00 PM 9.93 49.874 0.088 7.36 1.49 10.68
4/14/2021 10:15:00 PM 9.87 49.766 0.088 7.34 1.44 10.69
4/14/2021 10:30:00 PM 9.81 49.658 0.088 7.35 1.36 10.7
4/14/2021 10:45:00 PM 9.75 49.55 0.088 7.35 1.31 10.71
4/14/2021 11:00:00 PM 9.7 49.46 0.088 7.35 1.5 10.72
4/14/2021 11:15:00 PM 9.65 49.37 0.088 7.34 1.21 10.74
4/14/2021 11:30:00 PM 9.58 49.244 0.088 7.34 1.44 10.75
4/14/2021 11:45:00 PM 9.51 49.118 0.088 7.34 1.59 10.77
4/15/2021 12:00:00 AM 9.44 48.992 0.088 7.35 1.45 10.78
4/15/2021 12:15:00 AM 9.36 48.848 0.088 7.34 1.62 10.8
4/15/2021 12:30:00 AM 9.28 48.704 0.088 7.34 1.47 10.82
4/15/2021 12:45:00 AM 9.21 48.578 0.088 7.35 1.5 10.84
4/15/2021 1:00:00 AM 9.12 48.416 0.088 7.35 1.49 10.87
4/15/2021 1:15:00 AM 9.05 48.29 0.088 7.35 1.44 10.88
4/15/2021 1:30:00 AM 8.99 48.182 0.088 7.35 1.51 10.9
4/15/2021 1:45:00 AM 8.94 48.092 0.088 7.35 1.41 10.91
4/15/2021 2:00:00 AM 8.89 48.002 0.088 7.35 1.72 10.92
4/15/2021 2:15:00 AM 8.84 47.912 0.088 7.35 1.27 10.94
4/15/2021 2:30:00 AM 8.8 47.84 0.088 7.33 1.26 10.96
4/15/2021 2:45:00 AM 8.76 47.768 0.088 7.35 1.28 10.97
4/15/2021 3:00:00 AM 8.72 47.696 0.088 7.35 1.28 10.98
4/15/2021 3:15:00 AM 8.68 47.624 0.088 7.35 1.36 10.98
4/15/2021 3:30:00 AM 8.63 47.534 0.088 7.35 1.45 11
4/15/2021 3:45:00 AM 8.58 47.444 0.089 7.36 1.25 11
4/15/2021 4:00:00 AM 8.53 47.354 0.088 7.35 1.5 11.02
4/15/2021 4:15:00 AM 8.49 47.282 0.088 7.35 1.31 11.03
4/15/2021 4:30:00 AM 8.44 47.192 0.088 7.36 1.21 11.04
4/15/2021 4:45:00 AM 8.39 47.102 0.089 7.35 1.25 11.06
4/15/2021 5:00:00 AM 8.35 47.03 0.089 7.36 1.23 11.07
4/15/2021 5:15:00 AM 8.31 46.958 0.089 7.35 1.35 11.07
4/15/2021 5:30:00 AM 8.28 46.904 0.089 7.35 1.27 11.08
4/15/2021 5:45:00 AM 8.24 46.832 0.089 7.35 1.26 11.09
4/15/2021 6:00:00 AM 8.21 46.778 0.089 7.36 1.18 11.1
4/15/2021 6:15:00 AM 8.18 46.724 0.089 7.35 1.12 11.11
4/15/2021 6:30:00 AM 8.14 46.652 0.089 7.36 1.16 11.12
4/15/2021 6:45:00 AM 8.11 46.598 0.089 7.36 1.3 11.15
4/15/2021 7:00:00 AM 8.08 46.544 0.089 7.36 1.16 11.18
4/15/2021 7:15:00 AM 8.06 46.508 0.088 7.38 1.31 11.23
4/15/2021 7:30:00 AM 8.05 46.49 0.088 7.39 1.47 11.31
4/15/2021 7:45:00 AM 8.04 46.472 0.088 7.41 1.18 11.37
4/15/2021 8:00:00 AM 8.03 46.454 0.088 7.43 1.17 11.42
4/15/2021 8:15:00 AM 8.02 46.436 0.088 7.44 1.06 11.45
4/15/2021 8:30:00 AM 8.01 46.418 0.088 7.45 1.08 11.47
4/15/2021 8:45:00 AM 8.02 46.436 0.088 7.47 1.02 11.54
4/15/2021 9:00:00 AM 8.04 46.472 0.088 7.49 1.04 11.63
4/15/2021 9:15:00 AM 8.07 46.526 0.088 7.52 0.91 11.69
4/15/2021 9:30:00 AM 8.07 46.526 0.088 7.53 1 11.68
4/15/2021 9:45:00 AM 8.08 46.544 0.088 7.54 1.14 11.69
4/15/2021 10:00:00 AM 8.08 46.544 0.088 7.55 1.05 11.71
4/15/2021 10:15:00 AM 8.08 46.544 0.088 7.57 0.9 11.74
4/15/2021 10:30:00 AM 8.08 46.544 0.088 7.58 1 11.76
4/15/2021 10:45:00 AM 8.08 46.544 0.088 7.6 0.83 11.81
4/15/2021 11:00:00 AM 8.12 46.616 0.088 7.64 0.87 11.87
4/15/2021 11:15:00 AM 8.12 46.616 0.087 7.65 0.96 11.88
4/15/2021 11:30:00 AM 8.13 46.634 0.087 7.66 1.05 11.89
4/15/2021 11:45:00 AM 8.19 46.742 0.087 7.69 0.9 11.94
4/15/2021 12:00:00 PM 8.27 46.886 0.087 7.72 0.94 11.97
4/15/2021 12:15:00 PM 8.41 47.138 0.087 7.75 0.85 11.99
4/15/2021 12:30:00 PM 8.57 47.426 0.087 7.76 0.81 11.97
4/15/2021 12:45:00 PM 8.61 47.498 0.087 7.76 0.92 11.94
4/15/2021 1:00:00 PM 8.72 47.696 0.087 7.79 0.9 11.93
4/15/2021 1:15:00 PM 8.78 47.804 0.087 7.79 0.91 11.91
4/15/2021 1:30:00 PM 8.86 47.948 0.087 7.81 0.91 11.9
4/15/2021 1:45:00 PM 9 48.2 0.087 7.83 0.81 11.89
4/15/2021 2:00:00 PM 9.02 48.236 0.087 7.8 0.85 11.81
4/15/2021 2:15:00 PM 9.03 48.254 0.087 7.78 0.9 11.77
4/15/2021 2:30:00 PM 9.11 48.398 0.087 7.81 0.91 11.77
4/15/2021 2:45:00 PM 9.13 48.434 0.087 7.8 0.84 11.74
4/15/2021 3:00:00 PM 9.09 48.362 0.087 7.78 0.88 11.7
4/15/2021 3:15:00 PM 9.07 48.326 0.087 7.76 0.98 11.67
4/15/2021 3:30:00 PM 9.03 48.254 0.087 7.76 0.89 11.68
4/15/2021 3:45:00 PM 8.99 48.182 0.087 7.76 0.93 11.68
4/15/2021 4:00:00 PM 8.96 48.128 0.087 7.77 0.88 11.7
4/15/2021 4:15:00 PM 8.9 48.02 0.087 7.75 0.89 11.67
4/15/2021 4:30:00 PM 8.86 47.948 0.087 7.73 1.01 11.65
4/15/2021 4:45:00 PM 8.85 47.93 0.087 7.73 1 11.66
4/15/2021 5:00:00 PM 8.85 47.93 0.087 7.73 0.83 11.66
4/15/2021 5:15:00 PM 8.82 47.876 0.087 7.71 0.93 11.63
4/15/2021 5:30:00 PM 8.81 47.858 0.087 7.71 0.98 11.63
4/15/2021 5:45:00 PM 8.74 47.732 0.087 7.67 0.96 11.55
4/15/2021 6:00:00 PM 8.68 47.624 0.087 7.64 0.97 11.51
4/15/2021 6:15:00 PM 8.63 47.534 0.087 7.61 0.97 11.47
4/15/2021 6:30:00 PM 8.6 47.48 0.087 7.61 0.96 11.51
4/15/2021 6:45:00 PM 8.55 47.39 0.087 7.61 0.91 11.53
4/15/2021 7:00:00 PM 8.5 47.3 0.087 7.6 0.94 11.52
4/15/2021 7:15:00 PM 8.45 47.21 0.087 7.59 0.99 11.49
4/15/2021 7:30:00 PM 8.36 47.048 0.087 7.56 1.03 11.43
4/15/2021 7:45:00 PM 8.29 46.922 0.087 7.52 1.81 11.36
4/15/2021 8:00:00 PM 8.22 46.796 0.087 7.49 0.97 11.31
4/15/2021 8:15:00 PM 8.17 46.706 0.087 7.47 1.07 11.28
4/15/2021 8:30:00 PM 8.11 46.598 0.088 7.45 1.21 11.25
4/15/2021 8:45:00 PM 8.06 46.508 0.088 7.44 1.1 11.24
4/15/2021 9:00:00 PM 8.01 46.418 0.088 7.43 1.09 11.22
4/15/2021 9:15:00 PM 7.95 46.31 0.088 7.42 1.14 11.22
4/15/2021 9:30:00 PM 7.9 46.22 0.088 7.41 1.04 11.23
4/15/2021 9:45:00 PM 7.84 46.112 0.088 7.41 1.18 11.23
4/15/2021 10:00:00 PM 7.78 46.004 0.088 7.41 1.33 11.25
4/15/2021 10:15:00 PM 7.72 45.896 0.088 7.41 1.26 11.27
4/15/2021 10:30:00 PM 7.66 45.788 0.088 7.4 1.11 11.27
4/15/2021 10:45:00 PM 7.58 45.644 0.088 7.4 1.13 11.28
4/15/2021 11:00:00 PM 7.51 45.518 0.088 7.4 1.13 11.3
4/15/2021 11:15:00 PM 7.47 45.446 0.088 7.4 1.06 11.32
4/15/2021 11:30:00 PM 7.43 45.374 0.088 7.4 1.02 11.33
4/15/2021 11:45:00 PM 7.39 45.302 0.088 7.39 1.03 11.34
4/16/2021 12:00:00 AM 7.32 45.176 0.088 7.39 1.01 11.36
4/16/2021 12:15:00 AM 7.24 45.032 0.088 7.39 1.01 11.38
4/16/2021 12:30:00 AM 7.19 44.942 0.088 7.39 1.14 11.39
4/16/2021 12:45:00 AM 7.15 44.87 0.088 7.39 0.98 11.4
4/16/2021 1:00:00 AM 7.1 44.78 0.088 7.39 1.06 11.42
4/16/2021 1:15:00 AM 7.07 44.726 0.088 7.39 1.03 11.43
4/16/2021 1:30:00 AM 7.03 44.654 0.088 7.39 1.13 11.45
4/16/2021 1:45:00 AM 6.98 44.564 0.088 7.39 1.01 11.46
4/16/2021 2:00:00 AM 6.93 44.474 0.088 7.39 1.31 11.47
4/16/2021 2:15:00 AM 6.88 44.384 0.088 7.39 1.17 11.48
4/16/2021 2:30:00 AM 6.85 44.33 0.088 7.39 1.13 11.49
4/16/2021 2:45:00 AM 6.82 44.276 0.088 7.37 0.98 11.5
4/16/2021 3:00:00 AM 6.79 44.222 0.089 7.39 0.98 11.51
4/16/2021 3:15:00 AM 6.77 44.186 0.089 7.38 1.07 11.52
4/16/2021 3:30:00 AM 6.74 44.132 0.089 7.39 1.12 11.53
4/16/2021 3:45:00 AM 6.71 44.078 0.089 7.39 0.96 11.54
4/16/2021 4:00:00 AM 6.69 44.042 0.089 7.39 0.97 11.54
4/16/2021 4:15:00 AM 6.66 43.988 0.089 7.39 0.97 11.56
4/16/2021 4:30:00 AM 6.63 43.934 0.089 7.39 0.97 11.56
4/16/2021 4:45:00 AM 6.59 43.862 0.089 7.39 0.95 11.58
4/16/2021 5:00:00 AM 6.56 43.808 0.089 7.39 1.02 11.58
4/16/2021 5:15:00 AM 6.53 43.754 0.089 7.39 1.03 11.59
4/16/2021 5:30:00 AM 6.5 43.7 0.089 7.39 1.06 11.6
4/16/2021 5:45:00 AM 6.46 43.628 0.089 7.39 1 11.6
4/16/2021 6:00:00 AM 6.42 43.556 0.089 7.39 1 11.61
4/16/2021 6:15:00 AM 6.34 43.412 0.088 7.39 1.1 11.62
4/16/2021 6:30:00 AM 6.3 43.34 0.088 7.38 1.18 11.64
4/16/2021 6:45:00 AM 6.27 43.286 0.088 7.39 1.06 11.66
4/16/2021 7:00:00 AM 6.25 43.25 0.088 7.39 1.1 11.7
4/16/2021 7:15:00 AM 6.25 43.25 0.088 7.41 1.01 11.73
4/16/2021 7:30:00 AM 6.24 43.232 0.088 7.42 0.95 11.79
4/16/2021 7:45:00 AM 6.23 43.214 0.088 7.44 1.03 11.85
4/16/2021 8:00:00 AM 6.24 43.232 0.088 7.45 1 11.92
4/16/2021 8:15:00 AM 6.25 43.25 0.088 7.47 1.02 11.99
4/16/2021 8:30:00 AM 6.28 43.304 0.088 7.5 1.06 12.08
4/16/2021 8:45:00 AM 6.31 43.358 0.088 7.52 0.92 12.13
4/16/2021 9:00:00 AM 6.33 43.394 0.088 7.54 1.06 12.16
4/16/2021 9:15:00 AM 6.35 43.43 0.088 7.56 0.9 12.19
4/16/2021 9:30:00 AM 6.38 43.484 0.088 7.58 0.87 12.23
4/16/2021 9:45:00 AM 6.44 43.592 0.088 7.61 0.81 12.28
4/16/2021 10:00:00 AM 6.51 43.718 0.087 7.64 0.79 12.32
4/16/2021 10:15:00 AM 6.61 43.898 0.087 7.67 0.79 12.35
4/16/2021 10:30:00 AM 6.68 44.024 0.087 7.69 0.89 12.37
4/16/2021 10:45:00 AM 6.74 44.132 0.087 7.71</